<?xml version="1.0" encoding="UTF-8" standalone="no" ?>
<gpx xmlns="http://www.topografix.com/GPX/1/1" xmlns:xsi="http://www.w3.org/2001/XMLSchema-instance" xsi:schemaLocation="http://www.topografix.com/GPX/1/1 http://www.topografix.com/GPX/1/1/gpx.xsd" version="1.1" creator="VisuGPX - https://www.visugpx.com">
  <metadata>
    <name>Ran..Deauville ! 19 km Made In Normandie</name>
    <desc><![CDATA[Très belle randonnée sur les hauteurs de Deauville . Golf de St Arnoult, anciennes batteries du Mur de l'Atlantique, cimetière militaire américain, maison de Gustave Flaubert.. et baignade !!

Récit à retrouver sur [url]http://trekkingzone.fr
[/url]


]]></desc>
  </metadata>
  <trk>
    <name><![CDATA[24 juin 2020 à 09:42:12]]></name>
    <cmt><![CDATA[24 juin 2020 à 09:42:12]]></cmt>
    <trkseg>
      <trkpt lat="49.36088" lon="0.08497">
        <ele>6</ele>
        <time>2020-06-24T07:42:12Z</time>
      </trkpt>
      <trkpt lat="49.36088" lon="0.08497">
        <ele>6</ele>
        <time>2020-06-24T07:42:13Z</time>
      </trkpt>
      <trkpt lat="49.36073" lon="0.08505">
        <ele>6</ele>
        <time>2020-06-24T07:42:45Z</time>
      </trkpt>
      <trkpt lat="49.36068" lon="0.085">
        <ele>6</ele>
        <time>2020-06-24T07:42:49Z</time>
      </trkpt>
      <trkpt lat="49.36063" lon="0.08486">
        <ele>6</ele>
        <time>2020-06-24T07:42:55Z</time>
      </trkpt>
      <trkpt lat="49.36059" lon="0.08481">
        <ele>6</ele>
        <time>2020-06-24T07:42:59Z</time>
      </trkpt>
      <trkpt lat="49.36049" lon="0.0848">
        <ele>6</ele>
        <time>2020-06-24T07:43:07Z</time>
      </trkpt>
      <trkpt lat="49.36039" lon="0.08463">
        <ele>6</ele>
        <time>2020-06-24T07:43:18Z</time>
      </trkpt>
      <trkpt lat="49.36037" lon="0.08456">
        <ele>6</ele>
        <time>2020-06-24T07:43:22Z</time>
      </trkpt>
      <trkpt lat="49.36028" lon="0.08438">
        <ele>6</ele>
        <time>2020-06-24T07:43:32Z</time>
      </trkpt>
      <trkpt lat="49.36024" lon="0.08415">
        <ele>6</ele>
        <time>2020-06-24T07:43:43Z</time>
      </trkpt>
      <trkpt lat="49.36019" lon="0.08399">
        <ele>6</ele>
        <time>2020-06-24T07:43:52Z</time>
      </trkpt>
      <trkpt lat="49.36016" lon="0.08378">
        <ele>6</ele>
        <time>2020-06-24T07:44:02Z</time>
      </trkpt>
      <trkpt lat="49.36012" lon="0.08373">
        <ele>6</ele>
        <time>2020-06-24T07:44:05Z</time>
      </trkpt>
      <trkpt lat="49.36004" lon="0.08352">
        <ele>6</ele>
        <time>2020-06-24T07:44:16Z</time>
      </trkpt>
      <trkpt lat="49.36001" lon="0.08347">
        <ele>6</ele>
        <time>2020-06-24T07:44:20Z</time>
      </trkpt>
      <trkpt lat="49.35987" lon="0.08335">
        <ele>6</ele>
        <time>2020-06-24T07:44:31Z</time>
      </trkpt>
      <trkpt lat="49.35984" lon="0.08327">
        <ele>6</ele>
        <time>2020-06-24T07:44:35Z</time>
      </trkpt>
      <trkpt lat="49.35981" lon="0.08264">
        <ele>6</ele>
        <time>2020-06-24T07:45:05Z</time>
      </trkpt>
      <trkpt lat="49.35982" lon="0.08256">
        <ele>6</ele>
        <time>2020-06-24T07:45:09Z</time>
      </trkpt>
      <trkpt lat="49.35978" lon="0.08215">
        <ele>7</ele>
        <time>2020-06-24T07:45:28Z</time>
      </trkpt>
      <trkpt lat="49.35979" lon="0.08206">
        <ele>7</ele>
        <time>2020-06-24T07:45:32Z</time>
      </trkpt>
      <trkpt lat="49.35971" lon="0.0815">
        <ele>6</ele>
        <time>2020-06-24T07:45:58Z</time>
      </trkpt>
      <trkpt lat="49.35971" lon="0.08127">
        <ele>6</ele>
        <time>2020-06-24T07:46:10Z</time>
      </trkpt>
      <trkpt lat="49.35972" lon="0.08113">
        <ele>7</ele>
        <time>2020-06-24T07:46:23Z</time>
      </trkpt>
      <trkpt lat="49.35971" lon="0.08106">
        <ele>7</ele>
        <time>2020-06-24T07:46:27Z</time>
      </trkpt>
      <trkpt lat="49.35967" lon="0.08101">
        <ele>7</ele>
        <time>2020-06-24T07:46:31Z</time>
      </trkpt>
      <trkpt lat="49.35968" lon="0.08096">
        <ele>7</ele>
        <time>2020-06-24T07:46:55Z</time>
      </trkpt>
      <trkpt lat="49.35971" lon="0.08088">
        <ele>7</ele>
        <time>2020-06-24T07:46:59Z</time>
      </trkpt>
      <trkpt lat="49.35973" lon="0.08081">
        <ele>7</ele>
        <time>2020-06-24T07:47:03Z</time>
      </trkpt>
      <trkpt lat="49.35969" lon="0.08072">
        <ele>7</ele>
        <time>2020-06-24T07:47:18Z</time>
      </trkpt>
      <trkpt lat="49.35969" lon="0.0806">
        <ele>8</ele>
        <time>2020-06-24T07:47:37Z</time>
      </trkpt>
      <trkpt lat="49.35966" lon="0.08055">
        <ele>7</ele>
        <time>2020-06-24T07:47:40Z</time>
      </trkpt>
      <trkpt lat="49.35963" lon="0.08048">
        <ele>7</ele>
        <time>2020-06-24T07:47:44Z</time>
      </trkpt>
      <trkpt lat="49.35961" lon="0.08041">
        <ele>7</ele>
        <time>2020-06-24T07:47:51Z</time>
      </trkpt>
      <trkpt lat="49.3595" lon="0.08023">
        <ele>7</ele>
        <time>2020-06-24T07:48:01Z</time>
      </trkpt>
      <trkpt lat="49.35954" lon="0.08007">
        <ele>7</ele>
        <time>2020-06-24T07:48:07Z</time>
      </trkpt>
      <trkpt lat="49.3594" lon="0.07972">
        <ele>7</ele>
        <time>2020-06-24T07:48:27Z</time>
      </trkpt>
      <trkpt lat="49.35931" lon="0.07955">
        <ele>8</ele>
        <time>2020-06-24T07:48:40Z</time>
      </trkpt>
      <trkpt lat="49.35931" lon="0.07941">
        <ele>7</ele>
        <time>2020-06-24T07:48:46Z</time>
      </trkpt>
      <trkpt lat="49.35919" lon="0.07916">
        <ele>7</ele>
        <time>2020-06-24T07:48:57Z</time>
      </trkpt>
      <trkpt lat="49.35919" lon="0.079">
        <ele>7</ele>
        <time>2020-06-24T07:49:04Z</time>
      </trkpt>
      <trkpt lat="49.35915" lon="0.07888">
        <ele>7</ele>
        <time>2020-06-24T07:49:10Z</time>
      </trkpt>
      <trkpt lat="49.35907" lon="0.07878">
        <ele>7</ele>
        <time>2020-06-24T07:49:17Z</time>
      </trkpt>
      <trkpt lat="49.35906" lon="0.07848">
        <ele>7</ele>
        <time>2020-06-24T07:49:33Z</time>
      </trkpt>
      <trkpt lat="49.35898" lon="0.07837">
        <ele>7</ele>
        <time>2020-06-24T07:49:38Z</time>
      </trkpt>
      <trkpt lat="49.35886" lon="0.07828">
        <ele>6</ele>
        <time>2020-06-24T07:49:44Z</time>
      </trkpt>
      <trkpt lat="49.35874" lon="0.07811">
        <ele>7</ele>
        <time>2020-06-24T07:49:55Z</time>
      </trkpt>
      <trkpt lat="49.3587" lon="0.07806">
        <ele>7</ele>
        <time>2020-06-24T07:49:58Z</time>
      </trkpt>
      <trkpt lat="49.35867" lon="0.0779">
        <ele>7</ele>
        <time>2020-06-24T07:50:06Z</time>
      </trkpt>
      <trkpt lat="49.35865" lon="0.07784">
        <ele>7</ele>
        <time>2020-06-24T07:50:09Z</time>
      </trkpt>
      <trkpt lat="49.35861" lon="0.07778">
        <ele>7</ele>
        <time>2020-06-24T07:50:13Z</time>
      </trkpt>
      <trkpt lat="49.35861" lon="0.0777">
        <ele>7</ele>
        <time>2020-06-24T07:50:17Z</time>
      </trkpt>
      <trkpt lat="49.35859" lon="0.0774">
        <ele>7</ele>
        <time>2020-06-24T07:50:33Z</time>
      </trkpt>
      <trkpt lat="49.35857" lon="0.07731">
        <ele>7</ele>
        <time>2020-06-24T07:50:37Z</time>
      </trkpt>
      <trkpt lat="49.35853" lon="0.07727">
        <ele>7</ele>
        <time>2020-06-24T07:50:39Z</time>
      </trkpt>
      <trkpt lat="49.35848" lon="0.07723">
        <ele>7</ele>
        <time>2020-06-24T07:50:43Z</time>
      </trkpt>
      <trkpt lat="49.35841" lon="0.07711">
        <ele>7</ele>
        <time>2020-06-24T07:50:50Z</time>
      </trkpt>
      <trkpt lat="49.35834" lon="0.07701">
        <ele>7</ele>
        <time>2020-06-24T07:50:56Z</time>
      </trkpt>
      <trkpt lat="49.35831" lon="0.07685">
        <ele>7</ele>
        <time>2020-06-24T07:51:04Z</time>
      </trkpt>
      <trkpt lat="49.35828" lon="0.07679">
        <ele>7</ele>
        <time>2020-06-24T07:51:07Z</time>
      </trkpt>
      <trkpt lat="49.3582" lon="0.0767">
        <ele>7</ele>
        <time>2020-06-24T07:51:13Z</time>
      </trkpt>
      <trkpt lat="49.3581" lon="0.07642">
        <ele>7</ele>
        <time>2020-06-24T07:51:27Z</time>
      </trkpt>
      <trkpt lat="49.35807" lon="0.07619">
        <ele>7</ele>
        <time>2020-06-24T07:51:39Z</time>
      </trkpt>
      <trkpt lat="49.35804" lon="0.07614">
        <ele>7</ele>
        <time>2020-06-24T07:51:42Z</time>
      </trkpt>
      <trkpt lat="49.35802" lon="0.07602">
        <ele>7</ele>
        <time>2020-06-24T07:52:13Z</time>
      </trkpt>
      <trkpt lat="49.358" lon="0.07594">
        <ele>7</ele>
        <time>2020-06-24T07:52:18Z</time>
      </trkpt>
      <trkpt lat="49.35798" lon="0.07588">
        <ele>8</ele>
        <time>2020-06-24T07:52:21Z</time>
      </trkpt>
      <trkpt lat="49.35797" lon="0.07581">
        <ele>7</ele>
        <time>2020-06-24T07:52:25Z</time>
      </trkpt>
      <trkpt lat="49.35792" lon="0.07577">
        <ele>7</ele>
        <time>2020-06-24T07:52:28Z</time>
      </trkpt>
      <trkpt lat="49.35765" lon="0.07516">
        <ele>7</ele>
        <time>2020-06-24T07:52:59Z</time>
      </trkpt>
      <trkpt lat="49.35758" lon="0.07506">
        <ele>7</ele>
        <time>2020-06-24T07:53:05Z</time>
      </trkpt>
      <trkpt lat="49.35757" lon="0.07498">
        <ele>7</ele>
        <time>2020-06-24T07:53:08Z</time>
      </trkpt>
      <trkpt lat="49.35743" lon="0.07465">
        <ele>8</ele>
        <time>2020-06-24T07:53:26Z</time>
      </trkpt>
      <trkpt lat="49.3573" lon="0.07439">
        <ele>8</ele>
        <time>2020-06-24T07:53:40Z</time>
      </trkpt>
      <trkpt lat="49.35727" lon="0.07425">
        <ele>7</ele>
        <time>2020-06-24T07:53:48Z</time>
      </trkpt>
      <trkpt lat="49.35717" lon="0.07398">
        <ele>8</ele>
        <time>2020-06-24T07:54:02Z</time>
      </trkpt>
      <trkpt lat="49.35712" lon="0.07393">
        <ele>8</ele>
        <time>2020-06-24T07:54:06Z</time>
      </trkpt>
      <trkpt lat="49.35709" lon="0.07386">
        <ele>7</ele>
        <time>2020-06-24T07:54:10Z</time>
      </trkpt>
      <trkpt lat="49.35709" lon="0.07378">
        <ele>7</ele>
        <time>2020-06-24T07:54:13Z</time>
      </trkpt>
      <trkpt lat="49.3571" lon="0.0737">
        <ele>7</ele>
        <time>2020-06-24T07:54:16Z</time>
      </trkpt>
      <trkpt lat="49.35695" lon="0.07329">
        <ele>7</ele>
        <time>2020-06-24T07:54:38Z</time>
      </trkpt>
      <trkpt lat="49.35691" lon="0.07324">
        <ele>7</ele>
        <time>2020-06-24T07:54:42Z</time>
      </trkpt>
      <trkpt lat="49.35686" lon="0.0731">
        <ele>7</ele>
        <time>2020-06-24T07:54:49Z</time>
      </trkpt>
      <trkpt lat="49.35684" lon="0.07295">
        <ele>7</ele>
        <time>2020-06-24T07:54:58Z</time>
      </trkpt>
      <trkpt lat="49.35679" lon="0.07282">
        <ele>7</ele>
        <time>2020-06-24T07:55:05Z</time>
      </trkpt>
      <trkpt lat="49.35676" lon="0.07266">
        <ele>7</ele>
        <time>2020-06-24T07:55:14Z</time>
      </trkpt>
      <trkpt lat="49.35673" lon="0.07259">
        <ele>7</ele>
        <time>2020-06-24T07:55:18Z</time>
      </trkpt>
      <trkpt lat="49.3567" lon="0.07245">
        <ele>7</ele>
        <time>2020-06-24T07:55:24Z</time>
      </trkpt>
      <trkpt lat="49.35667" lon="0.07231">
        <ele>7</ele>
        <time>2020-06-24T07:55:32Z</time>
      </trkpt>
      <trkpt lat="49.35661" lon="0.07211">
        <ele>8</ele>
        <time>2020-06-24T07:55:42Z</time>
      </trkpt>
      <trkpt lat="49.35651" lon="0.07192">
        <ele>7</ele>
        <time>2020-06-24T07:55:53Z</time>
      </trkpt>
      <trkpt lat="49.35647" lon="0.07176">
        <ele>8</ele>
        <time>2020-06-24T07:56:01Z</time>
      </trkpt>
      <trkpt lat="49.35648" lon="0.07168">
        <ele>8</ele>
        <time>2020-06-24T07:56:04Z</time>
      </trkpt>
      <trkpt lat="49.35645" lon="0.07162">
        <ele>8</ele>
        <time>2020-06-24T07:56:07Z</time>
      </trkpt>
      <trkpt lat="49.35639" lon="0.07152">
        <ele>8</ele>
        <time>2020-06-24T07:56:17Z</time>
      </trkpt>
      <trkpt lat="49.35635" lon="0.07146">
        <ele>8</ele>
        <time>2020-06-24T07:56:22Z</time>
      </trkpt>
      <trkpt lat="49.35633" lon="0.07139">
        <ele>7</ele>
        <time>2020-06-24T07:56:26Z</time>
      </trkpt>
      <trkpt lat="49.35628" lon="0.07126">
        <ele>8</ele>
        <time>2020-06-24T07:56:32Z</time>
      </trkpt>
      <trkpt lat="49.35621" lon="0.07113">
        <ele>8</ele>
        <time>2020-06-24T07:56:39Z</time>
      </trkpt>
      <trkpt lat="49.35619" lon="0.07105">
        <ele>8</ele>
        <time>2020-06-24T07:56:44Z</time>
      </trkpt>
      <trkpt lat="49.35613" lon="0.07094">
        <ele>8</ele>
        <time>2020-06-24T07:56:50Z</time>
      </trkpt>
      <trkpt lat="49.35609" lon="0.07079">
        <ele>8</ele>
        <time>2020-06-24T07:56:58Z</time>
      </trkpt>
      <trkpt lat="49.35605" lon="0.07073">
        <ele>8</ele>
        <time>2020-06-24T07:57:01Z</time>
      </trkpt>
      <trkpt lat="49.35598" lon="0.07055">
        <ele>8</ele>
        <time>2020-06-24T07:57:10Z</time>
      </trkpt>
      <trkpt lat="49.35595" lon="0.07048">
        <ele>8</ele>
        <time>2020-06-24T07:57:14Z</time>
      </trkpt>
      <trkpt lat="49.35591" lon="0.07045">
        <ele>7</ele>
        <time>2020-06-24T07:57:17Z</time>
      </trkpt>
      <trkpt lat="49.35583" lon="0.07048">
        <ele>8</ele>
        <time>2020-06-24T07:57:23Z</time>
      </trkpt>
      <trkpt lat="49.35562" lon="0.07071">
        <ele>8</ele>
        <time>2020-06-24T07:57:46Z</time>
      </trkpt>
      <trkpt lat="49.35559" lon="0.07076">
        <ele>7</ele>
        <time>2020-06-24T07:57:49Z</time>
      </trkpt>
      <trkpt lat="49.35555" lon="0.0708">
        <ele>8</ele>
        <time>2020-06-24T07:57:54Z</time>
      </trkpt>
      <trkpt lat="49.3555" lon="0.07085">
        <ele>8</ele>
        <time>2020-06-24T07:58:00Z</time>
      </trkpt>
      <trkpt lat="49.35546" lon="0.07091">
        <ele>8</ele>
        <time>2020-06-24T07:58:05Z</time>
      </trkpt>
      <trkpt lat="49.35505" lon="0.07127">
        <ele>8</ele>
        <time>2020-06-24T07:58:39Z</time>
      </trkpt>
      <trkpt lat="49.35471" lon="0.07152">
        <ele>8</ele>
        <time>2020-06-24T07:59:03Z</time>
      </trkpt>
      <trkpt lat="49.35466" lon="0.07154">
        <ele>8</ele>
        <time>2020-06-24T07:59:07Z</time>
      </trkpt>
      <trkpt lat="49.35462" lon="0.07158">
        <ele>8</ele>
        <time>2020-06-24T07:59:12Z</time>
      </trkpt>
      <trkpt lat="49.35456" lon="0.07163">
        <ele>7</ele>
        <time>2020-06-24T07:59:18Z</time>
      </trkpt>
      <trkpt lat="49.35442" lon="0.07173">
        <ele>7</ele>
        <time>2020-06-24T07:59:28Z</time>
      </trkpt>
      <trkpt lat="49.35416" lon="0.07187">
        <ele>8</ele>
        <time>2020-06-24T07:59:45Z</time>
      </trkpt>
      <trkpt lat="49.35412" lon="0.07197">
        <ele>7</ele>
        <time>2020-06-24T07:59:56Z</time>
      </trkpt>
      <trkpt lat="49.35403" lon="0.07205">
        <ele>8</ele>
        <time>2020-06-24T08:00:58Z</time>
      </trkpt>
      <trkpt lat="49.35362" lon="0.07242">
        <ele>8</ele>
        <time>2020-06-24T08:01:30Z</time>
      </trkpt>
      <trkpt lat="49.3532" lon="0.07281">
        <ele>8</ele>
        <time>2020-06-24T08:02:09Z</time>
      </trkpt>
      <trkpt lat="49.35306" lon="0.07294">
        <ele>7</ele>
        <time>2020-06-24T08:02:24Z</time>
      </trkpt>
      <trkpt lat="49.35294" lon="0.07308">
        <ele>7</ele>
        <time>2020-06-24T08:02:34Z</time>
      </trkpt>
      <trkpt lat="49.35266" lon="0.07322">
        <ele>8</ele>
        <time>2020-06-24T08:02:55Z</time>
      </trkpt>
      <trkpt lat="49.35254" lon="0.07326">
        <ele>8</ele>
        <time>2020-06-24T08:03:05Z</time>
      </trkpt>
      <trkpt lat="49.35239" lon="0.07335">
        <ele>7</ele>
        <time>2020-06-24T08:03:16Z</time>
      </trkpt>
      <trkpt lat="49.352" lon="0.07352">
        <ele>8</ele>
        <time>2020-06-24T08:03:44Z</time>
      </trkpt>
      <trkpt lat="49.35196" lon="0.07358">
        <ele>8</ele>
        <time>2020-06-24T08:03:48Z</time>
      </trkpt>
      <trkpt lat="49.35192" lon="0.07365">
        <ele>8</ele>
        <time>2020-06-24T08:03:57Z</time>
      </trkpt>
      <trkpt lat="49.35185" lon="0.07365">
        <ele>9</ele>
        <time>2020-06-24T08:04:13Z</time>
      </trkpt>
      <trkpt lat="49.3518" lon="0.07365">
        <ele>9</ele>
        <time>2020-06-24T08:04:16Z</time>
      </trkpt>
      <trkpt lat="49.35175" lon="0.07358">
        <ele>9</ele>
        <time>2020-06-24T08:04:52Z</time>
      </trkpt>
      <trkpt lat="49.35172" lon="0.07354">
        <ele>9</ele>
        <time>2020-06-24T08:04:56Z</time>
      </trkpt>
      <trkpt lat="49.3516" lon="0.07359">
        <ele>9</ele>
        <time>2020-06-24T08:05:07Z</time>
      </trkpt>
      <trkpt lat="49.35125" lon="0.07378">
        <ele>14</ele>
        <time>2020-06-24T08:05:36Z</time>
      </trkpt>
      <trkpt lat="49.35121" lon="0.07383">
        <ele>15</ele>
        <time>2020-06-24T08:05:41Z</time>
      </trkpt>
      <trkpt lat="49.35089" lon="0.07395">
        <ele>20</ele>
        <time>2020-06-24T08:06:11Z</time>
      </trkpt>
      <trkpt lat="49.35061" lon="0.07389">
        <ele>24</ele>
        <time>2020-06-24T08:06:34Z</time>
      </trkpt>
      <trkpt lat="49.35049" lon="0.07376">
        <ele>27</ele>
        <time>2020-06-24T08:06:48Z</time>
      </trkpt>
      <trkpt lat="49.35044" lon="0.07364">
        <ele>28</ele>
        <time>2020-06-24T08:06:55Z</time>
      </trkpt>
      <trkpt lat="49.35029" lon="0.07344">
        <ele>31</ele>
        <time>2020-06-24T08:07:11Z</time>
      </trkpt>
      <trkpt lat="49.3502" lon="0.07342">
        <ele>34</ele>
        <time>2020-06-24T08:07:33Z</time>
      </trkpt>
      <trkpt lat="49.3501" lon="0.07337">
        <ele>35</ele>
        <time>2020-06-24T08:07:39Z</time>
      </trkpt>
      <trkpt lat="49.34987" lon="0.0735">
        <ele>40</ele>
        <time>2020-06-24T08:08:37Z</time>
      </trkpt>
      <trkpt lat="49.34981" lon="0.07362">
        <ele>41</ele>
        <time>2020-06-24T08:08:46Z</time>
      </trkpt>
      <trkpt lat="49.34973" lon="0.0737">
        <ele>42</ele>
        <time>2020-06-24T08:08:54Z</time>
      </trkpt>
      <trkpt lat="49.34954" lon="0.07378">
        <ele>46</ele>
        <time>2020-06-24T08:09:14Z</time>
      </trkpt>
      <trkpt lat="49.34933" lon="0.07387">
        <ele>51</ele>
        <time>2020-06-24T08:09:38Z</time>
      </trkpt>
      <trkpt lat="49.34923" lon="0.07389">
        <ele>52</ele>
        <time>2020-06-24T08:09:45Z</time>
      </trkpt>
      <trkpt lat="49.34918" lon="0.07392">
        <ele>53</ele>
        <time>2020-06-24T08:09:50Z</time>
      </trkpt>
      <trkpt lat="49.34888" lon="0.07401">
        <ele>59</ele>
        <time>2020-06-24T08:10:19Z</time>
      </trkpt>
      <trkpt lat="49.34869" lon="0.07414">
        <ele>62</ele>
        <time>2020-06-24T08:10:39Z</time>
      </trkpt>
      <trkpt lat="49.34869" lon="0.07421">
        <ele>64</ele>
        <time>2020-06-24T08:10:55Z</time>
      </trkpt>
      <trkpt lat="49.34865" lon="0.07427">
        <ele>64</ele>
        <time>2020-06-24T08:11:14Z</time>
      </trkpt>
      <trkpt lat="49.3486" lon="0.07428">
        <ele>65</ele>
        <time>2020-06-24T08:11:19Z</time>
      </trkpt>
      <trkpt lat="49.34855" lon="0.07428">
        <ele>65</ele>
        <time>2020-06-24T08:11:23Z</time>
      </trkpt>
      <trkpt lat="49.3485" lon="0.07424">
        <ele>66</ele>
        <time>2020-06-24T08:11:27Z</time>
      </trkpt>
      <trkpt lat="49.34849" lon="0.07417">
        <ele>65</ele>
        <time>2020-06-24T08:11:30Z</time>
      </trkpt>
      <trkpt lat="49.34849" lon="0.07409">
        <ele>65</ele>
        <time>2020-06-24T08:11:34Z</time>
      </trkpt>
      <trkpt lat="49.34851" lon="0.07402">
        <ele>65</ele>
        <time>2020-06-24T08:11:38Z</time>
      </trkpt>
      <trkpt lat="49.34852" lon="0.07384">
        <ele>66</ele>
        <time>2020-06-24T08:11:46Z</time>
      </trkpt>
      <trkpt lat="49.34849" lon="0.07377">
        <ele>66</ele>
        <time>2020-06-24T08:11:50Z</time>
      </trkpt>
      <trkpt lat="49.34843" lon="0.07365">
        <ele>67</ele>
        <time>2020-06-24T08:11:56Z</time>
      </trkpt>
      <trkpt lat="49.34831" lon="0.07351">
        <ele>68</ele>
        <time>2020-06-24T08:12:07Z</time>
      </trkpt>
      <trkpt lat="49.34822" lon="0.07345">
        <ele>69</ele>
        <time>2020-06-24T08:12:15Z</time>
      </trkpt>
      <trkpt lat="49.34814" lon="0.07334">
        <ele>70</ele>
        <time>2020-06-24T08:12:23Z</time>
      </trkpt>
      <trkpt lat="49.34813" lon="0.07327">
        <ele>71</ele>
        <time>2020-06-24T08:12:27Z</time>
      </trkpt>
      <trkpt lat="49.34808" lon="0.07322">
        <ele>71</ele>
        <time>2020-06-24T08:12:31Z</time>
      </trkpt>
      <trkpt lat="49.34794" lon="0.07314">
        <ele>72</ele>
        <time>2020-06-24T08:12:41Z</time>
      </trkpt>
      <trkpt lat="49.34789" lon="0.07314">
        <ele>72</ele>
        <time>2020-06-24T08:12:44Z</time>
      </trkpt>
      <trkpt lat="49.3478" lon="0.07308">
        <ele>73</ele>
        <time>2020-06-24T08:12:51Z</time>
      </trkpt>
      <trkpt lat="49.34766" lon="0.07295">
        <ele>74</ele>
        <time>2020-06-24T08:13:03Z</time>
      </trkpt>
      <trkpt lat="49.34757" lon="0.07288">
        <ele>74</ele>
        <time>2020-06-24T08:13:11Z</time>
      </trkpt>
      <trkpt lat="49.34727" lon="0.07251">
        <ele>76</ele>
        <time>2020-06-24T08:13:55Z</time>
      </trkpt>
      <trkpt lat="49.34714" lon="0.07238">
        <ele>76</ele>
        <time>2020-06-24T08:14:06Z</time>
      </trkpt>
      <trkpt lat="49.34709" lon="0.07236">
        <ele>76</ele>
        <time>2020-06-24T08:14:09Z</time>
      </trkpt>
      <trkpt lat="49.34702" lon="0.0723">
        <ele>76</ele>
        <time>2020-06-24T08:14:19Z</time>
      </trkpt>
      <trkpt lat="49.34696" lon="0.07223">
        <ele>76</ele>
        <time>2020-06-24T08:14:46Z</time>
      </trkpt>
      <trkpt lat="49.34686" lon="0.07218">
        <ele>76</ele>
        <time>2020-06-24T08:14:53Z</time>
      </trkpt>
      <trkpt lat="49.34654" lon="0.07209">
        <ele>77</ele>
        <time>2020-06-24T08:15:14Z</time>
      </trkpt>
      <trkpt lat="49.34649" lon="0.07208">
        <ele>77</ele>
        <time>2020-06-24T08:15:18Z</time>
      </trkpt>
      <trkpt lat="49.34607" lon="0.07199">
        <ele>78</ele>
        <time>2020-06-24T08:15:47Z</time>
      </trkpt>
      <trkpt lat="49.34582" lon="0.07199">
        <ele>78</ele>
        <time>2020-06-24T08:16:04Z</time>
      </trkpt>
      <trkpt lat="49.34578" lon="0.07195">
        <ele>79</ele>
        <time>2020-06-24T08:16:08Z</time>
      </trkpt>
      <trkpt lat="49.34573" lon="0.07194">
        <ele>79</ele>
        <time>2020-06-24T08:16:12Z</time>
      </trkpt>
      <trkpt lat="49.34569" lon="0.07195">
        <ele>79</ele>
        <time>2020-06-24T08:16:17Z</time>
      </trkpt>
      <trkpt lat="49.34563" lon="0.07193">
        <ele>79</ele>
        <time>2020-06-24T08:16:21Z</time>
      </trkpt>
      <trkpt lat="49.34542" lon="0.07196">
        <ele>79</ele>
        <time>2020-06-24T08:16:36Z</time>
      </trkpt>
      <trkpt lat="49.34532" lon="0.07196">
        <ele>78</ele>
        <time>2020-06-24T08:16:42Z</time>
      </trkpt>
      <trkpt lat="49.34522" lon="0.07194">
        <ele>79</ele>
        <time>2020-06-24T08:16:48Z</time>
      </trkpt>
      <trkpt lat="49.34491" lon="0.07195">
        <ele>79</ele>
        <time>2020-06-24T08:17:09Z</time>
      </trkpt>
      <trkpt lat="49.3448" lon="0.07193">
        <ele>80</ele>
        <time>2020-06-24T08:17:17Z</time>
      </trkpt>
      <trkpt lat="49.34437" lon="0.07195">
        <ele>80</ele>
        <time>2020-06-24T08:17:49Z</time>
      </trkpt>
      <trkpt lat="49.34427" lon="0.07195">
        <ele>80</ele>
        <time>2020-06-24T08:17:57Z</time>
      </trkpt>
      <trkpt lat="49.34422" lon="0.07197">
        <ele>80</ele>
        <time>2020-06-24T08:18:00Z</time>
      </trkpt>
      <trkpt lat="49.34412" lon="0.07197">
        <ele>80</ele>
        <time>2020-06-24T08:18:08Z</time>
      </trkpt>
      <trkpt lat="49.34365" lon="0.07196">
        <ele>81</ele>
        <time>2020-06-24T08:18:43Z</time>
      </trkpt>
      <trkpt lat="49.34334" lon="0.072">
        <ele>81</ele>
        <time>2020-06-24T08:19:05Z</time>
      </trkpt>
      <trkpt lat="49.34328" lon="0.07202">
        <ele>81</ele>
        <time>2020-06-24T08:19:09Z</time>
      </trkpt>
      <trkpt lat="49.34318" lon="0.07205">
        <ele>82</ele>
        <time>2020-06-24T08:19:16Z</time>
      </trkpt>
      <trkpt lat="49.34314" lon="0.07208">
        <ele>82</ele>
        <time>2020-06-24T08:19:20Z</time>
      </trkpt>
      <trkpt lat="49.34299" lon="0.07219">
        <ele>82</ele>
        <time>2020-06-24T08:19:32Z</time>
      </trkpt>
      <trkpt lat="49.34259" lon="0.07233">
        <ele>83</ele>
        <time>2020-06-24T08:20:00Z</time>
      </trkpt>
      <trkpt lat="49.34253" lon="0.07233">
        <ele>83</ele>
        <time>2020-06-24T08:20:04Z</time>
      </trkpt>
      <trkpt lat="49.34249" lon="0.07235">
        <ele>83</ele>
        <time>2020-06-24T08:20:07Z</time>
      </trkpt>
      <trkpt lat="49.34245" lon="0.0724">
        <ele>83</ele>
        <time>2020-06-24T08:20:29Z</time>
      </trkpt>
      <trkpt lat="49.342" lon="0.07241">
        <ele>83</ele>
        <time>2020-06-24T08:21:01Z</time>
      </trkpt>
      <trkpt lat="49.34153" lon="0.07246">
        <ele>83</ele>
        <time>2020-06-24T08:21:35Z</time>
      </trkpt>
      <trkpt lat="49.34106" lon="0.07252">
        <ele>83</ele>
        <time>2020-06-24T08:22:08Z</time>
      </trkpt>
      <trkpt lat="49.34097" lon="0.07253">
        <ele>84</ele>
        <time>2020-06-24T08:22:14Z</time>
      </trkpt>
      <trkpt lat="49.3408" lon="0.07255">
        <ele>83</ele>
        <time>2020-06-24T08:22:26Z</time>
      </trkpt>
      <trkpt lat="49.34075" lon="0.07255">
        <ele>83</ele>
        <time>2020-06-24T08:22:30Z</time>
      </trkpt>
      <trkpt lat="49.34049" lon="0.07257">
        <ele>83</ele>
        <time>2020-06-24T08:22:47Z</time>
      </trkpt>
      <trkpt lat="49.34045" lon="0.07254">
        <ele>83</ele>
        <time>2020-06-24T08:22:52Z</time>
      </trkpt>
      <trkpt lat="49.34043" lon="0.07238">
        <ele>83</ele>
        <time>2020-06-24T08:23:16Z</time>
      </trkpt>
      <trkpt lat="49.34045" lon="0.0723">
        <ele>83</ele>
        <time>2020-06-24T08:23:19Z</time>
      </trkpt>
      <trkpt lat="49.34045" lon="0.07224">
        <ele>83</ele>
        <time>2020-06-24T08:23:24Z</time>
      </trkpt>
      <trkpt lat="49.34048" lon="0.07214">
        <ele>83</ele>
        <time>2020-06-24T08:23:48Z</time>
      </trkpt>
      <trkpt lat="49.34044" lon="0.07201">
        <ele>82</ele>
        <time>2020-06-24T08:23:54Z</time>
      </trkpt>
      <trkpt lat="49.3404" lon="0.07197">
        <ele>82</ele>
        <time>2020-06-24T08:23:58Z</time>
      </trkpt>
      <trkpt lat="49.34039" lon="0.07171">
        <ele>81</ele>
        <time>2020-06-24T08:24:08Z</time>
      </trkpt>
      <trkpt lat="49.34035" lon="0.07155">
        <ele>80</ele>
        <time>2020-06-24T08:24:16Z</time>
      </trkpt>
      <trkpt lat="49.34024" lon="0.07127">
        <ele>79</ele>
        <time>2020-06-24T08:24:30Z</time>
      </trkpt>
      <trkpt lat="49.34019" lon="0.07112">
        <ele>77</ele>
        <time>2020-06-24T08:24:38Z</time>
      </trkpt>
      <trkpt lat="49.34008" lon="0.07097">
        <ele>76</ele>
        <time>2020-06-24T08:24:48Z</time>
      </trkpt>
      <trkpt lat="49.34005" lon="0.07091">
        <ele>75</ele>
        <time>2020-06-24T08:24:53Z</time>
      </trkpt>
      <trkpt lat="49.33996" lon="0.07079">
        <ele>74</ele>
        <time>2020-06-24T08:25:01Z</time>
      </trkpt>
      <trkpt lat="49.33991" lon="0.07066">
        <ele>73</ele>
        <time>2020-06-24T08:25:07Z</time>
      </trkpt>
      <trkpt lat="49.33989" lon="0.07056">
        <ele>73</ele>
        <time>2020-06-24T08:25:11Z</time>
      </trkpt>
      <trkpt lat="49.33989" lon="0.07032">
        <ele>73</ele>
        <time>2020-06-24T08:25:21Z</time>
      </trkpt>
      <trkpt lat="49.33988" lon="0.07024">
        <ele>73</ele>
        <time>2020-06-24T08:25:25Z</time>
      </trkpt>
      <trkpt lat="49.33985" lon="0.07017">
        <ele>73</ele>
        <time>2020-06-24T08:25:29Z</time>
      </trkpt>
      <trkpt lat="49.33985" lon="0.07008">
        <ele>73</ele>
        <time>2020-06-24T08:25:33Z</time>
      </trkpt>
      <trkpt lat="49.33994" lon="0.06971">
        <ele>73</ele>
        <time>2020-06-24T08:25:50Z</time>
      </trkpt>
      <trkpt lat="49.33995" lon="0.06963">
        <ele>73</ele>
        <time>2020-06-24T08:25:54Z</time>
      </trkpt>
      <trkpt lat="49.33994" lon="0.06955">
        <ele>74</ele>
        <time>2020-06-24T08:25:58Z</time>
      </trkpt>
      <trkpt lat="49.33995" lon="0.06941">
        <ele>74</ele>
        <time>2020-06-24T08:26:04Z</time>
      </trkpt>
      <trkpt lat="49.33998" lon="0.06933">
        <ele>74</ele>
        <time>2020-06-24T08:26:07Z</time>
      </trkpt>
      <trkpt lat="49.33995" lon="0.06925">
        <ele>75</ele>
        <time>2020-06-24T08:26:11Z</time>
      </trkpt>
      <trkpt lat="49.33993" lon="0.06923">
        <ele>76</ele>
        <time>2020-06-24T08:26:37Z</time>
      </trkpt>
      <trkpt lat="49.33989" lon="0.06903">
        <ele>75</ele>
        <time>2020-06-24T08:27:00Z</time>
      </trkpt>
      <trkpt lat="49.33989" lon="0.06887">
        <ele>75</ele>
        <time>2020-06-24T08:27:07Z</time>
      </trkpt>
      <trkpt lat="49.33989" lon="0.0688">
        <ele>75</ele>
        <time>2020-06-24T08:27:11Z</time>
      </trkpt>
      <trkpt lat="49.33987" lon="0.06871">
        <ele>74</ele>
        <time>2020-06-24T08:27:15Z</time>
      </trkpt>
      <trkpt lat="49.33986" lon="0.06863">
        <ele>74</ele>
        <time>2020-06-24T08:27:19Z</time>
      </trkpt>
      <trkpt lat="49.33986" lon="0.06855">
        <ele>74</ele>
        <time>2020-06-24T08:27:24Z</time>
      </trkpt>
      <trkpt lat="49.33982" lon="0.06839">
        <ele>73</ele>
        <time>2020-06-24T08:27:32Z</time>
      </trkpt>
      <trkpt lat="49.33979" lon="0.06833">
        <ele>73</ele>
        <time>2020-06-24T08:27:36Z</time>
      </trkpt>
      <trkpt lat="49.33967" lon="0.06787">
        <ele>71</ele>
        <time>2020-06-24T08:27:59Z</time>
      </trkpt>
      <trkpt lat="49.33967" lon="0.06779">
        <ele>70</ele>
        <time>2020-06-24T08:28:04Z</time>
      </trkpt>
      <trkpt lat="49.33964" lon="0.06762">
        <ele>70</ele>
        <time>2020-06-24T08:28:36Z</time>
      </trkpt>
      <trkpt lat="49.33956" lon="0.0673">
        <ele>67</ele>
        <time>2020-06-24T08:28:55Z</time>
      </trkpt>
      <trkpt lat="49.3395" lon="0.06716">
        <ele>66</ele>
        <time>2020-06-24T08:29:04Z</time>
      </trkpt>
      <trkpt lat="49.33952" lon="0.06686">
        <ele>63</ele>
        <time>2020-06-24T08:29:16Z</time>
      </trkpt>
      <trkpt lat="49.33957" lon="0.06659">
        <ele>60</ele>
        <time>2020-06-24T08:29:32Z</time>
      </trkpt>
      <trkpt lat="49.33963" lon="0.06647">
        <ele>58</ele>
        <time>2020-06-24T08:29:40Z</time>
      </trkpt>
      <trkpt lat="49.33968" lon="0.06623">
        <ele>56</ele>
        <time>2020-06-24T08:29:57Z</time>
      </trkpt>
      <trkpt lat="49.33987" lon="0.06571">
        <ele>50</ele>
        <time>2020-06-24T08:30:27Z</time>
      </trkpt>
      <trkpt lat="49.33991" lon="0.06528">
        <ele>47</ele>
        <time>2020-06-24T08:30:49Z</time>
      </trkpt>
      <trkpt lat="49.34" lon="0.06495">
        <ele>45</ele>
        <time>2020-06-24T08:31:04Z</time>
      </trkpt>
      <trkpt lat="49.34001" lon="0.06473">
        <ele>43</ele>
        <time>2020-06-24T08:31:15Z</time>
      </trkpt>
      <trkpt lat="49.34" lon="0.06457">
        <ele>42</ele>
        <time>2020-06-24T08:31:23Z</time>
      </trkpt>
      <trkpt lat="49.34001" lon="0.06449">
        <ele>42</ele>
        <time>2020-06-24T08:31:27Z</time>
      </trkpt>
      <trkpt lat="49.34" lon="0.0644">
        <ele>42</ele>
        <time>2020-06-24T08:31:31Z</time>
      </trkpt>
      <trkpt lat="49.34006" lon="0.06417">
        <ele>42</ele>
        <time>2020-06-24T08:31:41Z</time>
      </trkpt>
      <trkpt lat="49.34009" lon="0.06411">
        <ele>42</ele>
        <time>2020-06-24T08:31:44Z</time>
      </trkpt>
      <trkpt lat="49.34028" lon="0.0634">
        <ele>42</ele>
        <time>2020-06-24T08:32:19Z</time>
      </trkpt>
      <trkpt lat="49.3404" lon="0.06282">
        <ele>44</ele>
        <time>2020-06-24T08:32:50Z</time>
      </trkpt>
      <trkpt lat="49.3404" lon="0.06252">
        <ele>45</ele>
        <time>2020-06-24T08:33:05Z</time>
      </trkpt>
      <trkpt lat="49.34037" lon="0.06238">
        <ele>46</ele>
        <time>2020-06-24T08:33:13Z</time>
      </trkpt>
      <trkpt lat="49.34044" lon="0.06199">
        <ele>47</ele>
        <time>2020-06-24T08:33:30Z</time>
      </trkpt>
      <trkpt lat="49.34054" lon="0.06174">
        <ele>47</ele>
        <time>2020-06-24T08:33:42Z</time>
      </trkpt>
      <trkpt lat="49.34055" lon="0.06159">
        <ele>47</ele>
        <time>2020-06-24T08:33:49Z</time>
      </trkpt>
      <trkpt lat="49.34056" lon="0.06145">
        <ele>46</ele>
        <time>2020-06-24T08:33:56Z</time>
      </trkpt>
      <trkpt lat="49.34059" lon="0.0613">
        <ele>46</ele>
        <time>2020-06-24T08:34:04Z</time>
      </trkpt>
      <trkpt lat="49.34053" lon="0.06118">
        <ele>46</ele>
        <time>2020-06-24T08:34:10Z</time>
      </trkpt>
      <trkpt lat="49.34048" lon="0.06088">
        <ele>45</ele>
        <time>2020-06-24T08:34:29Z</time>
      </trkpt>
      <trkpt lat="49.34047" lon="0.0607">
        <ele>44</ele>
        <time>2020-06-24T08:34:37Z</time>
      </trkpt>
      <trkpt lat="49.34043" lon="0.06056">
        <ele>45</ele>
        <time>2020-06-24T08:35:03Z</time>
      </trkpt>
      <trkpt lat="49.34036" lon="0.06045">
        <ele>45</ele>
        <time>2020-06-24T08:35:10Z</time>
      </trkpt>
      <trkpt lat="49.34029" lon="0.06036">
        <ele>46</ele>
        <time>2020-06-24T08:35:18Z</time>
      </trkpt>
      <trkpt lat="49.3399" lon="0.06011">
        <ele>53</ele>
        <time>2020-06-24T08:35:56Z</time>
      </trkpt>
      <trkpt lat="49.33972" lon="0.06006">
        <ele>55</ele>
        <time>2020-06-24T08:36:12Z</time>
      </trkpt>
      <trkpt lat="49.33953" lon="0.06012">
        <ele>59</ele>
        <time>2020-06-24T08:36:31Z</time>
      </trkpt>
      <trkpt lat="49.33916" lon="0.06004">
        <ele>63</ele>
        <time>2020-06-24T08:36:58Z</time>
      </trkpt>
      <trkpt lat="49.33892" lon="0.06003">
        <ele>66</ele>
        <time>2020-06-24T08:37:24Z</time>
      </trkpt>
      <trkpt lat="49.33883" lon="0.0601">
        <ele>68</ele>
        <time>2020-06-24T08:37:33Z</time>
      </trkpt>
      <trkpt lat="49.33875" lon="0.06014">
        <ele>68</ele>
        <time>2020-06-24T08:37:59Z</time>
      </trkpt>
      <trkpt lat="49.33872" lon="0.06022">
        <ele>68</ele>
        <time>2020-06-24T08:38:03Z</time>
      </trkpt>
      <trkpt lat="49.33867" lon="0.06036">
        <ele>69</ele>
        <time>2020-06-24T08:38:10Z</time>
      </trkpt>
      <trkpt lat="49.33867" lon="0.06043">
        <ele>69</ele>
        <time>2020-06-24T08:38:13Z</time>
      </trkpt>
      <trkpt lat="49.33865" lon="0.0605">
        <ele>70</ele>
        <time>2020-06-24T08:38:17Z</time>
      </trkpt>
      <trkpt lat="49.33851" lon="0.06075">
        <ele>71</ele>
        <time>2020-06-24T08:38:32Z</time>
      </trkpt>
      <trkpt lat="49.33846" lon="0.06078">
        <ele>71</ele>
        <time>2020-06-24T08:38:35Z</time>
      </trkpt>
      <trkpt lat="49.33841" lon="0.06089">
        <ele>72</ele>
        <time>2020-06-24T08:38:43Z</time>
      </trkpt>
      <trkpt lat="49.33827" lon="0.06101">
        <ele>73</ele>
        <time>2020-06-24T08:38:59Z</time>
      </trkpt>
      <trkpt lat="49.33787" lon="0.06098">
        <ele>77</ele>
        <time>2020-06-24T08:39:32Z</time>
      </trkpt>
      <trkpt lat="49.33774" lon="0.06089">
        <ele>78</ele>
        <time>2020-06-24T08:39:44Z</time>
      </trkpt>
      <trkpt lat="49.33748" lon="0.06081">
        <ele>82</ele>
        <time>2020-06-24T08:40:07Z</time>
      </trkpt>
      <trkpt lat="49.33699" lon="0.06093">
        <ele>86</ele>
        <time>2020-06-24T08:40:42Z</time>
      </trkpt>
      <trkpt lat="49.3366" lon="0.06112">
        <ele>89</ele>
        <time>2020-06-24T08:41:14Z</time>
      </trkpt>
      <trkpt lat="49.3365" lon="0.06114">
        <ele>89</ele>
        <time>2020-06-24T08:41:22Z</time>
      </trkpt>
      <trkpt lat="49.33647" lon="0.06122">
        <ele>89</ele>
        <time>2020-06-24T08:41:29Z</time>
      </trkpt>
      <trkpt lat="49.33646" lon="0.06138">
        <ele>89</ele>
        <time>2020-06-24T08:41:37Z</time>
      </trkpt>
      <trkpt lat="49.33647" lon="0.06129">
        <ele>89</ele>
        <time>2020-06-24T08:41:58Z</time>
      </trkpt>
      <trkpt lat="49.33648" lon="0.06121">
        <ele>89</ele>
        <time>2020-06-24T08:42:18Z</time>
      </trkpt>
      <trkpt lat="49.33642" lon="0.06119">
        <ele>89</ele>
        <time>2020-06-24T08:42:22Z</time>
      </trkpt>
      <trkpt lat="49.33637" lon="0.0612">
        <ele>90</ele>
        <time>2020-06-24T08:42:25Z</time>
      </trkpt>
      <trkpt lat="49.33593" lon="0.0612">
        <ele>92</ele>
        <time>2020-06-24T08:42:57Z</time>
      </trkpt>
      <trkpt lat="49.33588" lon="0.06119">
        <ele>92</ele>
        <time>2020-06-24T08:43:01Z</time>
      </trkpt>
      <trkpt lat="49.33582" lon="0.06116">
        <ele>93</ele>
        <time>2020-06-24T08:43:08Z</time>
      </trkpt>
      <trkpt lat="49.33568" lon="0.06114">
        <ele>93</ele>
        <time>2020-06-24T08:43:20Z</time>
      </trkpt>
      <trkpt lat="49.33549" lon="0.06104">
        <ele>94</ele>
        <time>2020-06-24T08:43:34Z</time>
      </trkpt>
      <trkpt lat="49.33539" lon="0.06105">
        <ele>94</ele>
        <time>2020-06-24T08:43:43Z</time>
      </trkpt>
      <trkpt lat="49.33493" lon="0.0609">
        <ele>96</ele>
        <time>2020-06-24T08:44:14Z</time>
      </trkpt>
      <trkpt lat="49.33487" lon="0.0609">
        <ele>96</ele>
        <time>2020-06-24T08:44:18Z</time>
      </trkpt>
      <trkpt lat="49.33477" lon="0.06091">
        <ele>96</ele>
        <time>2020-06-24T08:44:25Z</time>
      </trkpt>
      <trkpt lat="49.33473" lon="0.06091">
        <ele>96</ele>
        <time>2020-06-24T08:44:28Z</time>
      </trkpt>
      <trkpt lat="49.33452" lon="0.06095">
        <ele>97</ele>
        <time>2020-06-24T08:44:44Z</time>
      </trkpt>
      <trkpt lat="49.33445" lon="0.06087">
        <ele>95</ele>
        <time>2020-06-24T08:48:28Z</time>
      </trkpt>
      <trkpt lat="49.33438" lon="0.06075">
        <ele>95</ele>
        <time>2020-06-24T08:48:36Z</time>
      </trkpt>
      <trkpt lat="49.33424" lon="0.06034">
        <ele>96</ele>
        <time>2020-06-24T08:48:58Z</time>
      </trkpt>
      <trkpt lat="49.3342" lon="0.06028">
        <ele>95</ele>
        <time>2020-06-24T08:49:02Z</time>
      </trkpt>
      <trkpt lat="49.33416" lon="0.06025">
        <ele>96</ele>
        <time>2020-06-24T08:49:06Z</time>
      </trkpt>
      <trkpt lat="49.33415" lon="0.06016">
        <ele>96</ele>
        <time>2020-06-24T08:49:10Z</time>
      </trkpt>
      <trkpt lat="49.33413" lon="0.06001">
        <ele>96</ele>
        <time>2020-06-24T08:49:16Z</time>
      </trkpt>
      <trkpt lat="49.33405" lon="0.05965">
        <ele>96</ele>
        <time>2020-06-24T08:49:34Z</time>
      </trkpt>
      <trkpt lat="49.33398" lon="0.05952">
        <ele>96</ele>
        <time>2020-06-24T08:49:41Z</time>
      </trkpt>
      <trkpt lat="49.33396" lon="0.05942">
        <ele>96</ele>
        <time>2020-06-24T08:49:46Z</time>
      </trkpt>
      <trkpt lat="49.3338" lon="0.05933">
        <ele>95</ele>
        <time>2020-06-24T08:49:58Z</time>
      </trkpt>
      <trkpt lat="49.33375" lon="0.05919">
        <ele>95</ele>
        <time>2020-06-24T08:50:31Z</time>
      </trkpt>
      <trkpt lat="49.33349" lon="0.05891">
        <ele>91</ele>
        <time>2020-06-24T08:50:58Z</time>
      </trkpt>
      <trkpt lat="49.33346" lon="0.05886">
        <ele>90</ele>
        <time>2020-06-24T08:51:01Z</time>
      </trkpt>
      <trkpt lat="49.33342" lon="0.05872">
        <ele>89</ele>
        <time>2020-06-24T08:51:07Z</time>
      </trkpt>
      <trkpt lat="49.33341" lon="0.05841">
        <ele>86</ele>
        <time>2020-06-24T08:51:21Z</time>
      </trkpt>
      <trkpt lat="49.33345" lon="0.05822">
        <ele>83</ele>
        <time>2020-06-24T08:51:35Z</time>
      </trkpt>
      <trkpt lat="49.33349" lon="0.05815">
        <ele>83</ele>
        <time>2020-06-24T08:51:39Z</time>
      </trkpt>
      <trkpt lat="49.33349" lon="0.05766">
        <ele>78</ele>
        <time>2020-06-24T08:52:01Z</time>
      </trkpt>
      <trkpt lat="49.33352" lon="0.05756">
        <ele>76</ele>
        <time>2020-06-24T08:52:10Z</time>
      </trkpt>
      <trkpt lat="49.33356" lon="0.05722">
        <ele>73</ele>
        <time>2020-06-24T08:52:35Z</time>
      </trkpt>
      <trkpt lat="49.33355" lon="0.057">
        <ele>73</ele>
        <time>2020-06-24T08:52:45Z</time>
      </trkpt>
      <trkpt lat="49.33357" lon="0.05693">
        <ele>72</ele>
        <time>2020-06-24T08:52:50Z</time>
      </trkpt>
      <trkpt lat="49.33359" lon="0.05685">
        <ele>73</ele>
        <time>2020-06-24T08:53:33Z</time>
      </trkpt>
      <trkpt lat="49.33362" lon="0.05663">
        <ele>73</ele>
        <time>2020-06-24T08:53:45Z</time>
      </trkpt>
      <trkpt lat="49.33368" lon="0.05649">
        <ele>73</ele>
        <time>2020-06-24T08:53:52Z</time>
      </trkpt>
      <trkpt lat="49.33374" lon="0.05638">
        <ele>73</ele>
        <time>2020-06-24T08:53:59Z</time>
      </trkpt>
      <trkpt lat="49.33378" lon="0.05624">
        <ele>74</ele>
        <time>2020-06-24T08:54:05Z</time>
      </trkpt>
      <trkpt lat="49.33382" lon="0.05619">
        <ele>74</ele>
        <time>2020-06-24T08:54:09Z</time>
      </trkpt>
      <trkpt lat="49.33388" lon="0.05605">
        <ele>74</ele>
        <time>2020-06-24T08:54:15Z</time>
      </trkpt>
      <trkpt lat="49.33393" lon="0.05583">
        <ele>75</ele>
        <time>2020-06-24T08:54:27Z</time>
      </trkpt>
      <trkpt lat="49.33396" lon="0.05578">
        <ele>75</ele>
        <time>2020-06-24T08:54:30Z</time>
      </trkpt>
      <trkpt lat="49.33403" lon="0.05554">
        <ele>75</ele>
        <time>2020-06-24T08:54:42Z</time>
      </trkpt>
      <trkpt lat="49.33427" lon="0.05506">
        <ele>79</ele>
        <time>2020-06-24T08:55:13Z</time>
      </trkpt>
      <trkpt lat="49.3344" lon="0.05473">
        <ele>81</ele>
        <time>2020-06-24T08:55:37Z</time>
      </trkpt>
      <trkpt lat="49.33455" lon="0.0545">
        <ele>83</ele>
        <time>2020-06-24T08:55:51Z</time>
      </trkpt>
      <trkpt lat="49.3348" lon="0.05387">
        <ele>87</ele>
        <time>2020-06-24T08:56:27Z</time>
      </trkpt>
      <trkpt lat="49.33487" lon="0.05377">
        <ele>87</ele>
        <time>2020-06-24T08:56:34Z</time>
      </trkpt>
      <trkpt lat="49.33495" lon="0.0537">
        <ele>88</ele>
        <time>2020-06-24T08:56:41Z</time>
      </trkpt>
      <trkpt lat="49.33504" lon="0.05365">
        <ele>89</ele>
        <time>2020-06-24T08:56:47Z</time>
      </trkpt>
      <trkpt lat="49.33527" lon="0.05342">
        <ele>91</ele>
        <time>2020-06-24T08:57:07Z</time>
      </trkpt>
      <trkpt lat="49.33548" lon="0.05306">
        <ele>94</ele>
        <time>2020-06-24T08:57:34Z</time>
      </trkpt>
      <trkpt lat="49.33563" lon="0.05289">
        <ele>96</ele>
        <time>2020-06-24T08:57:49Z</time>
      </trkpt>
      <trkpt lat="49.3358" lon="0.05272">
        <ele>96</ele>
        <time>2020-06-24T08:58:04Z</time>
      </trkpt>
      <trkpt lat="49.33587" lon="0.05261">
        <ele>96</ele>
        <time>2020-06-24T08:58:11Z</time>
      </trkpt>
      <trkpt lat="49.33594" lon="0.05235">
        <ele>96</ele>
        <time>2020-06-24T08:58:25Z</time>
      </trkpt>
      <trkpt lat="49.33599" lon="0.0516">
        <ele>98</ele>
        <time>2020-06-24T08:59:01Z</time>
      </trkpt>
      <trkpt lat="49.336" lon="0.05087">
        <ele>100</ele>
        <time>2020-06-24T08:59:38Z</time>
      </trkpt>
      <trkpt lat="49.336" lon="0.05015">
        <ele>103</ele>
        <time>2020-06-24T09:00:12Z</time>
      </trkpt>
      <trkpt lat="49.33602" lon="0.05">
        <ele>103</ele>
        <time>2020-06-24T09:00:19Z</time>
      </trkpt>
      <trkpt lat="49.33607" lon="0.04988">
        <ele>103</ele>
        <time>2020-06-24T09:00:25Z</time>
      </trkpt>
      <trkpt lat="49.3361" lon="0.0496">
        <ele>103</ele>
        <time>2020-06-24T09:00:38Z</time>
      </trkpt>
      <trkpt lat="49.33615" lon="0.04947">
        <ele>103</ele>
        <time>2020-06-24T09:00:45Z</time>
      </trkpt>
      <trkpt lat="49.33617" lon="0.04934">
        <ele>103</ele>
        <time>2020-06-24T09:00:49Z</time>
      </trkpt>
      <trkpt lat="49.3362" lon="0.04927">
        <ele>103</ele>
        <time>2020-06-24T09:00:53Z</time>
      </trkpt>
      <trkpt lat="49.33629" lon="0.04917">
        <ele>103</ele>
        <time>2020-06-24T09:01:01Z</time>
      </trkpt>
      <trkpt lat="49.33636" lon="0.04905">
        <ele>104</ele>
        <time>2020-06-24T09:01:08Z</time>
      </trkpt>
      <trkpt lat="49.3365" lon="0.04892">
        <ele>104</ele>
        <time>2020-06-24T09:01:18Z</time>
      </trkpt>
      <trkpt lat="49.33672" lon="0.04858">
        <ele>103</ele>
        <time>2020-06-24T09:01:37Z</time>
      </trkpt>
      <trkpt lat="49.33677" lon="0.04857">
        <ele>103</ele>
        <time>2020-06-24T09:01:41Z</time>
      </trkpt>
      <trkpt lat="49.33682" lon="0.04857">
        <ele>103</ele>
        <time>2020-06-24T09:01:46Z</time>
      </trkpt>
      <trkpt lat="49.33715" lon="0.04803">
        <ele>104</ele>
        <time>2020-06-24T09:02:19Z</time>
      </trkpt>
      <trkpt lat="49.33744" lon="0.04752">
        <ele>103</ele>
        <time>2020-06-24T09:02:51Z</time>
      </trkpt>
      <trkpt lat="49.33753" lon="0.04742">
        <ele>104</ele>
        <time>2020-06-24T09:02:58Z</time>
      </trkpt>
      <trkpt lat="49.33757" lon="0.04731">
        <ele>104</ele>
        <time>2020-06-24T09:03:03Z</time>
      </trkpt>
      <trkpt lat="49.33762" lon="0.04726">
        <ele>104</ele>
        <time>2020-06-24T09:03:07Z</time>
      </trkpt>
      <trkpt lat="49.33777" lon="0.04722">
        <ele>104</ele>
        <time>2020-06-24T09:03:17Z</time>
      </trkpt>
      <trkpt lat="49.33796" lon="0.04698">
        <ele>103</ele>
        <time>2020-06-24T09:03:34Z</time>
      </trkpt>
      <trkpt lat="49.33814" lon="0.04684">
        <ele>103</ele>
        <time>2020-06-24T09:03:48Z</time>
      </trkpt>
      <trkpt lat="49.33862" lon="0.04672">
        <ele>101</ele>
        <time>2020-06-24T09:04:21Z</time>
      </trkpt>
      <trkpt lat="49.33898" lon="0.04662">
        <ele>100</ele>
        <time>2020-06-24T09:04:45Z</time>
      </trkpt>
      <trkpt lat="49.33914" lon="0.0466">
        <ele>99</ele>
        <time>2020-06-24T09:04:58Z</time>
      </trkpt>
      <trkpt lat="49.33912" lon="0.04656">
        <ele>99</ele>
        <time>2020-06-24T09:06:53Z</time>
      </trkpt>
      <trkpt lat="49.33921" lon="0.04651">
        <ele>98</ele>
        <time>2020-06-24T09:07:03Z</time>
      </trkpt>
      <trkpt lat="49.33941" lon="0.04646">
        <ele>96</ele>
        <time>2020-06-24T09:07:23Z</time>
      </trkpt>
      <trkpt lat="49.33949" lon="0.04636">
        <ele>96</ele>
        <time>2020-06-24T09:07:29Z</time>
      </trkpt>
      <trkpt lat="49.33968" lon="0.04631">
        <ele>95</ele>
        <time>2020-06-24T09:07:41Z</time>
      </trkpt>
      <trkpt lat="49.33977" lon="0.04632">
        <ele>94</ele>
        <time>2020-06-24T09:07:47Z</time>
      </trkpt>
      <trkpt lat="49.33995" lon="0.04623">
        <ele>93</ele>
        <time>2020-06-24T09:07:59Z</time>
      </trkpt>
      <trkpt lat="49.34017" lon="0.0462">
        <ele>91</ele>
        <time>2020-06-24T09:08:14Z</time>
      </trkpt>
      <trkpt lat="49.34048" lon="0.04629">
        <ele>89</ele>
        <time>2020-06-24T09:08:34Z</time>
      </trkpt>
      <trkpt lat="49.34057" lon="0.04629">
        <ele>89</ele>
        <time>2020-06-24T09:08:42Z</time>
      </trkpt>
      <trkpt lat="49.34074" lon="0.0461">
        <ele>88</ele>
        <time>2020-06-24T09:08:57Z</time>
      </trkpt>
      <trkpt lat="49.34078" lon="0.04598">
        <ele>88</ele>
        <time>2020-06-24T09:09:03Z</time>
      </trkpt>
      <trkpt lat="49.3409" lon="0.04596">
        <ele>88</ele>
        <time>2020-06-24T09:09:13Z</time>
      </trkpt>
      <trkpt lat="49.34095" lon="0.04585">
        <ele>88</ele>
        <time>2020-06-24T09:09:19Z</time>
      </trkpt>
      <trkpt lat="49.34104" lon="0.04578">
        <ele>88</ele>
        <time>2020-06-24T09:09:25Z</time>
      </trkpt>
      <trkpt lat="49.34117" lon="0.04554">
        <ele>89</ele>
        <time>2020-06-24T09:09:38Z</time>
      </trkpt>
      <trkpt lat="49.34157" lon="0.04515">
        <ele>92</ele>
        <time>2020-06-24T09:10:14Z</time>
      </trkpt>
      <trkpt lat="49.3417" lon="0.04508">
        <ele>93</ele>
        <time>2020-06-24T09:10:25Z</time>
      </trkpt>
      <trkpt lat="49.34185" lon="0.04491">
        <ele>93</ele>
        <time>2020-06-24T09:10:38Z</time>
      </trkpt>
      <trkpt lat="49.34212" lon="0.04472">
        <ele>93</ele>
        <time>2020-06-24T09:10:55Z</time>
      </trkpt>
      <trkpt lat="49.34228" lon="0.04454">
        <ele>93</ele>
        <time>2020-06-24T09:11:07Z</time>
      </trkpt>
      <trkpt lat="49.34234" lon="0.04444">
        <ele>92</ele>
        <time>2020-06-24T09:11:13Z</time>
      </trkpt>
      <trkpt lat="49.34246" lon="0.04423">
        <ele>91</ele>
        <time>2020-06-24T09:11:27Z</time>
      </trkpt>
      <trkpt lat="49.34244" lon="0.04403">
        <ele>92</ele>
        <time>2020-06-24T09:12:02Z</time>
      </trkpt>
      <trkpt lat="49.34213" lon="0.04354">
        <ele>97</ele>
        <time>2020-06-24T09:12:38Z</time>
      </trkpt>
      <trkpt lat="49.34209" lon="0.04341">
        <ele>98</ele>
        <time>2020-06-24T09:12:46Z</time>
      </trkpt>
      <trkpt lat="49.3418" lon="0.04327">
        <ele>102</ele>
        <time>2020-06-24T09:13:12Z</time>
      </trkpt>
      <trkpt lat="49.34169" lon="0.04314">
        <ele>104</ele>
        <time>2020-06-24T09:13:31Z</time>
      </trkpt>
      <trkpt lat="49.34164" lon="0.04301">
        <ele>105</ele>
        <time>2020-06-24T09:13:39Z</time>
      </trkpt>
      <trkpt lat="49.34156" lon="0.04292">
        <ele>106</ele>
        <time>2020-06-24T09:13:48Z</time>
      </trkpt>
      <trkpt lat="49.34154" lon="0.04277">
        <ele>106</ele>
        <time>2020-06-24T09:13:55Z</time>
      </trkpt>
      <trkpt lat="49.34148" lon="0.04265">
        <ele>107</ele>
        <time>2020-06-24T09:14:02Z</time>
      </trkpt>
      <trkpt lat="49.34141" lon="0.04256">
        <ele>107</ele>
        <time>2020-06-24T09:14:09Z</time>
      </trkpt>
      <trkpt lat="49.3414" lon="0.04241">
        <ele>108</ele>
        <time>2020-06-24T09:14:16Z</time>
      </trkpt>
      <trkpt lat="49.34141" lon="0.04228">
        <ele>108</ele>
        <time>2020-06-24T09:14:22Z</time>
      </trkpt>
      <trkpt lat="49.34136" lon="0.04185">
        <ele>107</ele>
        <time>2020-06-24T09:14:42Z</time>
      </trkpt>
      <trkpt lat="49.34134" lon="0.0417">
        <ele>107</ele>
        <time>2020-06-24T09:14:52Z</time>
      </trkpt>
      <trkpt lat="49.34129" lon="0.04159">
        <ele>108</ele>
        <time>2020-06-24T09:14:59Z</time>
      </trkpt>
      <trkpt lat="49.34121" lon="0.04143">
        <ele>108</ele>
        <time>2020-06-24T09:15:08Z</time>
      </trkpt>
      <trkpt lat="49.34118" lon="0.04137">
        <ele>108</ele>
        <time>2020-06-24T09:15:13Z</time>
      </trkpt>
      <trkpt lat="49.34106" lon="0.0411">
        <ele>109</ele>
        <time>2020-06-24T09:15:29Z</time>
      </trkpt>
      <trkpt lat="49.34101" lon="0.04093">
        <ele>109</ele>
        <time>2020-06-24T09:15:37Z</time>
      </trkpt>
      <trkpt lat="49.34071" lon="0.04039">
        <ele>109</ele>
        <time>2020-06-24T09:16:08Z</time>
      </trkpt>
      <trkpt lat="49.34067" lon="0.04034">
        <ele>109</ele>
        <time>2020-06-24T09:16:12Z</time>
      </trkpt>
      <trkpt lat="49.34066" lon="0.04026">
        <ele>110</ele>
        <time>2020-06-24T09:16:17Z</time>
      </trkpt>
      <trkpt lat="49.3407" lon="0.04019">
        <ele>110</ele>
        <time>2020-06-24T09:16:21Z</time>
      </trkpt>
      <trkpt lat="49.34074" lon="0.04021">
        <ele>109</ele>
        <time>2020-06-24T09:16:25Z</time>
      </trkpt>
      <trkpt lat="49.34075" lon="0.04011">
        <ele>110</ele>
        <time>2020-06-24T09:16:48Z</time>
      </trkpt>
      <trkpt lat="49.34072" lon="0.04003">
        <ele>110</ele>
        <time>2020-06-24T09:16:53Z</time>
      </trkpt>
      <trkpt lat="49.34071" lon="0.03994">
        <ele>110</ele>
        <time>2020-06-24T09:16:57Z</time>
      </trkpt>
      <trkpt lat="49.34072" lon="0.03979">
        <ele>111</ele>
        <time>2020-06-24T09:17:05Z</time>
      </trkpt>
      <trkpt lat="49.34067" lon="0.03975">
        <ele>110</ele>
        <time>2020-06-24T09:17:45Z</time>
      </trkpt>
      <trkpt lat="49.34058" lon="0.03969">
        <ele>109</ele>
        <time>2020-06-24T09:17:53Z</time>
      </trkpt>
      <trkpt lat="49.34045" lon="0.03952">
        <ele>110</ele>
        <time>2020-06-24T09:18:07Z</time>
      </trkpt>
      <trkpt lat="49.34041" lon="0.03939">
        <ele>110</ele>
        <time>2020-06-24T09:18:13Z</time>
      </trkpt>
      <trkpt lat="49.34038" lon="0.03934">
        <ele>110</ele>
        <time>2020-06-24T09:18:16Z</time>
      </trkpt>
      <trkpt lat="49.3403" lon="0.03926">
        <ele>110</ele>
        <time>2020-06-24T09:18:22Z</time>
      </trkpt>
      <trkpt lat="49.34021" lon="0.03914">
        <ele>110</ele>
        <time>2020-06-24T09:18:30Z</time>
      </trkpt>
      <trkpt lat="49.34012" lon="0.03885">
        <ele>110</ele>
        <time>2020-06-24T09:18:44Z</time>
      </trkpt>
      <trkpt lat="49.34009" lon="0.03879">
        <ele>110</ele>
        <time>2020-06-24T09:18:48Z</time>
      </trkpt>
      <trkpt lat="49.33997" lon="0.03866">
        <ele>110</ele>
        <time>2020-06-24T09:19:00Z</time>
      </trkpt>
      <trkpt lat="49.33993" lon="0.0386">
        <ele>111</ele>
        <time>2020-06-24T09:19:04Z</time>
      </trkpt>
      <trkpt lat="49.33987" lon="0.0386">
        <ele>111</ele>
        <time>2020-06-24T09:19:09Z</time>
      </trkpt>
      <trkpt lat="49.33983" lon="0.03856">
        <ele>111</ele>
        <time>2020-06-24T09:19:13Z</time>
      </trkpt>
      <trkpt lat="49.33974" lon="0.03852">
        <ele>110</ele>
        <time>2020-06-24T09:19:46Z</time>
      </trkpt>
      <trkpt lat="49.33969" lon="0.0385">
        <ele>109</ele>
        <time>2020-06-24T09:19:49Z</time>
      </trkpt>
      <trkpt lat="49.33961" lon="0.0384">
        <ele>109</ele>
        <time>2020-06-24T09:19:56Z</time>
      </trkpt>
      <trkpt lat="49.33957" lon="0.03836">
        <ele>109</ele>
        <time>2020-06-24T09:20:00Z</time>
      </trkpt>
      <trkpt lat="49.33935" lon="0.03835">
        <ele>109</ele>
        <time>2020-06-24T09:20:14Z</time>
      </trkpt>
      <trkpt lat="49.3393" lon="0.03832">
        <ele>109</ele>
        <time>2020-06-24T09:20:17Z</time>
      </trkpt>
      <trkpt lat="49.3392" lon="0.03827">
        <ele>109</ele>
        <time>2020-06-24T09:20:25Z</time>
      </trkpt>
      <trkpt lat="49.33913" lon="0.0383">
        <ele>109</ele>
        <time>2020-06-24T09:20:34Z</time>
      </trkpt>
      <trkpt lat="49.33895" lon="0.03844">
        <ele>110</ele>
        <time>2020-06-24T09:20:49Z</time>
      </trkpt>
      <trkpt lat="49.33885" lon="0.03846">
        <ele>110</ele>
        <time>2020-06-24T09:20:56Z</time>
      </trkpt>
      <trkpt lat="49.3388" lon="0.03843">
        <ele>110</ele>
        <time>2020-06-24T09:20:59Z</time>
      </trkpt>
      <trkpt lat="49.33876" lon="0.03843">
        <ele>110</ele>
        <time>2020-06-24T09:21:04Z</time>
      </trkpt>
      <trkpt lat="49.33871" lon="0.03848">
        <ele>110</ele>
        <time>2020-06-24T09:21:09Z</time>
      </trkpt>
      <trkpt lat="49.33862" lon="0.03857">
        <ele>110</ele>
        <time>2020-06-24T09:21:20Z</time>
      </trkpt>
      <trkpt lat="49.33858" lon="0.0386">
        <ele>110</ele>
        <time>2020-06-24T09:21:24Z</time>
      </trkpt>
      <trkpt lat="49.33851" lon="0.03869">
        <ele>110</ele>
        <time>2020-06-24T09:21:55Z</time>
      </trkpt>
      <trkpt lat="49.33847" lon="0.03874">
        <ele>110</ele>
        <time>2020-06-24T09:21:59Z</time>
      </trkpt>
      <trkpt lat="49.33842" lon="0.03889">
        <ele>110</ele>
        <time>2020-06-24T09:22:08Z</time>
      </trkpt>
      <trkpt lat="49.33837" lon="0.03894">
        <ele>110</ele>
        <time>2020-06-24T09:22:11Z</time>
      </trkpt>
      <trkpt lat="49.3383" lon="0.03915">
        <ele>110</ele>
        <time>2020-06-24T09:22:23Z</time>
      </trkpt>
      <trkpt lat="49.33824" lon="0.03937">
        <ele>110</ele>
        <time>2020-06-24T09:22:33Z</time>
      </trkpt>
      <trkpt lat="49.33821" lon="0.03942">
        <ele>110</ele>
        <time>2020-06-24T09:22:36Z</time>
      </trkpt>
      <trkpt lat="49.33817" lon="0.03946">
        <ele>109</ele>
        <time>2020-06-24T09:22:40Z</time>
      </trkpt>
      <trkpt lat="49.33813" lon="0.03951">
        <ele>109</ele>
        <time>2020-06-24T09:22:44Z</time>
      </trkpt>
      <trkpt lat="49.3381" lon="0.03958">
        <ele>109</ele>
        <time>2020-06-24T09:22:48Z</time>
      </trkpt>
      <trkpt lat="49.33811" lon="0.03965">
        <ele>109</ele>
        <time>2020-06-24T09:22:52Z</time>
      </trkpt>
      <trkpt lat="49.33809" lon="0.03973">
        <ele>109</ele>
        <time>2020-06-24T09:22:56Z</time>
      </trkpt>
      <trkpt lat="49.33805" lon="0.03979">
        <ele>109</ele>
        <time>2020-06-24T09:23:00Z</time>
      </trkpt>
      <trkpt lat="49.33804" lon="0.03987">
        <ele>109</ele>
        <time>2020-06-24T09:23:04Z</time>
      </trkpt>
      <trkpt lat="49.33806" lon="0.03996">
        <ele>109</ele>
        <time>2020-06-24T09:23:08Z</time>
      </trkpt>
      <trkpt lat="49.33805" lon="0.04003">
        <ele>109</ele>
        <time>2020-06-24T09:23:12Z</time>
      </trkpt>
      <trkpt lat="49.33801" lon="0.04017">
        <ele>110</ele>
        <time>2020-06-24T09:23:19Z</time>
      </trkpt>
      <trkpt lat="49.33802" lon="0.04033">
        <ele>110</ele>
        <time>2020-06-24T09:23:26Z</time>
      </trkpt>
      <trkpt lat="49.33801" lon="0.04048">
        <ele>111</ele>
        <time>2020-06-24T09:23:34Z</time>
      </trkpt>
      <trkpt lat="49.33807" lon="0.0407">
        <ele>110</ele>
        <time>2020-06-24T09:23:45Z</time>
      </trkpt>
      <trkpt lat="49.33809" lon="0.04096">
        <ele>111</ele>
        <time>2020-06-24T09:23:57Z</time>
      </trkpt>
      <trkpt lat="49.33812" lon="0.04106">
        <ele>111</ele>
        <time>2020-06-24T09:24:06Z</time>
      </trkpt>
      <trkpt lat="49.33812" lon="0.04113">
        <ele>111</ele>
        <time>2020-06-24T09:24:10Z</time>
      </trkpt>
      <trkpt lat="49.33811" lon="0.0412">
        <ele>110</ele>
        <time>2020-06-24T09:24:14Z</time>
      </trkpt>
      <trkpt lat="49.33809" lon="0.04128">
        <ele>109</ele>
        <time>2020-06-24T09:24:18Z</time>
      </trkpt>
      <trkpt lat="49.33806" lon="0.04134">
        <ele>110</ele>
        <time>2020-06-24T09:24:22Z</time>
      </trkpt>
      <trkpt lat="49.33806" lon="0.04142">
        <ele>110</ele>
        <time>2020-06-24T09:24:26Z</time>
      </trkpt>
      <trkpt lat="49.33812" lon="0.04165">
        <ele>111</ele>
        <time>2020-06-24T09:24:38Z</time>
      </trkpt>
      <trkpt lat="49.33813" lon="0.04173">
        <ele>111</ele>
        <time>2020-06-24T09:24:42Z</time>
      </trkpt>
      <trkpt lat="49.33815" lon="0.04181">
        <ele>111</ele>
        <time>2020-06-24T09:24:49Z</time>
      </trkpt>
      <trkpt lat="49.3382" lon="0.04185">
        <ele>111</ele>
        <time>2020-06-24T09:24:53Z</time>
      </trkpt>
      <trkpt lat="49.33824" lon="0.04189">
        <ele>110</ele>
        <time>2020-06-24T09:24:58Z</time>
      </trkpt>
      <trkpt lat="49.33833" lon="0.04205">
        <ele>111</ele>
        <time>2020-06-24T09:25:16Z</time>
      </trkpt>
      <trkpt lat="49.33837" lon="0.0421">
        <ele>111</ele>
        <time>2020-06-24T09:25:20Z</time>
      </trkpt>
      <trkpt lat="49.33837" lon="0.04217">
        <ele>111</ele>
        <time>2020-06-24T09:25:34Z</time>
      </trkpt>
      <trkpt lat="49.33834" lon="0.04225">
        <ele>111</ele>
        <time>2020-06-24T09:25:40Z</time>
      </trkpt>
      <trkpt lat="49.33834" lon="0.04233">
        <ele>111</ele>
        <time>2020-06-24T09:25:45Z</time>
      </trkpt>
      <trkpt lat="49.33829" lon="0.04232">
        <ele>111</ele>
        <time>2020-06-24T09:26:01Z</time>
      </trkpt>
      <trkpt lat="49.33826" lon="0.04241">
        <ele>111</ele>
        <time>2020-06-24T09:26:30Z</time>
      </trkpt>
      <trkpt lat="49.33824" lon="0.04249">
        <ele>110</ele>
        <time>2020-06-24T09:26:34Z</time>
      </trkpt>
      <trkpt lat="49.33821" lon="0.04253">
        <ele>111</ele>
        <time>2020-06-24T09:26:43Z</time>
      </trkpt>
      <trkpt lat="49.33813" lon="0.04266">
        <ele>110</ele>
        <time>2020-06-24T09:27:12Z</time>
      </trkpt>
      <trkpt lat="49.33811" lon="0.04274">
        <ele>109</ele>
        <time>2020-06-24T09:27:16Z</time>
      </trkpt>
      <trkpt lat="49.33799" lon="0.04292">
        <ele>108</ele>
        <time>2020-06-24T09:27:27Z</time>
      </trkpt>
      <trkpt lat="49.33795" lon="0.04296">
        <ele>108</ele>
        <time>2020-06-24T09:27:30Z</time>
      </trkpt>
      <trkpt lat="49.33779" lon="0.043">
        <ele>108</ele>
        <time>2020-06-24T09:27:40Z</time>
      </trkpt>
      <trkpt lat="49.33774" lon="0.04303">
        <ele>107</ele>
        <time>2020-06-24T09:27:43Z</time>
      </trkpt>
      <trkpt lat="49.33767" lon="0.04313">
        <ele>107</ele>
        <time>2020-06-24T09:27:50Z</time>
      </trkpt>
      <trkpt lat="49.33764" lon="0.0432">
        <ele>107</ele>
        <time>2020-06-24T09:27:54Z</time>
      </trkpt>
      <trkpt lat="49.3376" lon="0.04328">
        <ele>107</ele>
        <time>2020-06-24T09:27:58Z</time>
      </trkpt>
      <trkpt lat="49.33756" lon="0.04343">
        <ele>107</ele>
        <time>2020-06-24T09:28:06Z</time>
      </trkpt>
      <trkpt lat="49.33757" lon="0.04356">
        <ele>106</ele>
        <time>2020-06-24T09:28:20Z</time>
      </trkpt>
      <trkpt lat="49.33755" lon="0.04381">
        <ele>106</ele>
        <time>2020-06-24T09:28:31Z</time>
      </trkpt>
      <trkpt lat="49.3375" lon="0.04396">
        <ele>105</ele>
        <time>2020-06-24T09:28:40Z</time>
      </trkpt>
      <trkpt lat="49.33748" lon="0.04403">
        <ele>106</ele>
        <time>2020-06-24T09:28:43Z</time>
      </trkpt>
      <trkpt lat="49.33747" lon="0.0441">
        <ele>106</ele>
        <time>2020-06-24T09:28:46Z</time>
      </trkpt>
      <trkpt lat="49.33744" lon="0.04451">
        <ele>104</ele>
        <time>2020-06-24T09:29:05Z</time>
      </trkpt>
      <trkpt lat="49.33746" lon="0.04458">
        <ele>104</ele>
        <time>2020-06-24T09:29:08Z</time>
      </trkpt>
      <trkpt lat="49.33745" lon="0.04465">
        <ele>104</ele>
        <time>2020-06-24T09:29:11Z</time>
      </trkpt>
      <trkpt lat="49.33742" lon="0.04472">
        <ele>104</ele>
        <time>2020-06-24T09:29:14Z</time>
      </trkpt>
      <trkpt lat="49.33741" lon="0.04479">
        <ele>104</ele>
        <time>2020-06-24T09:29:18Z</time>
      </trkpt>
      <trkpt lat="49.33742" lon="0.04486">
        <ele>104</ele>
        <time>2020-06-24T09:29:26Z</time>
      </trkpt>
      <trkpt lat="49.33742" lon="0.04494">
        <ele>104</ele>
        <time>2020-06-24T09:29:30Z</time>
      </trkpt>
      <trkpt lat="49.33741" lon="0.04503">
        <ele>104</ele>
        <time>2020-06-24T09:29:34Z</time>
      </trkpt>
      <trkpt lat="49.3374" lon="0.04511">
        <ele>104</ele>
        <time>2020-06-24T09:29:38Z</time>
      </trkpt>
      <trkpt lat="49.33742" lon="0.04518">
        <ele>104</ele>
        <time>2020-06-24T09:29:42Z</time>
      </trkpt>
      <trkpt lat="49.33747" lon="0.04522">
        <ele>104</ele>
        <time>2020-06-24T09:29:46Z</time>
      </trkpt>
      <trkpt lat="49.33759" lon="0.04526">
        <ele>104</ele>
        <time>2020-06-24T09:30:00Z</time>
      </trkpt>
      <trkpt lat="49.33813" lon="0.04566">
        <ele>104</ele>
        <time>2020-06-24T09:30:40Z</time>
      </trkpt>
      <trkpt lat="49.33825" lon="0.0457">
        <ele>104</ele>
        <time>2020-06-24T09:30:51Z</time>
      </trkpt>
      <trkpt lat="49.3384" lon="0.04592">
        <ele>103</ele>
        <time>2020-06-24T09:31:05Z</time>
      </trkpt>
      <trkpt lat="49.33867" lon="0.04604">
        <ele>102</ele>
        <time>2020-06-24T09:31:24Z</time>
      </trkpt>
      <trkpt lat="49.33886" lon="0.04614">
        <ele>101</ele>
        <time>2020-06-24T09:31:36Z</time>
      </trkpt>
      <trkpt lat="49.33895" lon="0.04618">
        <ele>100</ele>
        <time>2020-06-24T09:31:42Z</time>
      </trkpt>
      <trkpt lat="49.33901" lon="0.04628">
        <ele>100</ele>
        <time>2020-06-24T09:31:49Z</time>
      </trkpt>
      <trkpt lat="49.33893" lon="0.04632">
        <ele>100</ele>
        <time>2020-06-24T09:32:40Z</time>
      </trkpt>
      <trkpt lat="49.33875" lon="0.04617">
        <ele>103</ele>
        <time>2020-06-24T09:33:02Z</time>
      </trkpt>
      <trkpt lat="49.33861" lon="0.04598">
        <ele>103</ele>
        <time>2020-06-24T09:33:15Z</time>
      </trkpt>
      <trkpt lat="49.33816" lon="0.04569">
        <ele>106</ele>
        <time>2020-06-24T09:33:49Z</time>
      </trkpt>
      <trkpt lat="49.33807" lon="0.04565">
        <ele>106</ele>
        <time>2020-06-24T09:33:55Z</time>
      </trkpt>
      <trkpt lat="49.33798" lon="0.04554">
        <ele>106</ele>
        <time>2020-06-24T09:34:04Z</time>
      </trkpt>
      <trkpt lat="49.33761" lon="0.04537">
        <ele>107</ele>
        <time>2020-06-24T09:34:29Z</time>
      </trkpt>
      <trkpt lat="49.33744" lon="0.04523">
        <ele>107</ele>
        <time>2020-06-24T09:34:43Z</time>
      </trkpt>
      <trkpt lat="49.33727" lon="0.04497">
        <ele>106</ele>
        <time>2020-06-24T09:35:18Z</time>
      </trkpt>
      <trkpt lat="49.33719" lon="0.04488">
        <ele>106</ele>
        <time>2020-06-24T09:35:26Z</time>
      </trkpt>
      <trkpt lat="49.33713" lon="0.04475">
        <ele>106</ele>
        <time>2020-06-24T09:35:33Z</time>
      </trkpt>
      <trkpt lat="49.33708" lon="0.04399">
        <ele>105</ele>
        <time>2020-06-24T09:36:06Z</time>
      </trkpt>
      <trkpt lat="49.33711" lon="0.04396">
        <ele>105</ele>
        <time>2020-06-24T09:36:16Z</time>
      </trkpt>
      <trkpt lat="49.33711" lon="0.04387">
        <ele>105</ele>
        <time>2020-06-24T09:36:47Z</time>
      </trkpt>
      <trkpt lat="49.33711" lon="0.0438">
        <ele>105</ele>
        <time>2020-06-24T09:36:51Z</time>
      </trkpt>
      <trkpt lat="49.33712" lon="0.04354">
        <ele>103</ele>
        <time>2020-06-24T09:37:02Z</time>
      </trkpt>
      <trkpt lat="49.33702" lon="0.04303">
        <ele>101</ele>
        <time>2020-06-24T09:37:26Z</time>
      </trkpt>
      <trkpt lat="49.33703" lon="0.04288">
        <ele>99</ele>
        <time>2020-06-24T09:37:33Z</time>
      </trkpt>
      <trkpt lat="49.33701" lon="0.04273">
        <ele>98</ele>
        <time>2020-06-24T09:37:40Z</time>
      </trkpt>
      <trkpt lat="49.33697" lon="0.0427">
        <ele>97</ele>
        <time>2020-06-24T09:38:12Z</time>
      </trkpt>
      <trkpt lat="49.33692" lon="0.04272">
        <ele>97</ele>
        <time>2020-06-24T09:38:16Z</time>
      </trkpt>
      <trkpt lat="49.33694" lon="0.04266">
        <ele>97</ele>
        <time>2020-06-24T09:38:32Z</time>
      </trkpt>
      <trkpt lat="49.33698" lon="0.04262">
        <ele>97</ele>
        <time>2020-06-24T09:38:36Z</time>
      </trkpt>
      <trkpt lat="49.33701" lon="0.04253">
        <ele>96</ele>
        <time>2020-06-24T09:38:42Z</time>
      </trkpt>
      <trkpt lat="49.33704" lon="0.0423">
        <ele>94</ele>
        <time>2020-06-24T09:38:52Z</time>
      </trkpt>
      <trkpt lat="49.33697" lon="0.04198">
        <ele>92</ele>
        <time>2020-06-24T09:39:31Z</time>
      </trkpt>
      <trkpt lat="49.33692" lon="0.04184">
        <ele>90</ele>
        <time>2020-06-24T09:39:38Z</time>
      </trkpt>
      <trkpt lat="49.33688" lon="0.0411">
        <ele>84</ele>
        <time>2020-06-24T09:40:15Z</time>
      </trkpt>
      <trkpt lat="49.33689" lon="0.04095">
        <ele>82</ele>
        <time>2020-06-24T09:40:22Z</time>
      </trkpt>
      <trkpt lat="49.33687" lon="0.04078">
        <ele>81</ele>
        <time>2020-06-24T09:40:34Z</time>
      </trkpt>
      <trkpt lat="49.33678" lon="0.0407">
        <ele>78</ele>
        <time>2020-06-24T09:41:23Z</time>
      </trkpt>
      <trkpt lat="49.33674" lon="0.04085">
        <ele>78</ele>
        <time>2020-06-24T09:41:33Z</time>
      </trkpt>
      <trkpt lat="49.33676" lon="0.04101">
        <ele>78</ele>
        <time>2020-06-24T09:41:40Z</time>
      </trkpt>
      <trkpt lat="49.33669" lon="0.04146">
        <ele>80</ele>
        <time>2020-06-24T09:42:02Z</time>
      </trkpt>
      <trkpt lat="49.33665" lon="0.0416">
        <ele>80</ele>
        <time>2020-06-24T09:42:08Z</time>
      </trkpt>
      <trkpt lat="49.33666" lon="0.04175">
        <ele>80</ele>
        <time>2020-06-24T09:42:13Z</time>
      </trkpt>
      <trkpt lat="49.33666" lon="0.04202">
        <ele>81</ele>
        <time>2020-06-24T09:42:25Z</time>
      </trkpt>
      <trkpt lat="49.33657" lon="0.04261">
        <ele>82</ele>
        <time>2020-06-24T09:42:52Z</time>
      </trkpt>
      <trkpt lat="49.33649" lon="0.04288">
        <ele>82</ele>
        <time>2020-06-24T09:43:04Z</time>
      </trkpt>
      <trkpt lat="49.33649" lon="0.04301">
        <ele>82</ele>
        <time>2020-06-24T09:43:10Z</time>
      </trkpt>
      <trkpt lat="49.33647" lon="0.04316">
        <ele>82</ele>
        <time>2020-06-24T09:43:17Z</time>
      </trkpt>
      <trkpt lat="49.33646" lon="0.04337">
        <ele>82</ele>
        <time>2020-06-24T09:43:26Z</time>
      </trkpt>
      <trkpt lat="49.33653" lon="0.04393">
        <ele>82</ele>
        <time>2020-06-24T09:43:55Z</time>
      </trkpt>
      <trkpt lat="49.33649" lon="0.04452">
        <ele>82</ele>
        <time>2020-06-24T09:44:19Z</time>
      </trkpt>
      <trkpt lat="49.33652" lon="0.04465">
        <ele>82</ele>
        <time>2020-06-24T09:44:25Z</time>
      </trkpt>
      <trkpt lat="49.33651" lon="0.04479">
        <ele>81</ele>
        <time>2020-06-24T09:44:32Z</time>
      </trkpt>
      <trkpt lat="49.33632" lon="0.04563">
        <ele>80</ele>
        <time>2020-06-24T09:45:09Z</time>
      </trkpt>
      <trkpt lat="49.33627" lon="0.04591">
        <ele>80</ele>
        <time>2020-06-24T09:45:24Z</time>
      </trkpt>
      <trkpt lat="49.33617" lon="0.04615">
        <ele>80</ele>
        <time>2020-06-24T09:45:35Z</time>
      </trkpt>
      <trkpt lat="49.33614" lon="0.0463">
        <ele>80</ele>
        <time>2020-06-24T09:45:42Z</time>
      </trkpt>
      <trkpt lat="49.33608" lon="0.04643">
        <ele>80</ele>
        <time>2020-06-24T09:45:48Z</time>
      </trkpt>
      <trkpt lat="49.33601" lon="0.04652">
        <ele>80</ele>
        <time>2020-06-24T09:45:54Z</time>
      </trkpt>
      <trkpt lat="49.33596" lon="0.04667">
        <ele>79</ele>
        <time>2020-06-24T09:46:01Z</time>
      </trkpt>
      <trkpt lat="49.33591" lon="0.04681">
        <ele>79</ele>
        <time>2020-06-24T09:46:08Z</time>
      </trkpt>
      <trkpt lat="49.33588" lon="0.04698">
        <ele>78</ele>
        <time>2020-06-24T09:46:16Z</time>
      </trkpt>
      <trkpt lat="49.33585" lon="0.04706">
        <ele>78</ele>
        <time>2020-06-24T09:46:20Z</time>
      </trkpt>
      <trkpt lat="49.33582" lon="0.04711">
        <ele>78</ele>
        <time>2020-06-24T09:46:23Z</time>
      </trkpt>
      <trkpt lat="49.3358" lon="0.04718">
        <ele>78</ele>
        <time>2020-06-24T09:46:27Z</time>
      </trkpt>
      <trkpt lat="49.33577" lon="0.04724">
        <ele>77</ele>
        <time>2020-06-24T09:46:31Z</time>
      </trkpt>
      <trkpt lat="49.33574" lon="0.0473">
        <ele>77</ele>
        <time>2020-06-24T09:46:35Z</time>
      </trkpt>
      <trkpt lat="49.33572" lon="0.04739">
        <ele>76</ele>
        <time>2020-06-24T09:46:39Z</time>
      </trkpt>
      <trkpt lat="49.33563" lon="0.04761">
        <ele>76</ele>
        <time>2020-06-24T09:46:50Z</time>
      </trkpt>
      <trkpt lat="49.33556" lon="0.04771">
        <ele>75</ele>
        <time>2020-06-24T09:46:56Z</time>
      </trkpt>
      <trkpt lat="49.33553" lon="0.04777">
        <ele>75</ele>
        <time>2020-06-24T09:46:59Z</time>
      </trkpt>
      <trkpt lat="49.33551" lon="0.04785">
        <ele>75</ele>
        <time>2020-06-24T09:47:03Z</time>
      </trkpt>
      <trkpt lat="49.33539" lon="0.04809">
        <ele>74</ele>
        <time>2020-06-24T09:47:17Z</time>
      </trkpt>
      <trkpt lat="49.33513" lon="0.04848">
        <ele>72</ele>
        <time>2020-06-24T09:47:41Z</time>
      </trkpt>
      <trkpt lat="49.33504" lon="0.04865">
        <ele>72</ele>
        <time>2020-06-24T09:47:50Z</time>
      </trkpt>
      <trkpt lat="49.33497" lon="0.04864">
        <ele>71</ele>
        <time>2020-06-24T09:48:43Z</time>
      </trkpt>
      <trkpt lat="49.33491" lon="0.04862">
        <ele>70</ele>
        <time>2020-06-24T09:48:47Z</time>
      </trkpt>
      <trkpt lat="49.33488" lon="0.04868">
        <ele>69</ele>
        <time>2020-06-24T09:48:51Z</time>
      </trkpt>
      <trkpt lat="49.33457" lon="0.0491">
        <ele>65</ele>
        <time>2020-06-24T09:49:18Z</time>
      </trkpt>
      <trkpt lat="49.33453" lon="0.04914">
        <ele>64</ele>
        <time>2020-06-24T09:49:21Z</time>
      </trkpt>
      <trkpt lat="49.33448" lon="0.04915">
        <ele>64</ele>
        <time>2020-06-24T09:49:24Z</time>
      </trkpt>
      <trkpt lat="49.33444" lon="0.04919">
        <ele>63</ele>
        <time>2020-06-24T09:49:28Z</time>
      </trkpt>
      <trkpt lat="49.33441" lon="0.04925">
        <ele>62</ele>
        <time>2020-06-24T09:49:32Z</time>
      </trkpt>
      <trkpt lat="49.3344" lon="0.04932">
        <ele>62</ele>
        <time>2020-06-24T09:49:35Z</time>
      </trkpt>
      <trkpt lat="49.33424" lon="0.04953">
        <ele>59</ele>
        <time>2020-06-24T09:49:50Z</time>
      </trkpt>
      <trkpt lat="49.334" lon="0.0498">
        <ele>56</ele>
        <time>2020-06-24T09:50:10Z</time>
      </trkpt>
      <trkpt lat="49.33391" lon="0.04984">
        <ele>54</ele>
        <time>2020-06-24T09:50:17Z</time>
      </trkpt>
      <trkpt lat="49.33356" lon="0.0501">
        <ele>50</ele>
        <time>2020-06-24T09:50:43Z</time>
      </trkpt>
      <trkpt lat="49.33328" lon="0.05017">
        <ele>46</ele>
        <time>2020-06-24T09:51:02Z</time>
      </trkpt>
      <trkpt lat="49.33317" lon="0.05019">
        <ele>45</ele>
        <time>2020-06-24T09:51:09Z</time>
      </trkpt>
      <trkpt lat="49.33308" lon="0.05025">
        <ele>43</ele>
        <time>2020-06-24T09:51:18Z</time>
      </trkpt>
      <trkpt lat="49.33303" lon="0.05039">
        <ele>43</ele>
        <time>2020-06-24T09:51:31Z</time>
      </trkpt>
      <trkpt lat="49.33296" lon="0.05053">
        <ele>42</ele>
        <time>2020-06-24T09:51:40Z</time>
      </trkpt>
      <trkpt lat="49.33291" lon="0.05065">
        <ele>42</ele>
        <time>2020-06-24T09:51:46Z</time>
      </trkpt>
      <trkpt lat="49.33284" lon="0.05078">
        <ele>41</ele>
        <time>2020-06-24T09:51:54Z</time>
      </trkpt>
      <trkpt lat="49.33273" lon="0.05088">
        <ele>40</ele>
        <time>2020-06-24T09:52:04Z</time>
      </trkpt>
      <trkpt lat="49.33262" lon="0.05107">
        <ele>40</ele>
        <time>2020-06-24T09:52:14Z</time>
      </trkpt>
      <trkpt lat="49.33239" lon="0.05132">
        <ele>39</ele>
        <time>2020-06-24T09:52:38Z</time>
      </trkpt>
      <trkpt lat="49.33228" lon="0.05133">
        <ele>39</ele>
        <time>2020-06-24T09:52:46Z</time>
      </trkpt>
      <trkpt lat="49.33192" lon="0.05159">
        <ele>38</ele>
        <time>2020-06-24T09:53:18Z</time>
      </trkpt>
      <trkpt lat="49.33187" lon="0.05159">
        <ele>38</ele>
        <time>2020-06-24T09:53:22Z</time>
      </trkpt>
      <trkpt lat="49.33184" lon="0.05153">
        <ele>37</ele>
        <time>2020-06-24T09:53:25Z</time>
      </trkpt>
      <trkpt lat="49.33175" lon="0.05107">
        <ele>36</ele>
        <time>2020-06-24T09:53:43Z</time>
      </trkpt>
      <trkpt lat="49.33172" lon="0.05101">
        <ele>35</ele>
        <time>2020-06-24T09:53:46Z</time>
      </trkpt>
      <trkpt lat="49.33164" lon="0.05077">
        <ele>35</ele>
        <time>2020-06-24T09:53:58Z</time>
      </trkpt>
      <trkpt lat="49.3316" lon="0.05063">
        <ele>34</ele>
        <time>2020-06-24T09:54:06Z</time>
      </trkpt>
      <trkpt lat="49.3316" lon="0.05055">
        <ele>34</ele>
        <time>2020-06-24T09:54:09Z</time>
      </trkpt>
      <trkpt lat="49.33156" lon="0.05042">
        <ele>34</ele>
        <time>2020-06-24T09:54:16Z</time>
      </trkpt>
      <trkpt lat="49.33152" lon="0.05037">
        <ele>34</ele>
        <time>2020-06-24T09:54:19Z</time>
      </trkpt>
      <trkpt lat="49.33143" lon="0.05023">
        <ele>33</ele>
        <time>2020-06-24T09:54:28Z</time>
      </trkpt>
      <trkpt lat="49.3314" lon="0.05009">
        <ele>33</ele>
        <time>2020-06-24T09:54:34Z</time>
      </trkpt>
      <trkpt lat="49.33136" lon="0.05002">
        <ele>33</ele>
        <time>2020-06-24T09:54:38Z</time>
      </trkpt>
      <trkpt lat="49.33129" lon="0.04982">
        <ele>32</ele>
        <time>2020-06-24T09:54:49Z</time>
      </trkpt>
      <trkpt lat="49.33125" lon="0.04967">
        <ele>31</ele>
        <time>2020-06-24T09:54:57Z</time>
      </trkpt>
      <trkpt lat="49.33122" lon="0.0496">
        <ele>31</ele>
        <time>2020-06-24T09:55:01Z</time>
      </trkpt>
      <trkpt lat="49.3312" lon="0.04952">
        <ele>30</ele>
        <time>2020-06-24T09:55:05Z</time>
      </trkpt>
      <trkpt lat="49.33094" lon="0.04894">
        <ele>28</ele>
        <time>2020-06-24T09:55:37Z</time>
      </trkpt>
      <trkpt lat="49.33087" lon="0.04883">
        <ele>27</ele>
        <time>2020-06-24T09:55:44Z</time>
      </trkpt>
      <trkpt lat="49.33083" lon="0.04876">
        <ele>27</ele>
        <time>2020-06-24T09:55:48Z</time>
      </trkpt>
      <trkpt lat="49.33075" lon="0.04847">
        <ele>26</ele>
        <time>2020-06-24T09:56:03Z</time>
      </trkpt>
      <trkpt lat="49.33063" lon="0.0482">
        <ele>25</ele>
        <time>2020-06-24T09:56:17Z</time>
      </trkpt>
      <trkpt lat="49.33059" lon="0.04805">
        <ele>25</ele>
        <time>2020-06-24T09:56:24Z</time>
      </trkpt>
      <trkpt lat="49.33055" lon="0.04782">
        <ele>25</ele>
        <time>2020-06-24T09:56:34Z</time>
      </trkpt>
      <trkpt lat="49.33054" lon="0.04775">
        <ele>24</ele>
        <time>2020-06-24T09:56:38Z</time>
      </trkpt>
      <trkpt lat="49.33055" lon="0.04766">
        <ele>24</ele>
        <time>2020-06-24T09:56:42Z</time>
      </trkpt>
      <trkpt lat="49.33054" lon="0.04751">
        <ele>24</ele>
        <time>2020-06-24T09:56:48Z</time>
      </trkpt>
      <trkpt lat="49.33052" lon="0.04743">
        <ele>24</ele>
        <time>2020-06-24T09:56:53Z</time>
      </trkpt>
      <trkpt lat="49.33052" lon="0.04735">
        <ele>24</ele>
        <time>2020-06-24T09:56:57Z</time>
      </trkpt>
      <trkpt lat="49.33043" lon="0.04699">
        <ele>24</ele>
        <time>2020-06-24T09:57:15Z</time>
      </trkpt>
      <trkpt lat="49.33034" lon="0.04678">
        <ele>23</ele>
        <time>2020-06-24T09:57:27Z</time>
      </trkpt>
      <trkpt lat="49.33027" lon="0.04666">
        <ele>24</ele>
        <time>2020-06-24T09:57:36Z</time>
      </trkpt>
      <trkpt lat="49.33024" lon="0.04659">
        <ele>24</ele>
        <time>2020-06-24T09:57:40Z</time>
      </trkpt>
      <trkpt lat="49.33018" lon="0.04649">
        <ele>24</ele>
        <time>2020-06-24T09:58:15Z</time>
      </trkpt>
      <trkpt lat="49.33004" lon="0.04624">
        <ele>24</ele>
        <time>2020-06-24T09:58:29Z</time>
      </trkpt>
      <trkpt lat="49.32999" lon="0.0462">
        <ele>24</ele>
        <time>2020-06-24T09:58:33Z</time>
      </trkpt>
      <trkpt lat="49.32986" lon="0.04594">
        <ele>23</ele>
        <time>2020-06-24T09:58:47Z</time>
      </trkpt>
      <trkpt lat="49.32981" lon="0.04579">
        <ele>23</ele>
        <time>2020-06-24T09:58:55Z</time>
      </trkpt>
      <trkpt lat="49.32976" lon="0.04576">
        <ele>23</ele>
        <time>2020-06-24T09:58:59Z</time>
      </trkpt>
      <trkpt lat="49.32974" lon="0.04569">
        <ele>23</ele>
        <time>2020-06-24T09:59:04Z</time>
      </trkpt>
      <trkpt lat="49.32967" lon="0.0456">
        <ele>22</ele>
        <time>2020-06-24T10:02:11Z</time>
      </trkpt>
      <trkpt lat="49.32955" lon="0.04533">
        <ele>22</ele>
        <time>2020-06-24T10:02:27Z</time>
      </trkpt>
      <trkpt lat="49.32947" lon="0.04524">
        <ele>22</ele>
        <time>2020-06-24T10:02:33Z</time>
      </trkpt>
      <trkpt lat="49.32945" lon="0.04517">
        <ele>22</ele>
        <time>2020-06-24T10:02:37Z</time>
      </trkpt>
      <trkpt lat="49.32938" lon="0.04506">
        <ele>23</ele>
        <time>2020-06-24T10:02:45Z</time>
      </trkpt>
      <trkpt lat="49.32924" lon="0.04491">
        <ele>23</ele>
        <time>2020-06-24T10:02:59Z</time>
      </trkpt>
      <trkpt lat="49.32916" lon="0.04482">
        <ele>23</ele>
        <time>2020-06-24T10:03:08Z</time>
      </trkpt>
      <trkpt lat="49.32885" lon="0.04426">
        <ele>25</ele>
        <time>2020-06-24T10:03:42Z</time>
      </trkpt>
      <trkpt lat="49.3288" lon="0.04413">
        <ele>25</ele>
        <time>2020-06-24T10:03:48Z</time>
      </trkpt>
      <trkpt lat="49.32876" lon="0.044">
        <ele>26</ele>
        <time>2020-06-24T10:03:56Z</time>
      </trkpt>
      <trkpt lat="49.3285" lon="0.04357">
        <ele>26</ele>
        <time>2020-06-24T10:04:21Z</time>
      </trkpt>
      <trkpt lat="49.32825" lon="0.04322">
        <ele>27</ele>
        <time>2020-06-24T10:04:41Z</time>
      </trkpt>
      <trkpt lat="49.3281" lon="0.04293">
        <ele>27</ele>
        <time>2020-06-24T10:04:58Z</time>
      </trkpt>
      <trkpt lat="49.32783" lon="0.04253">
        <ele>27</ele>
        <time>2020-06-24T10:05:25Z</time>
      </trkpt>
      <trkpt lat="49.32781" lon="0.04247">
        <ele>28</ele>
        <time>2020-06-24T10:05:28Z</time>
      </trkpt>
      <trkpt lat="49.3278" lon="0.04235">
        <ele>28</ele>
        <time>2020-06-24T10:05:42Z</time>
      </trkpt>
      <trkpt lat="49.32776" lon="0.04229">
        <ele>27</ele>
        <time>2020-06-24T10:05:46Z</time>
      </trkpt>
      <trkpt lat="49.32763" lon="0.04207">
        <ele>27</ele>
        <time>2020-06-24T10:05:59Z</time>
      </trkpt>
      <trkpt lat="49.32757" lon="0.04194">
        <ele>28</ele>
        <time>2020-06-24T10:06:06Z</time>
      </trkpt>
      <trkpt lat="49.32748" lon="0.04186">
        <ele>28</ele>
        <time>2020-06-24T10:06:14Z</time>
      </trkpt>
      <trkpt lat="49.32745" lon="0.0418">
        <ele>28</ele>
        <time>2020-06-24T10:06:18Z</time>
      </trkpt>
      <trkpt lat="49.32743" lon="0.04173">
        <ele>27</ele>
        <time>2020-06-24T10:06:22Z</time>
      </trkpt>
      <trkpt lat="49.32745" lon="0.04165">
        <ele>27</ele>
        <time>2020-06-24T10:06:26Z</time>
      </trkpt>
      <trkpt lat="49.32786" lon="0.0414">
        <ele>27</ele>
        <time>2020-06-24T10:06:55Z</time>
      </trkpt>
      <trkpt lat="49.32791" lon="0.04139">
        <ele>27</ele>
        <time>2020-06-24T10:06:58Z</time>
      </trkpt>
      <trkpt lat="49.32796" lon="0.04135">
        <ele>27</ele>
        <time>2020-06-24T10:07:02Z</time>
      </trkpt>
      <trkpt lat="49.32802" lon="0.04133">
        <ele>26</ele>
        <time>2020-06-24T10:07:06Z</time>
      </trkpt>
      <trkpt lat="49.32848" lon="0.04123">
        <ele>25</ele>
        <time>2020-06-24T10:07:38Z</time>
      </trkpt>
      <trkpt lat="49.32852" lon="0.04122">
        <ele>25</ele>
        <time>2020-06-24T10:07:41Z</time>
      </trkpt>
      <trkpt lat="49.32857" lon="0.0412">
        <ele>25</ele>
        <time>2020-06-24T10:07:45Z</time>
      </trkpt>
      <trkpt lat="49.32862" lon="0.04116">
        <ele>25</ele>
        <time>2020-06-24T10:07:49Z</time>
      </trkpt>
      <trkpt lat="49.32876" lon="0.0411">
        <ele>24</ele>
        <time>2020-06-24T10:08:01Z</time>
      </trkpt>
      <trkpt lat="49.32887" lon="0.04095">
        <ele>24</ele>
        <time>2020-06-24T10:08:12Z</time>
      </trkpt>
      <trkpt lat="49.32896" lon="0.04078">
        <ele>23</ele>
        <time>2020-06-24T10:08:21Z</time>
      </trkpt>
      <trkpt lat="49.329" lon="0.04072">
        <ele>23</ele>
        <time>2020-06-24T10:08:24Z</time>
      </trkpt>
      <trkpt lat="49.32905" lon="0.04068">
        <ele>23</ele>
        <time>2020-06-24T10:08:28Z</time>
      </trkpt>
      <trkpt lat="49.32912" lon="0.0406">
        <ele>23</ele>
        <time>2020-06-24T10:08:36Z</time>
      </trkpt>
      <trkpt lat="49.32923" lon="0.04059">
        <ele>22</ele>
        <time>2020-06-24T10:08:42Z</time>
      </trkpt>
      <trkpt lat="49.32927" lon="0.04056">
        <ele>22</ele>
        <time>2020-06-24T10:08:45Z</time>
      </trkpt>
      <trkpt lat="49.32936" lon="0.04051">
        <ele>22</ele>
        <time>2020-06-24T10:08:52Z</time>
      </trkpt>
      <trkpt lat="49.32948" lon="0.0405">
        <ele>21</ele>
        <time>2020-06-24T10:09:00Z</time>
      </trkpt>
      <trkpt lat="49.32952" lon="0.04047">
        <ele>20</ele>
        <time>2020-06-24T10:09:04Z</time>
      </trkpt>
      <trkpt lat="49.32961" lon="0.04043">
        <ele>20</ele>
        <time>2020-06-24T10:09:10Z</time>
      </trkpt>
      <trkpt lat="49.32988" lon="0.04026">
        <ele>19</ele>
        <time>2020-06-24T10:09:30Z</time>
      </trkpt>
      <trkpt lat="49.33005" lon="0.04022">
        <ele>18</ele>
        <time>2020-06-24T10:09:42Z</time>
      </trkpt>
      <trkpt lat="49.33025" lon="0.04008">
        <ele>18</ele>
        <time>2020-06-24T10:09:58Z</time>
      </trkpt>
      <trkpt lat="49.33039" lon="0.03982">
        <ele>17</ele>
        <time>2020-06-24T10:10:23Z</time>
      </trkpt>
      <trkpt lat="49.33041" lon="0.03974">
        <ele>18</ele>
        <time>2020-06-24T10:10:27Z</time>
      </trkpt>
      <trkpt lat="49.33045" lon="0.03961">
        <ele>17</ele>
        <time>2020-06-24T10:10:33Z</time>
      </trkpt>
      <trkpt lat="49.33065" lon="0.03914">
        <ele>17</ele>
        <time>2020-06-24T10:10:59Z</time>
      </trkpt>
      <trkpt lat="49.33068" lon="0.03902">
        <ele>17</ele>
        <time>2020-06-24T10:11:25Z</time>
      </trkpt>
      <trkpt lat="49.33068" lon="0.03895">
        <ele>16</ele>
        <time>2020-06-24T10:11:28Z</time>
      </trkpt>
      <trkpt lat="49.3307" lon="0.03887">
        <ele>16</ele>
        <time>2020-06-24T10:11:32Z</time>
      </trkpt>
      <trkpt lat="49.33072" lon="0.03879">
        <ele>16</ele>
        <time>2020-06-24T10:11:36Z</time>
      </trkpt>
      <trkpt lat="49.33076" lon="0.03874">
        <ele>16</ele>
        <time>2020-06-24T10:11:39Z</time>
      </trkpt>
      <trkpt lat="49.33081" lon="0.0387">
        <ele>16</ele>
        <time>2020-06-24T10:11:43Z</time>
      </trkpt>
      <trkpt lat="49.3309" lon="0.03858">
        <ele>16</ele>
        <time>2020-06-24T10:11:52Z</time>
      </trkpt>
      <trkpt lat="49.33111" lon="0.03836">
        <ele>16</ele>
        <time>2020-06-24T10:12:09Z</time>
      </trkpt>
      <trkpt lat="49.33144" lon="0.03786">
        <ele>16</ele>
        <time>2020-06-24T10:12:43Z</time>
      </trkpt>
      <trkpt lat="49.33148" lon="0.0378">
        <ele>16</ele>
        <time>2020-06-24T10:12:47Z</time>
      </trkpt>
      <trkpt lat="49.3316" lon="0.03754">
        <ele>17</ele>
        <time>2020-06-24T10:13:03Z</time>
      </trkpt>
      <trkpt lat="49.33163" lon="0.03749">
        <ele>16</ele>
        <time>2020-06-24T10:13:06Z</time>
      </trkpt>
      <trkpt lat="49.33172" lon="0.0374">
        <ele>16</ele>
        <time>2020-06-24T10:13:13Z</time>
      </trkpt>
      <trkpt lat="49.33174" lon="0.03733">
        <ele>16</ele>
        <time>2020-06-24T10:13:16Z</time>
      </trkpt>
      <trkpt lat="49.33185" lon="0.03686">
        <ele>15</ele>
        <time>2020-06-24T10:13:39Z</time>
      </trkpt>
      <trkpt lat="49.33186" lon="0.03669">
        <ele>15</ele>
        <time>2020-06-24T10:13:47Z</time>
      </trkpt>
      <trkpt lat="49.33191" lon="0.03624">
        <ele>15</ele>
        <time>2020-06-24T10:14:08Z</time>
      </trkpt>
      <trkpt lat="49.33189" lon="0.03609">
        <ele>15</ele>
        <time>2020-06-24T10:14:15Z</time>
      </trkpt>
      <trkpt lat="49.3319" lon="0.03585">
        <ele>15</ele>
        <time>2020-06-24T10:14:26Z</time>
      </trkpt>
      <trkpt lat="49.33192" lon="0.03576">
        <ele>15</ele>
        <time>2020-06-24T10:14:30Z</time>
      </trkpt>
      <trkpt lat="49.33201" lon="0.03557">
        <ele>14</ele>
        <time>2020-06-24T10:14:40Z</time>
      </trkpt>
      <trkpt lat="49.33205" lon="0.03553">
        <ele>14</ele>
        <time>2020-06-24T10:14:43Z</time>
      </trkpt>
      <trkpt lat="49.3321" lon="0.0355">
        <ele>14</ele>
        <time>2020-06-24T10:14:47Z</time>
      </trkpt>
      <trkpt lat="49.3322" lon="0.03547">
        <ele>15</ele>
        <time>2020-06-24T10:14:54Z</time>
      </trkpt>
      <trkpt lat="49.33226" lon="0.03544">
        <ele>15</ele>
        <time>2020-06-24T10:14:58Z</time>
      </trkpt>
      <trkpt lat="49.3323" lon="0.03539">
        <ele>15</ele>
        <time>2020-06-24T10:15:02Z</time>
      </trkpt>
      <trkpt lat="49.3324" lon="0.03532">
        <ele>15</ele>
        <time>2020-06-24T10:15:10Z</time>
      </trkpt>
      <trkpt lat="49.33241" lon="0.03521">
        <ele>14</ele>
        <time>2020-06-24T10:15:20Z</time>
      </trkpt>
      <trkpt lat="49.33243" lon="0.03514">
        <ele>14</ele>
        <time>2020-06-24T10:15:23Z</time>
      </trkpt>
      <trkpt lat="49.3325" lon="0.03504">
        <ele>14</ele>
        <time>2020-06-24T10:15:30Z</time>
      </trkpt>
      <trkpt lat="49.33258" lon="0.03493">
        <ele>14</ele>
        <time>2020-06-24T10:15:38Z</time>
      </trkpt>
      <trkpt lat="49.33285" lon="0.03443">
        <ele>14</ele>
        <time>2020-06-24T10:16:09Z</time>
      </trkpt>
      <trkpt lat="49.33317" lon="0.03388">
        <ele>13</ele>
        <time>2020-06-24T10:16:42Z</time>
      </trkpt>
      <trkpt lat="49.33349" lon="0.03332">
        <ele>13</ele>
        <time>2020-06-24T10:17:31Z</time>
      </trkpt>
      <trkpt lat="49.33352" lon="0.03325">
        <ele>13</ele>
        <time>2020-06-24T10:17:35Z</time>
      </trkpt>
      <trkpt lat="49.33382" lon="0.03275">
        <ele>12</ele>
        <time>2020-06-24T10:18:06Z</time>
      </trkpt>
      <trkpt lat="49.33415" lon="0.03217">
        <ele>12</ele>
        <time>2020-06-24T10:18:39Z</time>
      </trkpt>
      <trkpt lat="49.33423" lon="0.03204">
        <ele>12</ele>
        <time>2020-06-24T10:18:47Z</time>
      </trkpt>
      <trkpt lat="49.33452" lon="0.03156">
        <ele>12</ele>
        <time>2020-06-24T10:19:18Z</time>
      </trkpt>
      <trkpt lat="49.33467" lon="0.03133">
        <ele>12</ele>
        <time>2020-06-24T10:19:34Z</time>
      </trkpt>
      <trkpt lat="49.33482" lon="0.03123">
        <ele>12</ele>
        <time>2020-06-24T10:20:17Z</time>
      </trkpt>
      <trkpt lat="49.33486" lon="0.0312">
        <ele>11</ele>
        <time>2020-06-24T10:20:20Z</time>
      </trkpt>
      <trkpt lat="49.33523" lon="0.03078">
        <ele>11</ele>
        <time>2020-06-24T10:20:52Z</time>
      </trkpt>
      <trkpt lat="49.33563" lon="0.03033">
        <ele>11</ele>
        <time>2020-06-24T10:21:25Z</time>
      </trkpt>
      <trkpt lat="49.33567" lon="0.03028">
        <ele>11</ele>
        <time>2020-06-24T10:21:29Z</time>
      </trkpt>
      <trkpt lat="49.33572" lon="0.03026">
        <ele>11</ele>
        <time>2020-06-24T10:21:32Z</time>
      </trkpt>
      <trkpt lat="49.33586" lon="0.03023">
        <ele>11</ele>
        <time>2020-06-24T10:21:43Z</time>
      </trkpt>
      <trkpt lat="49.33604" lon="0.03013">
        <ele>11</ele>
        <time>2020-06-24T10:21:56Z</time>
      </trkpt>
      <trkpt lat="49.33646" lon="0.03">
        <ele>10</ele>
        <time>2020-06-24T10:22:24Z</time>
      </trkpt>
      <trkpt lat="49.33691" lon="0.02977">
        <ele>10</ele>
        <time>2020-06-24T10:22:58Z</time>
      </trkpt>
      <trkpt lat="49.33705" lon="0.02968">
        <ele>10</ele>
        <time>2020-06-24T10:23:08Z</time>
      </trkpt>
      <trkpt lat="49.33715" lon="0.02965">
        <ele>10</ele>
        <time>2020-06-24T10:23:15Z</time>
      </trkpt>
      <trkpt lat="49.33734" lon="0.02954">
        <ele>10</ele>
        <time>2020-06-24T10:23:29Z</time>
      </trkpt>
      <trkpt lat="49.33745" lon="0.0295">
        <ele>10</ele>
        <time>2020-06-24T10:23:37Z</time>
      </trkpt>
      <trkpt lat="49.33749" lon="0.02947">
        <ele>10</ele>
        <time>2020-06-24T10:23:41Z</time>
      </trkpt>
      <trkpt lat="49.33758" lon="0.02937">
        <ele>10</ele>
        <time>2020-06-24T10:23:49Z</time>
      </trkpt>
      <trkpt lat="49.33796" lon="0.02907">
        <ele>10</ele>
        <time>2020-06-24T10:24:19Z</time>
      </trkpt>
      <trkpt lat="49.33814" lon="0.02892">
        <ele>10</ele>
        <time>2020-06-24T10:24:34Z</time>
      </trkpt>
      <trkpt lat="49.3383" lon="0.02884">
        <ele>10</ele>
        <time>2020-06-24T10:24:46Z</time>
      </trkpt>
      <trkpt lat="49.33836" lon="0.02881">
        <ele>10</ele>
        <time>2020-06-24T10:24:50Z</time>
      </trkpt>
      <trkpt lat="49.33873" lon="0.02853">
        <ele>10</ele>
        <time>2020-06-24T10:25:24Z</time>
      </trkpt>
      <trkpt lat="49.33879" lon="0.02863">
        <ele>10</ele>
        <time>2020-06-24T10:25:39Z</time>
      </trkpt>
      <trkpt lat="49.33883" lon="0.02886">
        <ele>10</ele>
        <time>2020-06-24T10:25:51Z</time>
      </trkpt>
      <trkpt lat="49.33886" lon="0.02893">
        <ele>11</ele>
        <time>2020-06-24T10:25:55Z</time>
      </trkpt>
      <trkpt lat="49.33893" lon="0.02905">
        <ele>11</ele>
        <time>2020-06-24T10:26:02Z</time>
      </trkpt>
      <trkpt lat="49.339" lon="0.02915">
        <ele>10</ele>
        <time>2020-06-24T10:26:10Z</time>
      </trkpt>
      <trkpt lat="49.33899" lon="0.02922">
        <ele>10</ele>
        <time>2020-06-24T10:26:13Z</time>
      </trkpt>
      <trkpt lat="49.33898" lon="0.02929">
        <ele>11</ele>
        <time>2020-06-24T10:26:16Z</time>
      </trkpt>
      <trkpt lat="49.33898" lon="0.02937">
        <ele>11</ele>
        <time>2020-06-24T10:26:19Z</time>
      </trkpt>
      <trkpt lat="49.33899" lon="0.02951">
        <ele>11</ele>
        <time>2020-06-24T10:26:25Z</time>
      </trkpt>
      <trkpt lat="49.33898" lon="0.02968">
        <ele>11</ele>
        <time>2020-06-24T10:26:33Z</time>
      </trkpt>
      <trkpt lat="49.339" lon="0.02975">
        <ele>11</ele>
        <time>2020-06-24T10:26:37Z</time>
      </trkpt>
      <trkpt lat="49.33914" lon="0.02998">
        <ele>12</ele>
        <time>2020-06-24T10:26:53Z</time>
      </trkpt>
      <trkpt lat="49.33923" lon="0.03008">
        <ele>12</ele>
        <time>2020-06-24T10:27:01Z</time>
      </trkpt>
      <trkpt lat="49.33926" lon="0.03014">
        <ele>12</ele>
        <time>2020-06-24T10:27:05Z</time>
      </trkpt>
      <trkpt lat="49.3392" lon="0.03019">
        <ele>12</ele>
        <time>2020-06-24T10:27:42Z</time>
      </trkpt>
      <trkpt lat="49.33916" lon="0.0301">
        <ele>12</ele>
        <time>2020-06-24T10:28:35Z</time>
      </trkpt>
      <trkpt lat="49.33911" lon="0.0301">
        <ele>12</ele>
        <time>2020-06-24T10:28:39Z</time>
      </trkpt>
      <trkpt lat="49.3391" lon="0.03001">
        <ele>11</ele>
        <time>2020-06-24T10:28:44Z</time>
      </trkpt>
      <trkpt lat="49.33911" lon="0.02994">
        <ele>11</ele>
        <time>2020-06-24T10:28:47Z</time>
      </trkpt>
      <trkpt lat="49.33912" lon="0.02978">
        <ele>10</ele>
        <time>2020-06-24T10:28:53Z</time>
      </trkpt>
      <trkpt lat="49.33916" lon="0.02973">
        <ele>10</ele>
        <time>2020-06-24T10:28:57Z</time>
      </trkpt>
      <trkpt lat="49.33921" lon="0.02971">
        <ele>10</ele>
        <time>2020-06-24T10:29:00Z</time>
      </trkpt>
      <trkpt lat="49.33931" lon="0.02971">
        <ele>10</ele>
        <time>2020-06-24T10:29:06Z</time>
      </trkpt>
      <trkpt lat="49.33973" lon="0.02967">
        <ele>9</ele>
        <time>2020-06-24T10:29:35Z</time>
      </trkpt>
      <trkpt lat="49.33977" lon="0.02962">
        <ele>9</ele>
        <time>2020-06-24T10:29:39Z</time>
      </trkpt>
      <trkpt lat="49.3398" lon="0.02959">
        <ele>9</ele>
        <time>2020-06-24T10:29:52Z</time>
      </trkpt>
      <trkpt lat="49.34007" lon="0.02925">
        <ele>9</ele>
        <time>2020-06-24T10:30:19Z</time>
      </trkpt>
      <trkpt lat="49.34012" lon="0.02901">
        <ele>8</ele>
        <time>2020-06-24T10:30:33Z</time>
      </trkpt>
      <trkpt lat="49.3401" lon="0.02894">
        <ele>8</ele>
        <time>2020-06-24T10:30:37Z</time>
      </trkpt>
      <trkpt lat="49.34002" lon="0.02883">
        <ele>8</ele>
        <time>2020-06-24T10:30:45Z</time>
      </trkpt>
      <trkpt lat="49.34" lon="0.02876">
        <ele>8</ele>
        <time>2020-06-24T10:30:49Z</time>
      </trkpt>
      <trkpt lat="49.33993" lon="0.02865">
        <ele>8</ele>
        <time>2020-06-24T10:30:57Z</time>
      </trkpt>
      <trkpt lat="49.33983" lon="0.02846">
        <ele>8</ele>
        <time>2020-06-24T10:31:09Z</time>
      </trkpt>
      <trkpt lat="49.33985" lon="0.0284">
        <ele>9</ele>
        <time>2020-06-24T10:31:26Z</time>
      </trkpt>
      <trkpt lat="49.3398" lon="0.02832">
        <ele>8</ele>
        <time>2020-06-24T10:31:35Z</time>
      </trkpt>
      <trkpt lat="49.33975" lon="0.02827">
        <ele>8</ele>
        <time>2020-06-24T10:31:39Z</time>
      </trkpt>
      <trkpt lat="49.33972" lon="0.02821">
        <ele>8</ele>
        <time>2020-06-24T10:31:42Z</time>
      </trkpt>
      <trkpt lat="49.33967" lon="0.02815">
        <ele>8</ele>
        <time>2020-06-24T10:31:46Z</time>
      </trkpt>
      <trkpt lat="49.33963" lon="0.02812">
        <ele>8</ele>
        <time>2020-06-24T10:31:50Z</time>
      </trkpt>
      <trkpt lat="49.33959" lon="0.02808">
        <ele>8</ele>
        <time>2020-06-24T10:31:53Z</time>
      </trkpt>
      <trkpt lat="49.33951" lon="0.02788">
        <ele>8</ele>
        <time>2020-06-24T10:32:03Z</time>
      </trkpt>
      <trkpt lat="49.33941" lon="0.02778">
        <ele>8</ele>
        <time>2020-06-24T10:32:11Z</time>
      </trkpt>
      <trkpt lat="49.33926" lon="0.02751">
        <ele>8</ele>
        <time>2020-06-24T10:32:27Z</time>
      </trkpt>
      <trkpt lat="49.33921" lon="0.02738">
        <ele>8</ele>
        <time>2020-06-24T10:32:34Z</time>
      </trkpt>
      <trkpt lat="49.33917" lon="0.02731">
        <ele>8</ele>
        <time>2020-06-24T10:32:38Z</time>
      </trkpt>
      <trkpt lat="49.33912" lon="0.02719">
        <ele>8</ele>
        <time>2020-06-24T10:32:45Z</time>
      </trkpt>
      <trkpt lat="49.33904" lon="0.02708">
        <ele>8</ele>
        <time>2020-06-24T10:32:53Z</time>
      </trkpt>
      <trkpt lat="49.339" lon="0.02693">
        <ele>8</ele>
        <time>2020-06-24T10:33:01Z</time>
      </trkpt>
      <trkpt lat="49.33905" lon="0.02699">
        <ele>8</ele>
        <time>2020-06-24T10:33:32Z</time>
      </trkpt>
      <trkpt lat="49.33913" lon="0.02706">
        <ele>7</ele>
        <time>2020-06-24T10:33:39Z</time>
      </trkpt>
      <trkpt lat="49.3392" lon="0.02718">
        <ele>7</ele>
        <time>2020-06-24T10:33:47Z</time>
      </trkpt>
      <trkpt lat="49.33921" lon="0.02728">
        <ele>7</ele>
        <time>2020-06-24T10:33:53Z</time>
      </trkpt>
      <trkpt lat="49.33923" lon="0.02735">
        <ele>7</ele>
        <time>2020-06-24T10:33:57Z</time>
      </trkpt>
      <trkpt lat="49.33927" lon="0.02741">
        <ele>7</ele>
        <time>2020-06-24T10:34:00Z</time>
      </trkpt>
      <trkpt lat="49.3393" lon="0.02746">
        <ele>7</ele>
        <time>2020-06-24T10:34:03Z</time>
      </trkpt>
      <trkpt lat="49.33942" lon="0.02759">
        <ele>7</ele>
        <time>2020-06-24T10:34:13Z</time>
      </trkpt>
      <trkpt lat="49.33963" lon="0.02792">
        <ele>7</ele>
        <time>2020-06-24T10:34:34Z</time>
      </trkpt>
      <trkpt lat="49.33967" lon="0.02797">
        <ele>7</ele>
        <time>2020-06-24T10:34:38Z</time>
      </trkpt>
      <trkpt lat="49.3397" lon="0.02804">
        <ele>7</ele>
        <time>2020-06-24T10:34:42Z</time>
      </trkpt>
      <trkpt lat="49.33975" lon="0.02808">
        <ele>7</ele>
        <time>2020-06-24T10:34:47Z</time>
      </trkpt>
      <trkpt lat="49.33984" lon="0.02809">
        <ele>7</ele>
        <time>2020-06-24T10:34:56Z</time>
      </trkpt>
      <trkpt lat="49.33987" lon="0.02813">
        <ele>6</ele>
        <time>2020-06-24T10:35:00Z</time>
      </trkpt>
      <trkpt lat="49.33992" lon="0.02823">
        <ele>6</ele>
        <time>2020-06-24T10:35:15Z</time>
      </trkpt>
      <trkpt lat="49.33994" lon="0.02831">
        <ele>6</ele>
        <time>2020-06-24T10:35:21Z</time>
      </trkpt>
      <trkpt lat="49.33994" lon="0.02856">
        <ele>7</ele>
        <time>2020-06-24T10:35:41Z</time>
      </trkpt>
      <trkpt lat="49.33998" lon="0.02862">
        <ele>7</ele>
        <time>2020-06-24T10:35:45Z</time>
      </trkpt>
      <trkpt lat="49.34002" lon="0.02867">
        <ele>8</ele>
        <time>2020-06-24T10:35:49Z</time>
      </trkpt>
      <trkpt lat="49.34014" lon="0.02884">
        <ele>8</ele>
        <time>2020-06-24T10:36:01Z</time>
      </trkpt>
      <trkpt lat="49.34017" lon="0.02891">
        <ele>8</ele>
        <time>2020-06-24T10:36:05Z</time>
      </trkpt>
      <trkpt lat="49.34034" lon="0.02922">
        <ele>7</ele>
        <time>2020-06-24T10:36:25Z</time>
      </trkpt>
      <trkpt lat="49.34036" lon="0.02928">
        <ele>7</ele>
        <time>2020-06-24T10:36:29Z</time>
      </trkpt>
      <trkpt lat="49.34041" lon="0.02942">
        <ele>8</ele>
        <time>2020-06-24T10:36:37Z</time>
      </trkpt>
      <trkpt lat="49.34045" lon="0.02949">
        <ele>8</ele>
        <time>2020-06-24T10:36:41Z</time>
      </trkpt>
      <trkpt lat="49.34049" lon="0.02954">
        <ele>7</ele>
        <time>2020-06-24T10:36:45Z</time>
      </trkpt>
      <trkpt lat="49.34053" lon="0.02959">
        <ele>8</ele>
        <time>2020-06-24T10:36:49Z</time>
      </trkpt>
      <trkpt lat="49.3406" lon="0.0297">
        <ele>7</ele>
        <time>2020-06-24T10:36:57Z</time>
      </trkpt>
      <trkpt lat="49.34058" lon="0.02964">
        <ele>7</ele>
        <time>2020-06-24T10:37:29Z</time>
      </trkpt>
      <trkpt lat="49.34055" lon="0.02959">
        <ele>7</ele>
        <time>2020-06-24T10:37:34Z</time>
      </trkpt>
      <trkpt lat="49.34053" lon="0.02949">
        <ele>7</ele>
        <time>2020-06-24T10:37:42Z</time>
      </trkpt>
      <trkpt lat="49.34045" lon="0.02938">
        <ele>7</ele>
        <time>2020-06-24T10:37:51Z</time>
      </trkpt>
      <trkpt lat="49.34043" lon="0.02931">
        <ele>7</ele>
        <time>2020-06-24T10:37:56Z</time>
      </trkpt>
      <trkpt lat="49.34044" lon="0.02924">
        <ele>7</ele>
        <time>2020-06-24T10:38:00Z</time>
      </trkpt>
      <trkpt lat="49.34037" lon="0.02948">
        <ele>4</ele>
        <time>2020-06-24T11:25:41Z</time>
      </trkpt>
      <trkpt lat="49.34045" lon="0.02951">
        <ele>4</ele>
        <time>2020-06-24T11:26:16Z</time>
      </trkpt>
      <trkpt lat="49.34049" lon="0.02957">
        <ele>3</ele>
        <time>2020-06-24T11:26:20Z</time>
      </trkpt>
      <trkpt lat="49.34061" lon="0.02987">
        <ele>4</ele>
        <time>2020-06-24T11:26:41Z</time>
      </trkpt>
      <trkpt lat="49.34052" lon="0.03">
        <ele>5</ele>
        <time>2020-06-24T11:26:56Z</time>
      </trkpt>
      <trkpt lat="49.34043" lon="0.03006">
        <ele>5</ele>
        <time>2020-06-24T11:27:04Z</time>
      </trkpt>
      <trkpt lat="49.3404" lon="0.03013">
        <ele>5</ele>
        <time>2020-06-24T11:27:09Z</time>
      </trkpt>
      <trkpt lat="49.34034" lon="0.03007">
        <ele>5</ele>
        <time>2020-06-24T11:27:38Z</time>
      </trkpt>
      <trkpt lat="49.3403" lon="0.03004">
        <ele>5</ele>
        <time>2020-06-24T11:27:42Z</time>
      </trkpt>
      <trkpt lat="49.34019" lon="0.03002">
        <ele>5</ele>
        <time>2020-06-24T11:27:51Z</time>
      </trkpt>
      <trkpt lat="49.34022" lon="0.02999">
        <ele>5</ele>
        <time>2020-06-24T11:28:07Z</time>
      </trkpt>
      <trkpt lat="49.34032" lon="0.03001">
        <ele>5</ele>
        <time>2020-06-24T11:28:14Z</time>
      </trkpt>
      <trkpt lat="49.34036" lon="0.03004">
        <ele>5</ele>
        <time>2020-06-24T11:28:18Z</time>
      </trkpt>
      <trkpt lat="49.34038" lon="0.03013">
        <ele>5</ele>
        <time>2020-06-24T11:28:22Z</time>
      </trkpt>
      <trkpt lat="49.34039" lon="0.03044">
        <ele>6</ele>
        <time>2020-06-24T11:28:37Z</time>
      </trkpt>
      <trkpt lat="49.34037" lon="0.03052">
        <ele>6</ele>
        <time>2020-06-24T11:28:41Z</time>
      </trkpt>
      <trkpt lat="49.34028" lon="0.03053">
        <ele>6</ele>
        <time>2020-06-24T11:28:52Z</time>
      </trkpt>
      <trkpt lat="49.34023" lon="0.03053">
        <ele>6</ele>
        <time>2020-06-24T11:28:56Z</time>
      </trkpt>
      <trkpt lat="49.34026" lon="0.0305">
        <ele>7</ele>
        <time>2020-06-24T11:29:31Z</time>
      </trkpt>
      <trkpt lat="49.34029" lon="0.03058">
        <ele>7</ele>
        <time>2020-06-24T11:29:40Z</time>
      </trkpt>
      <trkpt lat="49.34031" lon="0.03066">
        <ele>7</ele>
        <time>2020-06-24T11:29:44Z</time>
      </trkpt>
      <trkpt lat="49.34032" lon="0.0309">
        <ele>8</ele>
        <time>2020-06-24T11:29:57Z</time>
      </trkpt>
      <trkpt lat="49.34028" lon="0.03106">
        <ele>10</ele>
        <time>2020-06-24T11:30:05Z</time>
      </trkpt>
      <trkpt lat="49.34029" lon="0.03113">
        <ele>10</ele>
        <time>2020-06-24T11:30:09Z</time>
      </trkpt>
      <trkpt lat="49.34027" lon="0.03129">
        <ele>12</ele>
        <time>2020-06-24T11:30:17Z</time>
      </trkpt>
      <trkpt lat="49.34028" lon="0.0317">
        <ele>15</ele>
        <time>2020-06-24T11:30:40Z</time>
      </trkpt>
      <trkpt lat="49.3403" lon="0.03177">
        <ele>16</ele>
        <time>2020-06-24T11:30:45Z</time>
      </trkpt>
      <trkpt lat="49.34032" lon="0.03188">
        <ele>16</ele>
        <time>2020-06-24T11:30:56Z</time>
      </trkpt>
      <trkpt lat="49.34033" lon="0.03196">
        <ele>17</ele>
        <time>2020-06-24T11:30:59Z</time>
      </trkpt>
      <trkpt lat="49.34057" lon="0.03245">
        <ele>20</ele>
        <time>2020-06-24T11:31:30Z</time>
      </trkpt>
      <trkpt lat="49.34059" lon="0.03251">
        <ele>20</ele>
        <time>2020-06-24T11:31:34Z</time>
      </trkpt>
      <trkpt lat="49.34084" lon="0.0329">
        <ele>22</ele>
        <time>2020-06-24T11:32:02Z</time>
      </trkpt>
      <trkpt lat="49.34093" lon="0.03309">
        <ele>23</ele>
        <time>2020-06-24T11:32:15Z</time>
      </trkpt>
      <trkpt lat="49.34112" lon="0.03336">
        <ele>24</ele>
        <time>2020-06-24T11:32:34Z</time>
      </trkpt>
      <trkpt lat="49.34138" lon="0.03384">
        <ele>27</ele>
        <time>2020-06-24T11:33:07Z</time>
      </trkpt>
      <trkpt lat="49.34143" lon="0.03388">
        <ele>27</ele>
        <time>2020-06-24T11:33:18Z</time>
      </trkpt>
      <trkpt lat="49.34146" lon="0.03395">
        <ele>28</ele>
        <time>2020-06-24T11:33:22Z</time>
      </trkpt>
      <trkpt lat="49.34147" lon="0.03406">
        <ele>29</ele>
        <time>2020-06-24T11:33:37Z</time>
      </trkpt>
      <trkpt lat="49.34152" lon="0.03428">
        <ele>31</ele>
        <time>2020-06-24T11:33:49Z</time>
      </trkpt>
      <trkpt lat="49.3416" lon="0.0344">
        <ele>32</ele>
        <time>2020-06-24T11:33:57Z</time>
      </trkpt>
      <trkpt lat="49.34157" lon="0.03438">
        <ele>32</ele>
        <time>2020-06-24T11:34:27Z</time>
      </trkpt>
      <trkpt lat="49.34157" lon="0.03431">
        <ele>32</ele>
        <time>2020-06-24T11:34:30Z</time>
      </trkpt>
      <trkpt lat="49.34148" lon="0.03407">
        <ele>30</ele>
        <time>2020-06-24T11:34:41Z</time>
      </trkpt>
      <trkpt lat="49.34146" lon="0.03399">
        <ele>29</ele>
        <time>2020-06-24T11:34:47Z</time>
      </trkpt>
      <trkpt lat="49.34152" lon="0.03402">
        <ele>29</ele>
        <time>2020-06-24T11:34:50Z</time>
      </trkpt>
      <trkpt lat="49.34155" lon="0.03407">
        <ele>28</ele>
        <time>2020-06-24T11:34:52Z</time>
      </trkpt>
      <trkpt lat="49.3416" lon="0.03413">
        <ele>29</ele>
        <time>2020-06-24T11:34:55Z</time>
      </trkpt>
      <trkpt lat="49.34166" lon="0.03425">
        <ele>30</ele>
        <time>2020-06-24T11:35:02Z</time>
      </trkpt>
      <trkpt lat="49.34202" lon="0.03468">
        <ele>32</ele>
        <time>2020-06-24T11:35:33Z</time>
      </trkpt>
      <trkpt lat="49.34208" lon="0.03481">
        <ele>33</ele>
        <time>2020-06-24T11:35:41Z</time>
      </trkpt>
      <trkpt lat="49.34213" lon="0.03483">
        <ele>33</ele>
        <time>2020-06-24T11:35:44Z</time>
      </trkpt>
      <trkpt lat="49.3423" lon="0.03517">
        <ele>34</ele>
        <time>2020-06-24T11:36:04Z</time>
      </trkpt>
      <trkpt lat="49.34239" lon="0.03528">
        <ele>35</ele>
        <time>2020-06-24T11:36:13Z</time>
      </trkpt>
      <trkpt lat="49.3427" lon="0.03589">
        <ele>35</ele>
        <time>2020-06-24T11:36:49Z</time>
      </trkpt>
      <trkpt lat="49.34285" lon="0.03606">
        <ele>36</ele>
        <time>2020-06-24T11:37:02Z</time>
      </trkpt>
      <trkpt lat="49.34312" lon="0.03654">
        <ele>35</ele>
        <time>2020-06-24T11:37:30Z</time>
      </trkpt>
      <trkpt lat="49.34319" lon="0.03662">
        <ele>35</ele>
        <time>2020-06-24T11:37:36Z</time>
      </trkpt>
      <trkpt lat="49.34324" lon="0.03665">
        <ele>35</ele>
        <time>2020-06-24T11:37:39Z</time>
      </trkpt>
      <trkpt lat="49.34332" lon="0.03673">
        <ele>35</ele>
        <time>2020-06-24T11:37:46Z</time>
      </trkpt>
      <trkpt lat="49.34335" lon="0.0368">
        <ele>35</ele>
        <time>2020-06-24T11:37:50Z</time>
      </trkpt>
      <trkpt lat="49.34337" lon="0.03691">
        <ele>35</ele>
        <time>2020-06-24T11:37:56Z</time>
      </trkpt>
      <trkpt lat="49.3434" lon="0.03698">
        <ele>35</ele>
        <time>2020-06-24T11:37:59Z</time>
      </trkpt>
      <trkpt lat="49.34364" lon="0.0373">
        <ele>35</ele>
        <time>2020-06-24T11:38:21Z</time>
      </trkpt>
      <trkpt lat="49.34372" lon="0.03758">
        <ele>35</ele>
        <time>2020-06-24T11:38:35Z</time>
      </trkpt>
      <trkpt lat="49.34377" lon="0.03762">
        <ele>35</ele>
        <time>2020-06-24T11:38:39Z</time>
      </trkpt>
      <trkpt lat="49.34381" lon="0.03778">
        <ele>35</ele>
        <time>2020-06-24T11:38:46Z</time>
      </trkpt>
      <trkpt lat="49.34382" lon="0.03796">
        <ele>35</ele>
        <time>2020-06-24T11:38:54Z</time>
      </trkpt>
      <trkpt lat="49.34386" lon="0.03844">
        <ele>36</ele>
        <time>2020-06-24T11:39:16Z</time>
      </trkpt>
      <trkpt lat="49.34394" lon="0.03863">
        <ele>36</ele>
        <time>2020-06-24T11:39:26Z</time>
      </trkpt>
      <trkpt lat="49.34395" lon="0.03871">
        <ele>36</ele>
        <time>2020-06-24T11:39:30Z</time>
      </trkpt>
      <trkpt lat="49.34391" lon="0.03871">
        <ele>36</ele>
        <time>2020-06-24T11:39:48Z</time>
      </trkpt>
      <trkpt lat="49.34386" lon="0.03872">
        <ele>36</ele>
        <time>2020-06-24T11:40:19Z</time>
      </trkpt>
      <trkpt lat="49.34391" lon="0.03879">
        <ele>36</ele>
        <time>2020-06-24T11:41:18Z</time>
      </trkpt>
      <trkpt lat="49.344" lon="0.03903">
        <ele>37</ele>
        <time>2020-06-24T11:41:30Z</time>
      </trkpt>
      <trkpt lat="49.34401" lon="0.03911">
        <ele>36</ele>
        <time>2020-06-24T11:41:34Z</time>
      </trkpt>
      <trkpt lat="49.34401" lon="0.03919">
        <ele>37</ele>
        <time>2020-06-24T11:41:50Z</time>
      </trkpt>
      <trkpt lat="49.34405" lon="0.03925">
        <ele>36</ele>
        <time>2020-06-24T11:41:54Z</time>
      </trkpt>
      <trkpt lat="49.34408" lon="0.0394">
        <ele>36</ele>
        <time>2020-06-24T11:42:01Z</time>
      </trkpt>
      <trkpt lat="49.34413" lon="0.03952">
        <ele>36</ele>
        <time>2020-06-24T11:42:07Z</time>
      </trkpt>
      <trkpt lat="49.34414" lon="0.0396">
        <ele>36</ele>
        <time>2020-06-24T11:42:11Z</time>
      </trkpt>
      <trkpt lat="49.34422" lon="0.03972">
        <ele>36</ele>
        <time>2020-06-24T11:42:18Z</time>
      </trkpt>
      <trkpt lat="49.3443" lon="0.03983">
        <ele>36</ele>
        <time>2020-06-24T11:42:25Z</time>
      </trkpt>
      <trkpt lat="49.34439" lon="0.04004">
        <ele>36</ele>
        <time>2020-06-24T11:42:36Z</time>
      </trkpt>
      <trkpt lat="49.34442" lon="0.04011">
        <ele>36</ele>
        <time>2020-06-24T11:42:40Z</time>
      </trkpt>
      <trkpt lat="49.34444" lon="0.04028">
        <ele>35</ele>
        <time>2020-06-24T11:42:48Z</time>
      </trkpt>
      <trkpt lat="49.34451" lon="0.04049">
        <ele>35</ele>
        <time>2020-06-24T11:42:58Z</time>
      </trkpt>
      <trkpt lat="49.34458" lon="0.04071">
        <ele>35</ele>
        <time>2020-06-24T11:43:08Z</time>
      </trkpt>
      <trkpt lat="49.34458" lon="0.04079">
        <ele>35</ele>
        <time>2020-06-24T11:43:11Z</time>
      </trkpt>
      <trkpt lat="49.34468" lon="0.04124">
        <ele>36</ele>
        <time>2020-06-24T11:43:34Z</time>
      </trkpt>
      <trkpt lat="49.34474" lon="0.04136">
        <ele>35</ele>
        <time>2020-06-24T11:43:41Z</time>
      </trkpt>
      <trkpt lat="49.34482" lon="0.04166">
        <ele>35</ele>
        <time>2020-06-24T11:43:56Z</time>
      </trkpt>
      <trkpt lat="49.34485" lon="0.04171">
        <ele>35</ele>
        <time>2020-06-24T11:43:59Z</time>
      </trkpt>
      <trkpt lat="49.34496" lon="0.04202">
        <ele>36</ele>
        <time>2020-06-24T11:44:15Z</time>
      </trkpt>
      <trkpt lat="49.34503" lon="0.04234">
        <ele>35</ele>
        <time>2020-06-24T11:44:30Z</time>
      </trkpt>
      <trkpt lat="49.34509" lon="0.04245">
        <ele>35</ele>
        <time>2020-06-24T11:44:37Z</time>
      </trkpt>
      <trkpt lat="49.34513" lon="0.04251">
        <ele>35</ele>
        <time>2020-06-24T11:44:41Z</time>
      </trkpt>
      <trkpt lat="49.34518" lon="0.04255">
        <ele>34</ele>
        <time>2020-06-24T11:44:44Z</time>
      </trkpt>
      <trkpt lat="49.34521" lon="0.0426">
        <ele>34</ele>
        <time>2020-06-24T11:44:48Z</time>
      </trkpt>
      <trkpt lat="49.3453" lon="0.04284">
        <ele>33</ele>
        <time>2020-06-24T11:45:05Z</time>
      </trkpt>
      <trkpt lat="49.34557" lon="0.04321">
        <ele>31</ele>
        <time>2020-06-24T11:45:31Z</time>
      </trkpt>
      <trkpt lat="49.34567" lon="0.04329">
        <ele>30</ele>
        <time>2020-06-24T11:45:37Z</time>
      </trkpt>
      <trkpt lat="49.34577" lon="0.04347">
        <ele>29</ele>
        <time>2020-06-24T11:45:48Z</time>
      </trkpt>
      <trkpt lat="49.3458" lon="0.04353">
        <ele>29</ele>
        <time>2020-06-24T11:45:52Z</time>
      </trkpt>
      <trkpt lat="49.34589" lon="0.04369">
        <ele>28</ele>
        <time>2020-06-24T11:46:02Z</time>
      </trkpt>
      <trkpt lat="49.34593" lon="0.04374">
        <ele>28</ele>
        <time>2020-06-24T11:46:06Z</time>
      </trkpt>
      <trkpt lat="49.34624" lon="0.0442">
        <ele>25</ele>
        <time>2020-06-24T11:46:38Z</time>
      </trkpt>
      <trkpt lat="49.34631" lon="0.04429">
        <ele>24</ele>
        <time>2020-06-24T11:46:44Z</time>
      </trkpt>
      <trkpt lat="49.34634" lon="0.04435">
        <ele>24</ele>
        <time>2020-06-24T11:46:49Z</time>
      </trkpt>
      <trkpt lat="49.34669" lon="0.04485">
        <ele>20</ele>
        <time>2020-06-24T11:47:23Z</time>
      </trkpt>
      <trkpt lat="49.34671" lon="0.04491">
        <ele>20</ele>
        <time>2020-06-24T11:47:27Z</time>
      </trkpt>
      <trkpt lat="49.34676" lon="0.04505">
        <ele>20</ele>
        <time>2020-06-24T11:47:34Z</time>
      </trkpt>
      <trkpt lat="49.3468" lon="0.0452">
        <ele>19</ele>
        <time>2020-06-24T11:47:42Z</time>
      </trkpt>
      <trkpt lat="49.34688" lon="0.04537">
        <ele>18</ele>
        <time>2020-06-24T11:47:52Z</time>
      </trkpt>
      <trkpt lat="49.34688" lon="0.04545">
        <ele>17</ele>
        <time>2020-06-24T11:47:56Z</time>
      </trkpt>
      <trkpt lat="49.34693" lon="0.04561">
        <ele>17</ele>
        <time>2020-06-24T11:48:04Z</time>
      </trkpt>
      <trkpt lat="49.34698" lon="0.04564">
        <ele>16</ele>
        <time>2020-06-24T11:48:09Z</time>
      </trkpt>
      <trkpt lat="49.34702" lon="0.04565">
        <ele>16</ele>
        <time>2020-06-24T11:48:12Z</time>
      </trkpt>
      <trkpt lat="49.34706" lon="0.04571">
        <ele>16</ele>
        <time>2020-06-24T11:48:16Z</time>
      </trkpt>
      <trkpt lat="49.34706" lon="0.04578">
        <ele>16</ele>
        <time>2020-06-24T11:48:20Z</time>
      </trkpt>
      <trkpt lat="49.34708" lon="0.04584">
        <ele>15</ele>
        <time>2020-06-24T11:48:25Z</time>
      </trkpt>
      <trkpt lat="49.34713" lon="0.04584">
        <ele>14</ele>
        <time>2020-06-24T11:48:30Z</time>
      </trkpt>
      <trkpt lat="49.34746" lon="0.04557">
        <ele>10</ele>
        <time>2020-06-24T11:49:00Z</time>
      </trkpt>
      <trkpt lat="49.34751" lon="0.04554">
        <ele>10</ele>
        <time>2020-06-24T11:49:04Z</time>
      </trkpt>
      <trkpt lat="49.34757" lon="0.04551">
        <ele>10</ele>
        <time>2020-06-24T11:49:08Z</time>
      </trkpt>
      <trkpt lat="49.34762" lon="0.04551">
        <ele>10</ele>
        <time>2020-06-24T11:49:12Z</time>
      </trkpt>
      <trkpt lat="49.34767" lon="0.04551">
        <ele>10</ele>
        <time>2020-06-24T11:49:15Z</time>
      </trkpt>
      <trkpt lat="49.34786" lon="0.04535">
        <ele>9</ele>
        <time>2020-06-24T11:49:30Z</time>
      </trkpt>
      <trkpt lat="49.34791" lon="0.04537">
        <ele>9</ele>
        <time>2020-06-24T11:49:34Z</time>
      </trkpt>
      <trkpt lat="49.34805" lon="0.04566">
        <ele>9</ele>
        <time>2020-06-24T11:50:04Z</time>
      </trkpt>
      <trkpt lat="49.34812" lon="0.04576">
        <ele>9</ele>
        <time>2020-06-24T11:50:11Z</time>
      </trkpt>
      <trkpt lat="49.34826" lon="0.04601">
        <ele>9</ele>
        <time>2020-06-24T11:50:27Z</time>
      </trkpt>
      <trkpt lat="49.34829" lon="0.04607">
        <ele>9</ele>
        <time>2020-06-24T11:50:30Z</time>
      </trkpt>
      <trkpt lat="49.34856" lon="0.04654">
        <ele>9</ele>
        <time>2020-06-24T11:51:01Z</time>
      </trkpt>
      <trkpt lat="49.34866" lon="0.04673">
        <ele>9</ele>
        <time>2020-06-24T11:51:13Z</time>
      </trkpt>
      <trkpt lat="49.34884" lon="0.04701">
        <ele>9</ele>
        <time>2020-06-24T11:51:32Z</time>
      </trkpt>
      <trkpt lat="49.34893" lon="0.04716">
        <ele>6</ele>
        <time>2020-06-24T11:54:21Z</time>
      </trkpt>
      <trkpt lat="49.34897" lon="0.04722">
        <ele>6</ele>
        <time>2020-06-24T11:54:26Z</time>
      </trkpt>
      <trkpt lat="49.349" lon="0.04729">
        <ele>6</ele>
        <time>2020-06-24T11:54:29Z</time>
      </trkpt>
      <trkpt lat="49.34904" lon="0.04735">
        <ele>7</ele>
        <time>2020-06-24T11:54:34Z</time>
      </trkpt>
      <trkpt lat="49.34911" lon="0.04745">
        <ele>7</ele>
        <time>2020-06-24T11:54:41Z</time>
      </trkpt>
      <trkpt lat="49.34933" lon="0.04781">
        <ele>5</ele>
        <time>2020-06-24T11:55:05Z</time>
      </trkpt>
      <trkpt lat="49.34936" lon="0.04786">
        <ele>6</ele>
        <time>2020-06-24T11:55:09Z</time>
      </trkpt>
      <trkpt lat="49.34946" lon="0.04804">
        <ele>5</ele>
        <time>2020-06-24T11:55:21Z</time>
      </trkpt>
      <trkpt lat="49.34973" lon="0.04852">
        <ele>5</ele>
        <time>2020-06-24T11:55:52Z</time>
      </trkpt>
      <trkpt lat="49.35004" lon="0.04899">
        <ele>4</ele>
        <time>2020-06-24T11:56:25Z</time>
      </trkpt>
      <trkpt lat="49.35007" lon="0.04905">
        <ele>5</ele>
        <time>2020-06-24T11:56:29Z</time>
      </trkpt>
      <trkpt lat="49.35022" lon="0.04928">
        <ele>4</ele>
        <time>2020-06-24T11:56:45Z</time>
      </trkpt>
      <trkpt lat="49.35029" lon="0.04935">
        <ele>4</ele>
        <time>2020-06-24T11:56:54Z</time>
      </trkpt>
      <trkpt lat="49.35033" lon="0.04941">
        <ele>4</ele>
        <time>2020-06-24T11:56:58Z</time>
      </trkpt>
      <trkpt lat="49.3504" lon="0.04951">
        <ele>4</ele>
        <time>2020-06-24T11:57:06Z</time>
      </trkpt>
      <trkpt lat="49.35066" lon="0.04999">
        <ele>4</ele>
        <time>2020-06-24T11:57:38Z</time>
      </trkpt>
      <trkpt lat="49.35094" lon="0.05044">
        <ele>5</ele>
        <time>2020-06-24T11:58:10Z</time>
      </trkpt>
      <trkpt lat="49.35097" lon="0.0505">
        <ele>5</ele>
        <time>2020-06-24T11:58:14Z</time>
      </trkpt>
      <trkpt lat="49.35102" lon="0.05059">
        <ele>4</ele>
        <time>2020-06-24T11:58:51Z</time>
      </trkpt>
      <trkpt lat="49.35106" lon="0.05065">
        <ele>4</ele>
        <time>2020-06-24T11:58:55Z</time>
      </trkpt>
      <trkpt lat="49.35109" lon="0.0507">
        <ele>3</ele>
        <time>2020-06-24T11:58:59Z</time>
      </trkpt>
      <trkpt lat="49.35128" lon="0.05097">
        <ele>3</ele>
        <time>2020-06-24T11:59:18Z</time>
      </trkpt>
      <trkpt lat="49.35134" lon="0.05109">
        <ele>4</ele>
        <time>2020-06-24T11:59:26Z</time>
      </trkpt>
      <trkpt lat="49.35138" lon="0.05113">
        <ele>4</ele>
        <time>2020-06-24T11:59:30Z</time>
      </trkpt>
      <trkpt lat="49.35141" lon="0.05119">
        <ele>4</ele>
        <time>2020-06-24T11:59:34Z</time>
      </trkpt>
      <trkpt lat="49.35145" lon="0.05126">
        <ele>4</ele>
        <time>2020-06-24T11:59:38Z</time>
      </trkpt>
      <trkpt lat="49.35149" lon="0.05131">
        <ele>4</ele>
        <time>2020-06-24T11:59:42Z</time>
      </trkpt>
      <trkpt lat="49.35152" lon="0.05137">
        <ele>4</ele>
        <time>2020-06-24T11:59:46Z</time>
      </trkpt>
      <trkpt lat="49.3516" lon="0.05149">
        <ele>4</ele>
        <time>2020-06-24T11:59:54Z</time>
      </trkpt>
      <trkpt lat="49.35167" lon="0.05161">
        <ele>4</ele>
        <time>2020-06-24T12:00:02Z</time>
      </trkpt>
      <trkpt lat="49.3517" lon="0.05167">
        <ele>4</ele>
        <time>2020-06-24T12:00:06Z</time>
      </trkpt>
      <trkpt lat="49.35174" lon="0.05173">
        <ele>4</ele>
        <time>2020-06-24T12:00:10Z</time>
      </trkpt>
      <trkpt lat="49.35178" lon="0.05178">
        <ele>4</ele>
        <time>2020-06-24T12:00:14Z</time>
      </trkpt>
      <trkpt lat="49.35181" lon="0.05183">
        <ele>4</ele>
        <time>2020-06-24T12:00:18Z</time>
      </trkpt>
      <trkpt lat="49.35185" lon="0.05189">
        <ele>4</ele>
        <time>2020-06-24T12:00:22Z</time>
      </trkpt>
      <trkpt lat="49.35203" lon="0.05219">
        <ele>4</ele>
        <time>2020-06-24T12:00:42Z</time>
      </trkpt>
      <trkpt lat="49.35206" lon="0.05224">
        <ele>4</ele>
        <time>2020-06-24T12:00:46Z</time>
      </trkpt>
      <trkpt lat="49.35234" lon="0.0527">
        <ele>5</ele>
        <time>2020-06-24T12:01:18Z</time>
      </trkpt>
      <trkpt lat="49.35262" lon="0.05316">
        <ele>5</ele>
        <time>2020-06-24T12:01:50Z</time>
      </trkpt>
      <trkpt lat="49.3527" lon="0.05328">
        <ele>5</ele>
        <time>2020-06-24T12:01:59Z</time>
      </trkpt>
      <trkpt lat="49.35277" lon="0.05338">
        <ele>5</ele>
        <time>2020-06-24T12:02:07Z</time>
      </trkpt>
      <trkpt lat="49.35281" lon="0.05343">
        <ele>5</ele>
        <time>2020-06-24T12:02:11Z</time>
      </trkpt>
      <trkpt lat="49.35288" lon="0.05353">
        <ele>5</ele>
        <time>2020-06-24T12:02:19Z</time>
      </trkpt>
      <trkpt lat="49.35291" lon="0.05359">
        <ele>5</ele>
        <time>2020-06-24T12:02:23Z</time>
      </trkpt>
      <trkpt lat="49.35297" lon="0.05371">
        <ele>5</ele>
        <time>2020-06-24T12:02:31Z</time>
      </trkpt>
      <trkpt lat="49.35309" lon="0.05389">
        <ele>5</ele>
        <time>2020-06-24T12:02:44Z</time>
      </trkpt>
      <trkpt lat="49.35312" lon="0.05395">
        <ele>6</ele>
        <time>2020-06-24T12:02:48Z</time>
      </trkpt>
      <trkpt lat="49.35335" lon="0.05429">
        <ele>6</ele>
        <time>2020-06-24T12:03:12Z</time>
      </trkpt>
      <trkpt lat="49.35338" lon="0.05434">
        <ele>6</ele>
        <time>2020-06-24T12:03:16Z</time>
      </trkpt>
      <trkpt lat="49.35342" lon="0.05439">
        <ele>6</ele>
        <time>2020-06-24T12:03:20Z</time>
      </trkpt>
      <trkpt lat="49.35344" lon="0.05447">
        <ele>6</ele>
        <time>2020-06-24T12:03:30Z</time>
      </trkpt>
      <trkpt lat="49.3535" lon="0.05454">
        <ele>6</ele>
        <time>2020-06-24T12:03:58Z</time>
      </trkpt>
      <trkpt lat="49.3536" lon="0.05472">
        <ele>5</ele>
        <time>2020-06-24T12:04:10Z</time>
      </trkpt>
      <trkpt lat="49.35366" lon="0.05482">
        <ele>5</ele>
        <time>2020-06-24T12:04:17Z</time>
      </trkpt>
      <trkpt lat="49.3537" lon="0.05488">
        <ele>6</ele>
        <time>2020-06-24T12:04:27Z</time>
      </trkpt>
      <trkpt lat="49.35389" lon="0.05511">
        <ele>5</ele>
        <time>2020-06-24T12:04:53Z</time>
      </trkpt>
      <trkpt lat="49.35393" lon="0.05517">
        <ele>5</ele>
        <time>2020-06-24T12:04:57Z</time>
      </trkpt>
      <trkpt lat="49.35399" lon="0.05528">
        <ele>5</ele>
        <time>2020-06-24T12:05:05Z</time>
      </trkpt>
      <trkpt lat="49.35407" lon="0.05539">
        <ele>5</ele>
        <time>2020-06-24T12:05:14Z</time>
      </trkpt>
      <trkpt lat="49.3541" lon="0.05545">
        <ele>5</ele>
        <time>2020-06-24T12:05:18Z</time>
      </trkpt>
      <trkpt lat="49.35421" lon="0.05564">
        <ele>5</ele>
        <time>2020-06-24T12:05:30Z</time>
      </trkpt>
      <trkpt lat="49.35425" lon="0.05569">
        <ele>5</ele>
        <time>2020-06-24T12:05:34Z</time>
      </trkpt>
      <trkpt lat="49.35441" lon="0.05591">
        <ele>5</ele>
        <time>2020-06-24T12:05:50Z</time>
      </trkpt>
      <trkpt lat="49.35453" lon="0.05608">
        <ele>5</ele>
        <time>2020-06-24T12:06:01Z</time>
      </trkpt>
      <trkpt lat="49.35481" lon="0.05654">
        <ele>4</ele>
        <time>2020-06-24T12:06:33Z</time>
      </trkpt>
      <trkpt lat="49.35484" lon="0.05659">
        <ele>4</ele>
        <time>2020-06-24T12:06:37Z</time>
      </trkpt>
      <trkpt lat="49.35512" lon="0.05701">
        <ele>5</ele>
        <time>2020-06-24T12:07:08Z</time>
      </trkpt>
      <trkpt lat="49.35516" lon="0.05707">
        <ele>5</ele>
        <time>2020-06-24T12:07:12Z</time>
      </trkpt>
      <trkpt lat="49.3552" lon="0.05713">
        <ele>5</ele>
        <time>2020-06-24T12:07:16Z</time>
      </trkpt>
      <trkpt lat="49.35544" lon="0.05752">
        <ele>5</ele>
        <time>2020-06-24T12:07:44Z</time>
      </trkpt>
      <trkpt lat="49.3555" lon="0.05762">
        <ele>5</ele>
        <time>2020-06-24T12:07:54Z</time>
      </trkpt>
      <trkpt lat="49.35562" lon="0.05778">
        <ele>6</ele>
        <time>2020-06-24T12:08:06Z</time>
      </trkpt>
      <trkpt lat="49.35565" lon="0.05785">
        <ele>6</ele>
        <time>2020-06-24T12:08:10Z</time>
      </trkpt>
      <trkpt lat="49.35566" lon="0.05793">
        <ele>6</ele>
        <time>2020-06-24T12:08:14Z</time>
      </trkpt>
      <trkpt lat="49.3557" lon="0.05798">
        <ele>6</ele>
        <time>2020-06-24T12:08:18Z</time>
      </trkpt>
      <trkpt lat="49.35574" lon="0.05802">
        <ele>5</ele>
        <time>2020-06-24T12:08:22Z</time>
      </trkpt>
      <trkpt lat="49.35576" lon="0.05809">
        <ele>5</ele>
        <time>2020-06-24T12:08:26Z</time>
      </trkpt>
      <trkpt lat="49.3558" lon="0.05815">
        <ele>5</ele>
        <time>2020-06-24T12:08:30Z</time>
      </trkpt>
      <trkpt lat="49.35583" lon="0.0582">
        <ele>6</ele>
        <time>2020-06-24T12:08:34Z</time>
      </trkpt>
      <trkpt lat="49.35587" lon="0.05824">
        <ele>5</ele>
        <time>2020-06-24T12:08:38Z</time>
      </trkpt>
      <trkpt lat="49.35599" lon="0.0585">
        <ele>5</ele>
        <time>2020-06-24T12:08:54Z</time>
      </trkpt>
      <trkpt lat="49.35603" lon="0.05854">
        <ele>5</ele>
        <time>2020-06-24T12:08:58Z</time>
      </trkpt>
      <trkpt lat="49.35617" lon="0.05876">
        <ele>5</ele>
        <time>2020-06-24T12:09:14Z</time>
      </trkpt>
      <trkpt lat="49.35618" lon="0.05884">
        <ele>5</ele>
        <time>2020-06-24T12:09:59Z</time>
      </trkpt>
      <trkpt lat="49.35704" lon="0.06022">
        <ele>5</ele>
        <time>2020-06-24T12:21:38Z</time>
      </trkpt>
      <trkpt lat="49.35704" lon="0.06022">
        <ele>5</ele>
        <time>2020-06-24T12:21:38Z</time>
      </trkpt>
      <trkpt lat="49.35707" lon="0.0603">
        <ele>6</ele>
        <time>2020-06-24T12:21:52Z</time>
      </trkpt>
      <trkpt lat="49.35714" lon="0.06041">
        <ele>5</ele>
        <time>2020-06-24T12:21:59Z</time>
      </trkpt>
      <trkpt lat="49.35737" lon="0.06082">
        <ele>6</ele>
        <time>2020-06-24T12:22:26Z</time>
      </trkpt>
      <trkpt lat="49.35741" lon="0.06087">
        <ele>6</ele>
        <time>2020-06-24T12:22:30Z</time>
      </trkpt>
      <trkpt lat="49.35761" lon="0.06122">
        <ele>6</ele>
        <time>2020-06-24T12:22:54Z</time>
      </trkpt>
      <trkpt lat="49.35764" lon="0.06129">
        <ele>5</ele>
        <time>2020-06-24T12:22:58Z</time>
      </trkpt>
      <trkpt lat="49.3577" lon="0.06138">
        <ele>5</ele>
        <time>2020-06-24T12:23:04Z</time>
      </trkpt>
      <trkpt lat="49.35772" lon="0.06144">
        <ele>5</ele>
        <time>2020-06-24T12:23:08Z</time>
      </trkpt>
      <trkpt lat="49.35776" lon="0.06149">
        <ele>5</ele>
        <time>2020-06-24T12:23:12Z</time>
      </trkpt>
      <trkpt lat="49.3578" lon="0.06152">
        <ele>5</ele>
        <time>2020-06-24T12:23:16Z</time>
      </trkpt>
      <trkpt lat="49.35786" lon="0.06163">
        <ele>5</ele>
        <time>2020-06-24T12:23:24Z</time>
      </trkpt>
      <trkpt lat="49.35788" lon="0.06172">
        <ele>5</ele>
        <time>2020-06-24T12:23:35Z</time>
      </trkpt>
      <trkpt lat="49.35791" lon="0.0618">
        <ele>5</ele>
        <time>2020-06-24T12:23:48Z</time>
      </trkpt>
      <trkpt lat="49.35797" lon="0.06191">
        <ele>5</ele>
        <time>2020-06-24T12:23:55Z</time>
      </trkpt>
      <trkpt lat="49.358" lon="0.06197">
        <ele>5</ele>
        <time>2020-06-24T12:23:59Z</time>
      </trkpt>
      <trkpt lat="49.35824" lon="0.06239">
        <ele>5</ele>
        <time>2020-06-24T12:24:26Z</time>
      </trkpt>
      <trkpt lat="49.3584" lon="0.06254">
        <ele>4</ele>
        <time>2020-06-24T12:24:43Z</time>
      </trkpt>
      <trkpt lat="49.35845" lon="0.06259">
        <ele>4</ele>
        <time>2020-06-24T12:24:47Z</time>
      </trkpt>
      <trkpt lat="49.35848" lon="0.06265">
        <ele>4</ele>
        <time>2020-06-24T12:24:51Z</time>
      </trkpt>
      <trkpt lat="49.35851" lon="0.06272">
        <ele>4</ele>
        <time>2020-06-24T12:24:55Z</time>
      </trkpt>
      <trkpt lat="49.3587" lon="0.06298">
        <ele>4</ele>
        <time>2020-06-24T12:25:16Z</time>
      </trkpt>
      <trkpt lat="49.3588" lon="0.06315">
        <ele>2</ele>
        <time>2020-06-24T12:25:44Z</time>
      </trkpt>
      <trkpt lat="49.35889" lon="0.06333">
        <ele>3</ele>
        <time>2020-06-24T12:25:58Z</time>
      </trkpt>
      <trkpt lat="49.35889" lon="0.06343">
        <ele>4</ele>
        <time>2020-06-24T12:26:08Z</time>
      </trkpt>
      <trkpt lat="49.359" lon="0.06352">
        <ele>3</ele>
        <time>2020-06-24T12:26:28Z</time>
      </trkpt>
      <trkpt lat="49.35924" lon="0.06398">
        <ele>3</ele>
        <time>2020-06-24T12:27:02Z</time>
      </trkpt>
      <trkpt lat="49.35953" lon="0.06443">
        <ele>3</ele>
        <time>2020-06-24T12:27:34Z</time>
      </trkpt>
      <trkpt lat="49.35961" lon="0.06462">
        <ele>4</ele>
        <time>2020-06-24T12:27:46Z</time>
      </trkpt>
      <trkpt lat="49.35964" lon="0.06469">
        <ele>3</ele>
        <time>2020-06-24T12:27:50Z</time>
      </trkpt>
      <trkpt lat="49.35974" lon="0.06488">
        <ele>4</ele>
        <time>2020-06-24T12:28:02Z</time>
      </trkpt>
      <trkpt lat="49.35978" lon="0.06492">
        <ele>4</ele>
        <time>2020-06-24T12:28:06Z</time>
      </trkpt>
      <trkpt lat="49.35986" lon="0.06502">
        <ele>4</ele>
        <time>2020-06-24T12:28:15Z</time>
      </trkpt>
      <trkpt lat="49.35985" lon="0.06509">
        <ele>4</ele>
        <time>2020-06-24T12:28:35Z</time>
      </trkpt>
      <trkpt lat="49.35994" lon="0.06514">
        <ele>4</ele>
        <time>2020-06-24T12:28:43Z</time>
      </trkpt>
      <trkpt lat="49.36006" lon="0.06529">
        <ele>3</ele>
        <time>2020-06-24T12:28:54Z</time>
      </trkpt>
      <trkpt lat="49.36009" lon="0.06536">
        <ele>4</ele>
        <time>2020-06-24T12:28:59Z</time>
      </trkpt>
      <trkpt lat="49.36029" lon="0.06566">
        <ele>4</ele>
        <time>2020-06-24T12:29:23Z</time>
      </trkpt>
      <trkpt lat="49.36036" lon="0.0658">
        <ele>4</ele>
        <time>2020-06-24T12:29:32Z</time>
      </trkpt>
      <trkpt lat="49.3604" lon="0.06584">
        <ele>4</ele>
        <time>2020-06-24T12:29:36Z</time>
      </trkpt>
      <trkpt lat="49.36046" lon="0.06597">
        <ele>4</ele>
        <time>2020-06-24T12:29:44Z</time>
      </trkpt>
      <trkpt lat="49.3605" lon="0.06602">
        <ele>5</ele>
        <time>2020-06-24T12:29:49Z</time>
      </trkpt>
      <trkpt lat="49.36056" lon="0.06612">
        <ele>4</ele>
        <time>2020-06-24T12:30:13Z</time>
      </trkpt>
      <trkpt lat="49.36075" lon="0.06639">
        <ele>4</ele>
        <time>2020-06-24T12:30:33Z</time>
      </trkpt>
      <trkpt lat="49.36092" lon="0.06678">
        <ele>4</ele>
        <time>2020-06-24T12:30:59Z</time>
      </trkpt>
      <trkpt lat="49.36096" lon="0.06683">
        <ele>4</ele>
        <time>2020-06-24T12:31:03Z</time>
      </trkpt>
      <trkpt lat="49.36098" lon="0.06692">
        <ele>4</ele>
        <time>2020-06-24T12:31:09Z</time>
      </trkpt>
      <trkpt lat="49.361" lon="0.06699">
        <ele>4</ele>
        <time>2020-06-24T12:31:13Z</time>
      </trkpt>
      <trkpt lat="49.36106" lon="0.06696">
        <ele>4</ele>
        <time>2020-06-24T12:31:20Z</time>
      </trkpt>
      <trkpt lat="49.36111" lon="0.06696">
        <ele>4</ele>
        <time>2020-06-24T12:31:54Z</time>
      </trkpt>
      <trkpt lat="49.3611" lon="0.06708">
        <ele>3</ele>
        <time>2020-06-24T12:32:08Z</time>
      </trkpt>
      <trkpt lat="49.36113" lon="0.06714">
        <ele>3</ele>
        <time>2020-06-24T12:32:10Z</time>
      </trkpt>
      <trkpt lat="49.36118" lon="0.06721">
        <ele>3</ele>
        <time>2020-06-24T12:32:16Z</time>
      </trkpt>
      <trkpt lat="49.36145" lon="0.06773">
        <ele>4</ele>
        <time>2020-06-24T12:32:50Z</time>
      </trkpt>
      <trkpt lat="49.36148" lon="0.06778">
        <ele>4</ele>
        <time>2020-06-24T12:32:54Z</time>
      </trkpt>
      <trkpt lat="49.36152" lon="0.06784">
        <ele>3</ele>
        <time>2020-06-24T12:33:14Z</time>
      </trkpt>
      <trkpt lat="49.36156" lon="0.06787">
        <ele>3</ele>
        <time>2020-06-24T12:33:18Z</time>
      </trkpt>
      <trkpt lat="49.36159" lon="0.06794">
        <ele>4</ele>
        <time>2020-06-24T12:33:22Z</time>
      </trkpt>
      <trkpt lat="49.36187" lon="0.06842">
        <ele>4</ele>
        <time>2020-06-24T12:33:54Z</time>
      </trkpt>
      <trkpt lat="49.36214" lon="0.06891">
        <ele>4</ele>
        <time>2020-06-24T12:34:27Z</time>
      </trkpt>
      <trkpt lat="49.36224" lon="0.06908">
        <ele>5</ele>
        <time>2020-06-24T12:34:39Z</time>
      </trkpt>
      <trkpt lat="49.36231" lon="0.06921">
        <ele>4</ele>
        <time>2020-06-24T12:34:47Z</time>
      </trkpt>
      <trkpt lat="49.36239" lon="0.06936">
        <ele>5</ele>
        <time>2020-06-24T12:34:59Z</time>
      </trkpt>
      <trkpt lat="49.36244" lon="0.0694">
        <ele>5</ele>
        <time>2020-06-24T12:35:03Z</time>
      </trkpt>
      <trkpt lat="49.36247" lon="0.06947">
        <ele>5</ele>
        <time>2020-06-24T12:35:07Z</time>
      </trkpt>
      <trkpt lat="49.36254" lon="0.06968">
        <ele>5</ele>
        <time>2020-06-24T12:35:19Z</time>
      </trkpt>
      <trkpt lat="49.36262" lon="0.06979">
        <ele>5</ele>
        <time>2020-06-24T12:35:27Z</time>
      </trkpt>
      <trkpt lat="49.36266" lon="0.06985">
        <ele>5</ele>
        <time>2020-06-24T12:35:31Z</time>
      </trkpt>
      <trkpt lat="49.36269" lon="0.0699">
        <ele>5</ele>
        <time>2020-06-24T12:35:35Z</time>
      </trkpt>
      <trkpt lat="49.36274" lon="0.07004">
        <ele>5</ele>
        <time>2020-06-24T12:35:43Z</time>
      </trkpt>
      <trkpt lat="49.36287" lon="0.0703">
        <ele>5</ele>
        <time>2020-06-24T12:35:59Z</time>
      </trkpt>
      <trkpt lat="49.36295" lon="0.0704">
        <ele>6</ele>
        <time>2020-06-24T12:36:07Z</time>
      </trkpt>
      <trkpt lat="49.36295" lon="0.07048">
        <ele>6</ele>
        <time>2020-06-24T12:36:11Z</time>
      </trkpt>
      <trkpt lat="49.36292" lon="0.07054">
        <ele>6</ele>
        <time>2020-06-24T12:36:14Z</time>
      </trkpt>
      <trkpt lat="49.36291" lon="0.07063">
        <ele>5</ele>
        <time>2020-06-24T12:36:18Z</time>
      </trkpt>
      <trkpt lat="49.36293" lon="0.07071">
        <ele>5</ele>
        <time>2020-06-24T12:36:22Z</time>
      </trkpt>
      <trkpt lat="49.36292" lon="0.07079">
        <ele>5</ele>
        <time>2020-06-24T12:36:26Z</time>
      </trkpt>
      <trkpt lat="49.3629" lon="0.07104">
        <ele>5</ele>
        <time>2020-06-24T12:36:47Z</time>
      </trkpt>
      <trkpt lat="49.36282" lon="0.07124">
        <ele>5</ele>
        <time>2020-06-24T12:36:57Z</time>
      </trkpt>
      <trkpt lat="49.36279" lon="0.07129">
        <ele>5</ele>
        <time>2020-06-24T12:37:01Z</time>
      </trkpt>
      <trkpt lat="49.36252" lon="0.07175">
        <ele>4</ele>
        <time>2020-06-24T12:37:32Z</time>
      </trkpt>
      <trkpt lat="49.3624" lon="0.07191">
        <ele>4</ele>
        <time>2020-06-24T12:37:44Z</time>
      </trkpt>
      <trkpt lat="49.3622" lon="0.07219">
        <ele>5</ele>
        <time>2020-06-24T12:38:04Z</time>
      </trkpt>
      <trkpt lat="49.36216" lon="0.07225">
        <ele>5</ele>
        <time>2020-06-24T12:38:08Z</time>
      </trkpt>
      <trkpt lat="49.36193" lon="0.07257">
        <ele>5</ele>
        <time>2020-06-24T12:38:38Z</time>
      </trkpt>
      <trkpt lat="49.36189" lon="0.07259">
        <ele>5</ele>
        <time>2020-06-24T12:38:43Z</time>
      </trkpt>
      <trkpt lat="49.36186" lon="0.07267">
        <ele>6</ele>
        <time>2020-06-24T12:38:48Z</time>
      </trkpt>
      <trkpt lat="49.36187" lon="0.07276">
        <ele>6</ele>
        <time>2020-06-24T12:38:55Z</time>
      </trkpt>
      <trkpt lat="49.36192" lon="0.07281">
        <ele>6</ele>
        <time>2020-06-24T12:39:00Z</time>
      </trkpt>
      <trkpt lat="49.36203" lon="0.07298">
        <ele>6</ele>
        <time>2020-06-24T12:39:12Z</time>
      </trkpt>
      <trkpt lat="49.36206" lon="0.07304">
        <ele>6</ele>
        <time>2020-06-24T12:39:16Z</time>
      </trkpt>
      <trkpt lat="49.36211" lon="0.07307">
        <ele>6</ele>
        <time>2020-06-24T12:39:20Z</time>
      </trkpt>
      <trkpt lat="49.36216" lon="0.0732">
        <ele>6</ele>
        <time>2020-06-24T12:39:28Z</time>
      </trkpt>
      <trkpt lat="49.36246" lon="0.07367">
        <ele>6</ele>
        <time>2020-06-24T12:40:00Z</time>
      </trkpt>
      <trkpt lat="49.36253" lon="0.07379">
        <ele>6</ele>
        <time>2020-06-24T12:40:08Z</time>
      </trkpt>
      <trkpt lat="49.36273" lon="0.07414">
        <ele>5</ele>
        <time>2020-06-24T12:40:32Z</time>
      </trkpt>
      <trkpt lat="49.3628" lon="0.07427">
        <ele>6</ele>
        <time>2020-06-24T12:40:40Z</time>
      </trkpt>
      <trkpt lat="49.36284" lon="0.07433">
        <ele>6</ele>
        <time>2020-06-24T12:40:44Z</time>
      </trkpt>
      <trkpt lat="49.36291" lon="0.07455">
        <ele>5</ele>
        <time>2020-06-24T12:40:56Z</time>
      </trkpt>
      <trkpt lat="49.36292" lon="0.07463">
        <ele>6</ele>
        <time>2020-06-24T12:41:00Z</time>
      </trkpt>
      <trkpt lat="49.3629" lon="0.07471">
        <ele>5</ele>
        <time>2020-06-24T12:41:04Z</time>
      </trkpt>
      <trkpt lat="49.36286" lon="0.07476">
        <ele>5</ele>
        <time>2020-06-24T12:41:08Z</time>
      </trkpt>
      <trkpt lat="49.36251" lon="0.07504">
        <ele>5</ele>
        <time>2020-06-24T12:41:40Z</time>
      </trkpt>
      <trkpt lat="49.36242" lon="0.07509">
        <ele>5</ele>
        <time>2020-06-24T12:41:48Z</time>
      </trkpt>
      <trkpt lat="49.36238" lon="0.07512">
        <ele>6</ele>
        <time>2020-06-24T12:41:52Z</time>
      </trkpt>
      <trkpt lat="49.36234" lon="0.07518">
        <ele>6</ele>
        <time>2020-06-24T12:41:56Z</time>
      </trkpt>
      <trkpt lat="49.36229" lon="0.07522">
        <ele>6</ele>
        <time>2020-06-24T12:42:00Z</time>
      </trkpt>
      <trkpt lat="49.36226" lon="0.07528">
        <ele>6</ele>
        <time>2020-06-24T12:42:04Z</time>
      </trkpt>
      <trkpt lat="49.36221" lon="0.07532">
        <ele>5</ele>
        <time>2020-06-24T12:42:08Z</time>
      </trkpt>
      <trkpt lat="49.36212" lon="0.07542">
        <ele>5</ele>
        <time>2020-06-24T12:42:16Z</time>
      </trkpt>
      <trkpt lat="49.36183" lon="0.07562">
        <ele>6</ele>
        <time>2020-06-24T12:42:39Z</time>
      </trkpt>
      <trkpt lat="49.36177" lon="0.07563">
        <ele>5</ele>
        <time>2020-06-24T12:42:44Z</time>
      </trkpt>
      <trkpt lat="49.36167" lon="0.07557">
        <ele>5</ele>
        <time>2020-06-24T12:42:51Z</time>
      </trkpt>
      <trkpt lat="49.36162" lon="0.0756">
        <ele>5</ele>
        <time>2020-06-24T12:42:55Z</time>
      </trkpt>
      <trkpt lat="49.36156" lon="0.0757">
        <ele>5</ele>
        <time>2020-06-24T12:43:01Z</time>
      </trkpt>
      <trkpt lat="49.36148" lon="0.0758">
        <ele>5</ele>
        <time>2020-06-24T12:43:08Z</time>
      </trkpt>
      <trkpt lat="49.36145" lon="0.07584">
        <ele>5</ele>
        <time>2020-06-24T12:43:12Z</time>
      </trkpt>
      <trkpt lat="49.3614" lon="0.07588">
        <ele>5</ele>
        <time>2020-06-24T12:43:16Z</time>
      </trkpt>
      <trkpt lat="49.36137" lon="0.07595">
        <ele>5</ele>
        <time>2020-06-24T12:43:20Z</time>
      </trkpt>
      <trkpt lat="49.36132" lon="0.076">
        <ele>5</ele>
        <time>2020-06-24T12:43:25Z</time>
      </trkpt>
      <trkpt lat="49.36128" lon="0.07604">
        <ele>5</ele>
        <time>2020-06-24T12:43:29Z</time>
      </trkpt>
      <trkpt lat="49.36108" lon="0.07611">
        <ele>5</ele>
        <time>2020-06-24T12:43:43Z</time>
      </trkpt>
      <trkpt lat="49.36093" lon="0.07611">
        <ele>5</ele>
        <time>2020-06-24T12:43:53Z</time>
      </trkpt>
      <trkpt lat="49.36087" lon="0.07615">
        <ele>5</ele>
        <time>2020-06-24T12:43:57Z</time>
      </trkpt>
      <trkpt lat="49.36077" lon="0.07635">
        <ele>4</ele>
        <time>2020-06-24T12:44:08Z</time>
      </trkpt>
      <trkpt lat="49.36073" lon="0.07639">
        <ele>5</ele>
        <time>2020-06-24T12:44:12Z</time>
      </trkpt>
      <trkpt lat="49.36064" lon="0.07643">
        <ele>5</ele>
        <time>2020-06-24T12:44:20Z</time>
      </trkpt>
      <trkpt lat="49.36054" lon="0.07639">
        <ele>5</ele>
        <time>2020-06-24T12:44:26Z</time>
      </trkpt>
      <trkpt lat="49.36051" lon="0.07645">
        <ele>5</ele>
        <time>2020-06-24T12:44:30Z</time>
      </trkpt>
      <trkpt lat="49.36048" lon="0.07652">
        <ele>5</ele>
        <time>2020-06-24T12:44:34Z</time>
      </trkpt>
      <trkpt lat="49.36044" lon="0.07658">
        <ele>5</ele>
        <time>2020-06-24T12:44:38Z</time>
      </trkpt>
      <trkpt lat="49.36035" lon="0.07658">
        <ele>5</ele>
        <time>2020-06-24T12:44:46Z</time>
      </trkpt>
      <trkpt lat="49.3603" lon="0.07663">
        <ele>5</ele>
        <time>2020-06-24T12:44:50Z</time>
      </trkpt>
      <trkpt lat="49.36024" lon="0.07665">
        <ele>5</ele>
        <time>2020-06-24T12:44:54Z</time>
      </trkpt>
      <trkpt lat="49.36003" lon="0.07687">
        <ele>5</ele>
        <time>2020-06-24T12:45:14Z</time>
      </trkpt>
      <trkpt lat="49.36" lon="0.07702">
        <ele>5</ele>
        <time>2020-06-24T12:45:20Z</time>
      </trkpt>
      <trkpt lat="49.35996" lon="0.07708">
        <ele>5</ele>
        <time>2020-06-24T12:45:24Z</time>
      </trkpt>
      <trkpt lat="49.35994" lon="0.07714">
        <ele>5</ele>
        <time>2020-06-24T12:45:27Z</time>
      </trkpt>
      <trkpt lat="49.35995" lon="0.07721">
        <ele>5</ele>
        <time>2020-06-24T12:45:31Z</time>
      </trkpt>
      <trkpt lat="49.36003" lon="0.07741">
        <ele>4</ele>
        <time>2020-06-24T12:45:42Z</time>
      </trkpt>
      <trkpt lat="49.36003" lon="0.0775">
        <ele>4</ele>
        <time>2020-06-24T12:45:46Z</time>
      </trkpt>
      <trkpt lat="49.36004" lon="0.07757">
        <ele>4</ele>
        <time>2020-06-24T12:45:50Z</time>
      </trkpt>
      <trkpt lat="49.36001" lon="0.07764">
        <ele>4</ele>
        <time>2020-06-24T12:45:54Z</time>
      </trkpt>
      <trkpt lat="49.35996" lon="0.0777">
        <ele>4</ele>
        <time>2020-06-24T12:45:58Z</time>
      </trkpt>
      <trkpt lat="49.35994" lon="0.07775">
        <ele>4</ele>
        <time>2020-06-24T12:46:01Z</time>
      </trkpt>
      <trkpt lat="49.35993" lon="0.07783">
        <ele>5</ele>
        <time>2020-06-24T12:46:05Z</time>
      </trkpt>
      <trkpt lat="49.35987" lon="0.07786">
        <ele>4</ele>
        <time>2020-06-24T12:46:11Z</time>
      </trkpt>
      <trkpt lat="49.35974" lon="0.07806">
        <ele>4</ele>
        <time>2020-06-24T12:46:25Z</time>
      </trkpt>
      <trkpt lat="49.35973" lon="0.07814">
        <ele>5</ele>
        <time>2020-06-24T12:46:29Z</time>
      </trkpt>
      <trkpt lat="49.35973" lon="0.07822">
        <ele>5</ele>
        <time>2020-06-24T12:46:34Z</time>
      </trkpt>
      <trkpt lat="49.35976" lon="0.07845">
        <ele>5</ele>
        <time>2020-06-24T12:46:47Z</time>
      </trkpt>
      <trkpt lat="49.35981" lon="0.07857">
        <ele>5</ele>
        <time>2020-06-24T12:47:11Z</time>
      </trkpt>
      <trkpt lat="49.35983" lon="0.07863">
        <ele>5</ele>
        <time>2020-06-24T12:47:14Z</time>
      </trkpt>
      <trkpt lat="49.35985" lon="0.0787">
        <ele>5</ele>
        <time>2020-06-24T12:47:18Z</time>
      </trkpt>
      <trkpt lat="49.35984" lon="0.07895">
        <ele>5</ele>
        <time>2020-06-24T12:47:30Z</time>
      </trkpt>
      <trkpt lat="49.35979" lon="0.07926">
        <ele>5</ele>
        <time>2020-06-24T12:47:46Z</time>
      </trkpt>
      <trkpt lat="49.35981" lon="0.07933">
        <ele>5</ele>
        <time>2020-06-24T12:47:50Z</time>
      </trkpt>
      <trkpt lat="49.3598" lon="0.07941">
        <ele>5</ele>
        <time>2020-06-24T12:47:54Z</time>
      </trkpt>
      <trkpt lat="49.35976" lon="0.07946">
        <ele>5</ele>
        <time>2020-06-24T12:47:58Z</time>
      </trkpt>
      <trkpt lat="49.35971" lon="0.0795">
        <ele>5</ele>
        <time>2020-06-24T12:48:02Z</time>
      </trkpt>
      <trkpt lat="49.35966" lon="0.07957">
        <ele>5</ele>
        <time>2020-06-24T12:48:06Z</time>
      </trkpt>
      <trkpt lat="49.35962" lon="0.07963">
        <ele>5</ele>
        <time>2020-06-24T12:48:11Z</time>
      </trkpt>
      <trkpt lat="49.35957" lon="0.07967">
        <ele>5</ele>
        <time>2020-06-24T12:48:15Z</time>
      </trkpt>
      <trkpt lat="49.35953" lon="0.07973">
        <ele>5</ele>
        <time>2020-06-24T12:48:19Z</time>
      </trkpt>
      <trkpt lat="49.3595" lon="0.07978">
        <ele>4</ele>
        <time>2020-06-24T12:48:23Z</time>
      </trkpt>
      <trkpt lat="49.35942" lon="0.07987">
        <ele>4</ele>
        <time>2020-06-24T12:48:31Z</time>
      </trkpt>
      <trkpt lat="49.35944" lon="0.07996">
        <ele>4</ele>
        <time>2020-06-24T12:48:37Z</time>
      </trkpt>
      <trkpt lat="49.35951" lon="0.08008">
        <ele>4</ele>
        <time>2020-06-24T12:48:46Z</time>
      </trkpt>
      <trkpt lat="49.35954" lon="0.08015">
        <ele>4</ele>
        <time>2020-06-24T12:48:50Z</time>
      </trkpt>
      <trkpt lat="49.35961" lon="0.08025">
        <ele>4</ele>
        <time>2020-06-24T12:48:56Z</time>
      </trkpt>
      <trkpt lat="49.35968" lon="0.08038">
        <ele>4</ele>
        <time>2020-06-24T12:49:04Z</time>
      </trkpt>
      <trkpt lat="49.35971" lon="0.08046">
        <ele>4</ele>
        <time>2020-06-24T12:49:08Z</time>
      </trkpt>
      <trkpt lat="49.35977" lon="0.08068">
        <ele>4</ele>
        <time>2020-06-24T12:49:20Z</time>
      </trkpt>
      <trkpt lat="49.35981" lon="0.08081">
        <ele>4</ele>
        <time>2020-06-24T12:49:28Z</time>
      </trkpt>
      <trkpt lat="49.3598" lon="0.08088">
        <ele>4</ele>
        <time>2020-06-24T12:49:31Z</time>
      </trkpt>
      <trkpt lat="49.35978" lon="0.08095">
        <ele>4</ele>
        <time>2020-06-24T12:49:34Z</time>
      </trkpt>
      <trkpt lat="49.35976" lon="0.08111">
        <ele>4</ele>
        <time>2020-06-24T12:49:41Z</time>
      </trkpt>
      <trkpt lat="49.35976" lon="0.08127">
        <ele>4</ele>
        <time>2020-06-24T12:49:49Z</time>
      </trkpt>
      <trkpt lat="49.35976" lon="0.08151">
        <ele>4</ele>
        <time>2020-06-24T12:50:00Z</time>
      </trkpt>
      <trkpt lat="49.35978" lon="0.08159">
        <ele>4</ele>
        <time>2020-06-24T12:50:04Z</time>
      </trkpt>
      <trkpt lat="49.35979" lon="0.08166">
        <ele>4</ele>
        <time>2020-06-24T12:50:08Z</time>
      </trkpt>
      <trkpt lat="49.35987" lon="0.08229">
        <ele>4</ele>
        <time>2020-06-24T12:50:39Z</time>
      </trkpt>
      <trkpt lat="49.35988" lon="0.08245">
        <ele>5</ele>
        <time>2020-06-24T12:50:47Z</time>
      </trkpt>
      <trkpt lat="49.35989" lon="0.08261">
        <ele>5</ele>
        <time>2020-06-24T12:50:55Z</time>
      </trkpt>
      <trkpt lat="49.35986" lon="0.08283">
        <ele>5</ele>
        <time>2020-06-24T12:51:08Z</time>
      </trkpt>
      <trkpt lat="49.35989" lon="0.08317">
        <ele>5</ele>
        <time>2020-06-24T12:51:26Z</time>
      </trkpt>
      <trkpt lat="49.35989" lon="0.08324">
        <ele>5</ele>
        <time>2020-06-24T12:51:30Z</time>
      </trkpt>
      <trkpt lat="49.35991" lon="0.08331">
        <ele>5</ele>
        <time>2020-06-24T12:51:35Z</time>
      </trkpt>
      <trkpt lat="49.35991" lon="0.08346">
        <ele>5</ele>
        <time>2020-06-24T12:51:43Z</time>
      </trkpt>
      <trkpt lat="49.35986" lon="0.08359">
        <ele>5</ele>
        <time>2020-06-24T12:51:51Z</time>
      </trkpt>
      <trkpt lat="49.35986" lon="0.08366">
        <ele>5</ele>
        <time>2020-06-24T12:51:56Z</time>
      </trkpt>
      <trkpt lat="49.35987" lon="0.08364">
        <ele>5</ele>
        <time>2020-06-24T12:54:06Z</time>
      </trkpt>
      <trkpt lat="49.3599" lon="0.08372">
        <ele>5</ele>
        <time>2020-06-24T12:54:14Z</time>
      </trkpt>
      <trkpt lat="49.35994" lon="0.08378">
        <ele>5</ele>
        <time>2020-06-24T12:54:18Z</time>
      </trkpt>
      <trkpt lat="49.36002" lon="0.08389">
        <ele>5</ele>
        <time>2020-06-24T12:54:25Z</time>
      </trkpt>
      <trkpt lat="49.36003" lon="0.08396">
        <ele>5</ele>
        <time>2020-06-24T12:54:29Z</time>
      </trkpt>
      <trkpt lat="49.36008" lon="0.08419">
        <ele>6</ele>
        <time>2020-06-24T12:54:40Z</time>
      </trkpt>
      <trkpt lat="49.36018" lon="0.08435">
        <ele>6</ele>
        <time>2020-06-24T12:54:50Z</time>
      </trkpt>
      <trkpt lat="49.36021" lon="0.08442">
        <ele>5</ele>
        <time>2020-06-24T12:54:54Z</time>
      </trkpt>
      <trkpt lat="49.36025" lon="0.08456">
        <ele>5</ele>
        <time>2020-06-24T12:55:02Z</time>
      </trkpt>
      <trkpt lat="49.36033" lon="0.08462">
        <ele>5</ele>
        <time>2020-06-24T12:55:11Z</time>
      </trkpt>
      <trkpt lat="49.36038" lon="0.08465">
        <ele>5</ele>
        <time>2020-06-24T12:55:14Z</time>
      </trkpt>
      <trkpt lat="49.36051" lon="0.08476">
        <ele>5</ele>
        <time>2020-06-24T12:55:24Z</time>
      </trkpt>
      <trkpt lat="49.36055" lon="0.08477">
        <ele>5</ele>
        <time>2020-06-24T12:55:27Z</time>
      </trkpt>
      <trkpt lat="49.36066" lon="0.08473">
        <ele>5</ele>
        <time>2020-06-24T12:55:35Z</time>
      </trkpt>
      <trkpt lat="49.36071" lon="0.08471">
        <ele>4</ele>
        <time>2020-06-24T12:55:40Z</time>
      </trkpt>
      <trkpt lat="49.36076" lon="0.08472">
        <ele>5</ele>
        <time>2020-06-24T12:55:44Z</time>
      </trkpt>
      <trkpt lat="49.36086" lon="0.08478">
        <ele>5</ele>
        <time>2020-06-24T12:55:51Z</time>
      </trkpt>
      <trkpt lat="49.36095" lon="0.08487">
        <ele>6</ele>
        <time>2020-06-24T12:55:58Z</time>
      </trkpt>
      <trkpt lat="49.36099" lon="0.08489">
        <ele>6</ele>
        <time>2020-06-24T12:56:02Z</time>
      </trkpt>
      <trkpt lat="49.36114" lon="0.08481">
        <ele>6</ele>
        <time>2020-06-24T12:56:17Z</time>
      </trkpt>
      <trkpt lat="49.36119" lon="0.08486">
        <ele>6</ele>
        <time>2020-06-24T12:56:21Z</time>
      </trkpt>
      <trkpt lat="49.3612" lon="0.08493">
        <ele>7</ele>
        <time>2020-06-24T12:56:24Z</time>
      </trkpt>
      <trkpt lat="49.36141" lon="0.0856">
        <ele>6</ele>
        <time>2020-06-24T12:56:58Z</time>
      </trkpt>
      <trkpt lat="49.36145" lon="0.08565">
        <ele>6</ele>
        <time>2020-06-24T12:57:02Z</time>
      </trkpt>
      <trkpt lat="49.3615" lon="0.08568">
        <ele>6</ele>
        <time>2020-06-24T12:57:06Z</time>
      </trkpt>
      <trkpt lat="49.36155" lon="0.08569">
        <ele>6</ele>
        <time>2020-06-24T12:57:09Z</time>
      </trkpt>
      <trkpt lat="49.3616" lon="0.08567">
        <ele>5</ele>
        <time>2020-06-24T12:57:13Z</time>
      </trkpt>
      <trkpt lat="49.36164" lon="0.08563">
        <ele>5</ele>
        <time>2020-06-24T12:57:17Z</time>
      </trkpt>
      <trkpt lat="49.36193" lon="0.08545">
        <ele>4</ele>
        <time>2020-06-24T12:57:41Z</time>
      </trkpt>
      <trkpt lat="49.36208" lon="0.08539">
        <ele>5</ele>
        <time>2020-06-24T12:57:53Z</time>
      </trkpt>
      <trkpt lat="49.36227" lon="0.08522">
        <ele>5</ele>
        <time>2020-06-24T12:58:09Z</time>
      </trkpt>
      <trkpt lat="49.36237" lon="0.0852">
        <ele>5</ele>
        <time>2020-06-24T12:58:17Z</time>
      </trkpt>
      <trkpt lat="49.36252" lon="0.08524">
        <ele>5</ele>
        <time>2020-06-24T12:58:29Z</time>
      </trkpt>
      <trkpt lat="49.36262" lon="0.08517">
        <ele>5</ele>
        <time>2020-06-24T12:58:37Z</time>
      </trkpt>
      <trkpt lat="49.3627" lon="0.08523">
        <ele>5</ele>
        <time>2020-06-24T12:59:11Z</time>
      </trkpt>
      <trkpt lat="49.36278" lon="0.08531">
        <ele>5</ele>
        <time>2020-06-24T12:59:17Z</time>
      </trkpt>
      <trkpt lat="49.36283" lon="0.08529">
        <ele>5</ele>
        <time>2020-06-24T12:59:22Z</time>
      </trkpt>
      <trkpt lat="49.36285" lon="0.08523">
        <ele>5</ele>
        <time>2020-06-24T12:59:26Z</time>
      </trkpt>
      <trkpt lat="49.36316" lon="0.08471">
        <ele>5</ele>
        <time>2020-06-24T12:59:58Z</time>
      </trkpt>
      <trkpt lat="49.36344" lon="0.08425">
        <ele>6</ele>
        <time>2020-06-24T13:00:30Z</time>
      </trkpt>
      <trkpt lat="49.36363" lon="0.08399">
        <ele>6</ele>
        <time>2020-06-24T13:00:49Z</time>
      </trkpt>
      <trkpt lat="49.36367" lon="0.08394">
        <ele>6</ele>
        <time>2020-06-24T13:00:53Z</time>
      </trkpt>
      <trkpt lat="49.3637" lon="0.08388">
        <ele>6</ele>
        <time>2020-06-24T13:00:57Z</time>
      </trkpt>
      <trkpt lat="49.3638" lon="0.08379">
        <ele>6</ele>
        <time>2020-06-24T13:01:05Z</time>
      </trkpt>
      <trkpt lat="49.36398" lon="0.08351">
        <ele>6</ele>
        <time>2020-06-24T13:01:24Z</time>
      </trkpt>
      <trkpt lat="49.3641" lon="0.08326">
        <ele>6</ele>
        <time>2020-06-24T13:01:39Z</time>
      </trkpt>
      <trkpt lat="49.36414" lon="0.08321">
        <ele>6</ele>
        <time>2020-06-24T13:01:43Z</time>
      </trkpt>
      <trkpt lat="49.36422" lon="0.08309">
        <ele>6</ele>
        <time>2020-06-24T13:01:51Z</time>
      </trkpt>
      <trkpt lat="49.36428" lon="0.08296">
        <ele>6</ele>
        <time>2020-06-24T13:01:59Z</time>
      </trkpt>
      <trkpt lat="49.36435" lon="0.08287">
        <ele>6</ele>
        <time>2020-06-24T13:02:15Z</time>
      </trkpt>
      <trkpt lat="49.3644" lon="0.08284">
        <ele>7</ele>
        <time>2020-06-24T13:02:22Z</time>
      </trkpt>
      <trkpt lat="49.36449" lon="0.08278">
        <ele>7</ele>
        <time>2020-06-24T13:02:30Z</time>
      </trkpt>
      <trkpt lat="49.36472" lon="0.08255">
        <ele>7</ele>
        <time>2020-06-24T13:02:51Z</time>
      </trkpt>
      <trkpt lat="49.36479" lon="0.08251">
        <ele>6</ele>
        <time>2020-06-24T13:03:00Z</time>
      </trkpt>
      <trkpt lat="49.36491" lon="0.08237">
        <ele>7</ele>
        <time>2020-06-24T13:03:12Z</time>
      </trkpt>
      <trkpt lat="49.36496" lon="0.08234">
        <ele>7</ele>
        <time>2020-06-24T13:03:21Z</time>
      </trkpt>
      <trkpt lat="49.36501" lon="0.08233">
        <ele>6</ele>
        <time>2020-06-24T13:03:49Z</time>
      </trkpt>
      <trkpt lat="49.36508" lon="0.08225">
        <ele>6</ele>
        <time>2020-06-24T13:03:59Z</time>
      </trkpt>
      <trkpt lat="49.3651" lon="0.08219">
        <ele>6</ele>
        <time>2020-06-24T13:04:03Z</time>
      </trkpt>
      <trkpt lat="49.36515" lon="0.08215">
        <ele>6</ele>
        <time>2020-06-24T13:04:21Z</time>
      </trkpt>
      <trkpt lat="49.36529" lon="0.08221">
        <ele>6</ele>
        <time>2020-06-24T13:04:34Z</time>
      </trkpt>
      <trkpt lat="49.36534" lon="0.08217">
        <ele>6</ele>
        <time>2020-06-24T13:04:38Z</time>
      </trkpt>
      <trkpt lat="49.36538" lon="0.08217">
        <ele>6</ele>
        <time>2020-06-24T13:04:41Z</time>
      </trkpt>
      <trkpt lat="49.36548" lon="0.08224">
        <ele>6</ele>
        <time>2020-06-24T13:04:54Z</time>
      </trkpt>
      <trkpt lat="49.36552" lon="0.0822">
        <ele>6</ele>
        <time>2020-06-24T13:04:58Z</time>
      </trkpt>
      <trkpt lat="49.36552" lon="0.08212">
        <ele>7</ele>
        <time>2020-06-24T13:05:51Z</time>
      </trkpt>
      <trkpt lat="49.36559" lon="0.08213">
        <ele>7</ele>
        <time>2020-06-24T13:05:59Z</time>
      </trkpt>
      <trkpt lat="49.36568" lon="0.08218">
        <ele>7</ele>
        <time>2020-06-24T13:06:06Z</time>
      </trkpt>
      <trkpt lat="49.36577" lon="0.08218">
        <ele>6</ele>
        <time>2020-06-24T13:06:12Z</time>
      </trkpt>
      <trkpt lat="49.36592" lon="0.08214">
        <ele>7</ele>
        <time>2020-06-24T13:06:23Z</time>
      </trkpt>
      <trkpt lat="49.36614" lon="0.08213">
        <ele>7</ele>
        <time>2020-06-24T13:06:39Z</time>
      </trkpt>
      <trkpt lat="49.36634" lon="0.08206">
        <ele>7</ele>
        <time>2020-06-24T13:06:52Z</time>
      </trkpt>
      <trkpt lat="49.36639" lon="0.08206">
        <ele>6</ele>
        <time>2020-06-24T13:06:56Z</time>
      </trkpt>
      <trkpt lat="49.36643" lon="0.08209">
        <ele>6</ele>
        <time>2020-06-24T13:06:59Z</time>
      </trkpt>
      <trkpt lat="49.36649" lon="0.08209">
        <ele>6</ele>
        <time>2020-06-24T13:07:03Z</time>
      </trkpt>
      <trkpt lat="49.36657" lon="0.08201">
        <ele>6</ele>
        <time>2020-06-24T13:07:11Z</time>
      </trkpt>
      <trkpt lat="49.3666" lon="0.08195">
        <ele>6</ele>
        <time>2020-06-24T13:07:15Z</time>
      </trkpt>
      <trkpt lat="49.36688" lon="0.08188">
        <ele>6</ele>
        <time>2020-06-24T13:07:39Z</time>
      </trkpt>
      <trkpt lat="49.36693" lon="0.08174">
        <ele>6</ele>
        <time>2020-06-24T13:07:45Z</time>
      </trkpt>
      <trkpt lat="49.36695" lon="0.08165">
        <ele>6</ele>
        <time>2020-06-24T13:07:49Z</time>
      </trkpt>
      <trkpt lat="49.36697" lon="0.08157">
        <ele>6</ele>
        <time>2020-06-24T13:07:53Z</time>
      </trkpt>
      <trkpt lat="49.36701" lon="0.08152">
        <ele>6</ele>
        <time>2020-06-24T13:07:56Z</time>
      </trkpt>
      <trkpt lat="49.36706" lon="0.08148">
        <ele>5</ele>
        <time>2020-06-24T13:08:01Z</time>
      </trkpt>
      <trkpt lat="49.36715" lon="0.08142">
        <ele>5</ele>
        <time>2020-06-24T13:08:10Z</time>
      </trkpt>
      <trkpt lat="49.36719" lon="0.08138">
        <ele>5</ele>
        <time>2020-06-24T13:08:14Z</time>
      </trkpt>
      <trkpt lat="49.36724" lon="0.08136">
        <ele>6</ele>
        <time>2020-06-24T13:08:19Z</time>
      </trkpt>
      <trkpt lat="49.36726" lon="0.08128">
        <ele>6</ele>
        <time>2020-06-24T13:08:24Z</time>
      </trkpt>
      <trkpt lat="49.3673" lon="0.08124">
        <ele>6</ele>
        <time>2020-06-24T13:08:28Z</time>
      </trkpt>
      <trkpt lat="49.36733" lon="0.08118">
        <ele>6</ele>
        <time>2020-06-24T13:08:32Z</time>
      </trkpt>
      <trkpt lat="49.36737" lon="0.08116">
        <ele>6</ele>
        <time>2020-06-24T13:08:36Z</time>
      </trkpt>
      <trkpt lat="49.36745" lon="0.08112">
        <ele>6</ele>
        <time>2020-06-24T13:08:47Z</time>
      </trkpt>
      <trkpt lat="49.3675" lon="0.08109">
        <ele>6</ele>
        <time>2020-06-24T13:08:51Z</time>
      </trkpt>
      <trkpt lat="49.36756" lon="0.08105">
        <ele>6</ele>
        <time>2020-06-24T13:08:54Z</time>
      </trkpt>
      <trkpt lat="49.36762" lon="0.08102">
        <ele>6</ele>
        <time>2020-06-24T13:08:59Z</time>
      </trkpt>
      <trkpt lat="49.36767" lon="0.08101">
        <ele>7</ele>
        <time>2020-06-24T13:09:03Z</time>
      </trkpt>
      <trkpt lat="49.36771" lon="0.08091">
        <ele>7</ele>
        <time>2020-06-24T13:09:17Z</time>
      </trkpt>
      <trkpt lat="49.36775" lon="0.08086">
        <ele>7</ele>
        <time>2020-06-24T13:09:25Z</time>
      </trkpt>
      <trkpt lat="49.36777" lon="0.08094">
        <ele>7</ele>
        <time>2020-06-24T13:09:49Z</time>
      </trkpt>
      <trkpt lat="49.36784" lon="0.08091">
        <ele>6</ele>
        <time>2020-06-24T13:10:17Z</time>
      </trkpt>
      <trkpt lat="49.36797" lon="0.08106">
        <ele>6</ele>
        <time>2020-06-24T13:10:28Z</time>
      </trkpt>
      <trkpt lat="49.36796" lon="0.08113">
        <ele>7</ele>
        <time>2020-06-24T13:10:32Z</time>
      </trkpt>
      <trkpt lat="49.36788" lon="0.08117">
        <ele>10</ele>
        <time>2020-06-24T13:11:11Z</time>
      </trkpt>
      <trkpt lat="49.36784" lon="0.08112">
        <ele>12</ele>
        <time>2020-06-24T13:11:30Z</time>
      </trkpt>
    </trkseg>
  </trk>
</gpx>